<?xml version='1.0' encoding='UTF-8'?><gpx version="1.1" creator="JPX - https://github.com/jenetics/jpx" xmlns="http://www.topografix.com/GPX/1/1"><trk><trkseg><trkpt lat="45.0690994" lon="7.2529363"><ele>1129.5714285714287</ele><time>2026-04-11T06:50:42.582Z</time></trkpt><trkpt lat="45.0691652" lon="7.2529527"><ele>1134.1428571428573</ele><time>2026-04-11T06:50:54.526Z</time></trkpt><trkpt lat="45.0692251" lon="7.2528997"><ele>1138.7142857142858</ele><time>2026-04-11T06:51:05.751Z</time></trkpt><trkpt lat="45.0693092" lon="7.2528696"><ele>1143.2857142857142</ele><time>2026-04-11T06:51:21.553Z</time></trkpt><trkpt lat="45.0693653" lon="7.2528269"><ele>1147.8571428571427</ele><time>2026-04-11T06:51:33.525Z</time></trkpt><trkpt lat="45.069426" lon="7.2527667"><ele>1152.4285714285713</ele><time>2026-04-11T06:51:48.612Z</time></trkpt><trkpt lat="45.0694872" lon="7.2527376"><ele>1157.0</ele><time>2026-04-11T06:51:56.579Z</time></trkpt><trkpt lat="45.0695186" lon="7.2526549"><ele>1157.0</ele><time>2026-04-11T06:52:11.573Z</time></trkpt><trkpt lat="45.0695392" lon="7.2525664"><ele>1157.0</ele><time>2026-04-11T06:52:17.513Z</time></trkpt><trkpt lat="45.0695746" lon="7.2524926"><ele>1157.0</ele><time>2026-04-11T06:52:23.433Z</time></trkpt><trkpt lat="45.0695955" lon="7.2524066"><ele>1157.0</ele><time>2026-04-11T06:52:30.58Z</time></trkpt><trkpt lat="45.0696106" lon="7.2523126"><ele>1157.0</ele><time>2026-04-11T06:52:39.611Z</time></trkpt><trkpt lat="45.069657" lon="7.2522336"><ele>1157.0</ele><time>2026-04-11T06:52:47.58Z</time></trkpt><trkpt lat="45.0697652" lon="7.2521923"><ele>1157.0</ele><time>2026-04-11T06:53:05.534Z</time></trkpt><trkpt lat="45.0698314" lon="7.2521794"><ele>1158.8333333333335</ele><time>2026-04-11T06:53:09.573Z</time></trkpt><trkpt lat="45.0698894" lon="7.2521428"><ele>1160.6666666666667</ele><time>2026-04-11T06:53:14.566Z</time></trkpt><trkpt lat="45.0700478" lon="7.2521024"><ele>1162.5</ele><time>2026-04-11T06:53:29.547Z</time></trkpt><trkpt lat="45.0701088" lon="7.2520781"><ele>1164.3333333333333</ele><time>2026-04-11T06:53:37.515Z</time></trkpt><trkpt lat="45.0701762" lon="7.2520468"><ele>1166.1666666666665</ele><time>2026-04-11T06:53:45.591Z</time></trkpt><trkpt lat="45.0702308" lon="7.2519819"><ele>1168.0</ele><time>2026-04-11T06:53:52.602Z</time></trkpt><trkpt lat="45.0702944" lon="7.2519272"><ele>1168.0</ele><time>2026-04-11T06:53:58.453Z</time></trkpt><trkpt lat="45.0703584" lon="7.2519014"><ele>1168.0</ele><time>2026-04-11T06:54:07.583Z</time></trkpt><trkpt lat="45.0704232" lon="7.2518751"><ele>1168.0</ele><time>2026-04-11T06:54:25.531Z</time></trkpt><trkpt lat="45.0704965" lon="7.2518512"><ele>1168.0</ele><time>2026-04-11T06:54:40.521Z</time></trkpt><trkpt lat="45.0705472" lon="7.2517944"><ele>1168.0</ele><time>2026-04-11T06:54:44.558Z</time></trkpt><trkpt lat="45.0705916" lon="7.2517244"><ele>1168.0</ele><time>2026-04-11T06:54:51.571Z</time></trkpt><trkpt lat="45.0706424" lon="7.2516647"><ele>1168.0</ele><time>2026-04-11T06:55:00.602Z</time></trkpt><trkpt lat="45.0706923" lon="7.2516063"><ele>1168.0</ele><time>2026-04-11T06:55:09.526Z</time></trkpt><trkpt lat="45.0707285" lon="7.2515308"><ele>1168.0</ele><time>2026-04-11T06:55:22.616Z</time></trkpt><trkpt lat="45.0707811" lon="7.2514809"><ele>1168.0</ele><time>2026-04-11T06:55:30.563Z</time></trkpt><trkpt lat="45.070841" lon="7.2514384"><ele>1168.0</ele><time>2026-04-11T06:55:38.394Z</time></trkpt><trkpt lat="45.0709046" lon="7.2514443"><ele>1168.0</ele><time>2026-04-11T06:55:51.601Z</time></trkpt><trkpt lat="45.0709601" lon="7.2514877"><ele>1168.0</ele><time>2026-04-11T06:55:58.514Z</time></trkpt><trkpt lat="45.071011" lon="7.2514293"><ele>1168.0</ele><time>2026-04-11T06:56:20.514Z</time></trkpt><trkpt lat="45.0710509" lon="7.251353"><ele>1169.5714285714284</ele><time>2026-04-11T06:56:30.617Z</time></trkpt><trkpt lat="45.0711005" lon="7.2512911"><ele>1171.142857142857</ele><time>2026-04-11T06:56:41.537Z</time></trkpt><trkpt lat="45.0711614" lon="7.2512582"><ele>1172.7142857142858</ele><time>2026-04-11T06:56:47.551Z</time></trkpt><trkpt lat="45.0712201" lon="7.251214"><ele>1174.2857142857142</ele><time>2026-04-11T06:56:55.562Z</time></trkpt><trkpt lat="45.0712859" lon="7.2511864"><ele>1175.857142857143</ele><time>2026-04-11T06:57:03.531Z</time></trkpt><trkpt lat="45.0713462" lon="7.2511501"><ele>1177.4285714285713</ele><time>2026-04-11T06:57:12.562Z</time></trkpt><trkpt lat="45.0713852" lon="7.2510706"><ele>1179.0</ele><time>2026-04-11T06:57:19.552Z</time></trkpt><trkpt lat="45.0714412" lon="7.2510087"><ele>1179.0</ele><time>2026-04-11T06:57:26.587Z</time></trkpt><trkpt lat="45.0715017" lon="7.2509786"><ele>1179.0</ele><time>2026-04-11T06:57:34.556Z</time></trkpt><trkpt lat="45.0716041" lon="7.2509724"><ele>1179.0</ele><time>2026-04-11T06:57:49.537Z</time></trkpt><trkpt lat="45.0716649" lon="7.2509272"><ele>1179.0</ele><time>2026-04-11T06:58:01.515Z</time></trkpt><trkpt lat="45.0717097" lon="7.2508594"><ele>1179.0</ele><time>2026-04-11T06:58:09.515Z</time></trkpt><trkpt lat="45.0717294" lon="7.2507588"><ele>1179.0</ele><time>2026-04-11T06:58:22.58Z</time></trkpt><trkpt lat="45.071781" lon="7.2505566"><ele>1185.2857142857142</ele><time>2026-04-11T06:58:41.598Z</time></trkpt><trkpt lat="45.0717948" lon="7.2504621"><ele>1191.5714285714284</ele><time>2026-04-11T06:58:48.514Z</time></trkpt><trkpt lat="45.0717878" lon="7.2503655"><ele>1197.8571428571427</ele><time>2026-04-11T06:58:57.513Z</time></trkpt><trkpt lat="45.0717806" lon="7.250276"><ele>1204.142857142857</ele><time>2026-04-11T06:59:06.567Z</time></trkpt><trkpt lat="45.0717423" lon="7.2501957"><ele>1210.4285714285716</ele><time>2026-04-11T06:59:17.178Z</time></trkpt><trkpt lat="45.0717207" lon="7.2501119"><ele>1216.7142857142856</ele><time>2026-04-11T06:59:32.514Z</time></trkpt><trkpt lat="45.0716952" lon="7.2500215"><ele>1223.0</ele><time>2026-04-11T06:59:41.543Z</time></trkpt><trkpt lat="45.0716433" lon="7.249968"><ele>1222.0</ele><time>2026-04-11T06:59:48.555Z</time></trkpt><trkpt lat="45.0715945" lon="7.2499098"><ele>1221.0</ele><time>2026-04-11T06:59:56.525Z</time></trkpt><trkpt lat="45.0715636" lon="7.2498283"><ele>1220.0</ele><time>2026-04-11T07:00:07.54Z</time></trkpt><trkpt lat="45.0715364" lon="7.249743"><ele>1219.0</ele><time>2026-04-11T07:00:24.578Z</time></trkpt><trkpt lat="45.0715323" lon="7.2496532"><ele>1218.0</ele><time>2026-04-11T07:00:32.322Z</time></trkpt><trkpt lat="45.0715628" lon="7.2495722"><ele>1217.0</ele><time>2026-04-11T07:00:40.599Z</time></trkpt><trkpt lat="45.0715545" lon="7.2494819"><ele>1216.0</ele><time>2026-04-11T07:00:52.523Z</time></trkpt><trkpt lat="45.0715097" lon="7.2494111"><ele>1216.0</ele><time>2026-04-11T07:01:04.53Z</time></trkpt><trkpt lat="45.0714665" lon="7.2493297"><ele>1216.0</ele><time>2026-04-11T07:01:19.513Z</time></trkpt><trkpt lat="45.0714539" lon="7.2492421"><ele>1216.0</ele><time>2026-04-11T07:01:43.525Z</time></trkpt><trkpt lat="45.0713932" lon="7.249161"><ele>1216.0</ele><time>2026-04-11T07:01:48.518Z</time></trkpt><trkpt lat="45.0713488" lon="7.2490861"><ele>1216.0</ele><time>2026-04-11T07:02:00.502Z</time></trkpt><trkpt lat="45.0712993" lon="7.249026"><ele>1216.0</ele><time>2026-04-11T07:02:21.563Z</time></trkpt><trkpt lat="45.0712442" lon="7.2489822"><ele>1216.0</ele><time>2026-04-11T07:02:52.587Z</time></trkpt><trkpt lat="45.0711739" lon="7.2488904"><ele>1217.5714285714284</ele><time>2026-04-11T07:02:53.624Z</time></trkpt><trkpt lat="45.0711059" lon="7.2488489"><ele>1219.1428571428573</ele><time>2026-04-11T07:03:06.612Z</time></trkpt><trkpt lat="45.0710527" lon="7.2487962"><ele>1220.7142857142858</ele><time>2026-04-11T07:03:13.52Z</time></trkpt><trkpt lat="45.0710407" lon="7.2487064"><ele>1222.2857142857142</ele><time>2026-04-11T07:03:23.613Z</time></trkpt><trkpt lat="45.0710791" lon="7.2486186"><ele>1223.8571428571427</ele><time>2026-04-11T07:04:18.545Z</time></trkpt><trkpt lat="45.0711038" lon="7.2485334"><ele>1225.4285714285716</ele><time>2026-04-11T07:04:31.602Z</time></trkpt><trkpt lat="45.0711595" lon="7.2484753"><ele>1227.0</ele><time>2026-04-11T07:04:40.538Z</time></trkpt><trkpt lat="45.0712052" lon="7.2483976"><ele>1227.0</ele><time>2026-04-11T07:04:47.552Z</time></trkpt><trkpt lat="45.0712158" lon="7.2483082"><ele>1227.0</ele><time>2026-04-11T07:04:53.515Z</time></trkpt><trkpt lat="45.0712024" lon="7.2482049"><ele>1227.0</ele><time>2026-04-11T07:05:00.515Z</time></trkpt><trkpt lat="45.071209" lon="7.2481128"><ele>1227.0</ele><time>2026-04-11T07:05:11.567Z</time></trkpt><trkpt lat="45.0711876" lon="7.2480288"><ele>1227.0</ele><time>2026-04-11T07:05:20.601Z</time></trkpt><trkpt lat="45.0712321" lon="7.2479599"><ele>1227.0</ele><time>2026-04-11T07:05:34.522Z</time></trkpt><trkpt lat="45.0712351" lon="7.24787"><ele>1227.0</ele><time>2026-04-11T07:05:42.599Z</time></trkpt><trkpt lat="45.0712563" lon="7.2477795"><ele>1227.4285714285716</ele><time>2026-04-11T07:05:49.515Z</time></trkpt><trkpt lat="45.0712632" lon="7.2476829"><ele>1227.8571428571427</ele><time>2026-04-11T07:06:01.62Z</time></trkpt><trkpt lat="45.071254" lon="7.2475862"><ele>1228.2857142857142</ele><time>2026-04-11T07:06:13.521Z</time></trkpt><trkpt lat="45.0712166" lon="7.2474968"><ele>1228.7142857142858</ele><time>2026-04-11T07:06:23.52Z</time></trkpt><trkpt lat="45.071189" lon="7.2474087"><ele>1229.1428571428573</ele><time>2026-04-11T07:06:31.584Z</time></trkpt><trkpt lat="45.0711663" lon="7.2473212"><ele>1229.5714285714284</ele><time>2026-04-11T07:06:38.504Z</time></trkpt><trkpt lat="45.0711608" lon="7.2472298"><ele>1230.0</ele><time>2026-04-11T07:06:48.586Z</time></trkpt><trkpt lat="45.0711532" lon="7.2471388"><ele>1231.0</ele><time>2026-04-11T07:06:56.6Z</time></trkpt><trkpt lat="45.0711983" lon="7.2470059"><ele>1232.0</ele><time>2026-04-11T07:08:00.521Z</time></trkpt><trkpt lat="45.0711929" lon="7.246917"><ele>1233.0</ele><time>2026-04-11T07:08:04.558Z</time></trkpt><trkpt lat="45.071169" lon="7.2468305"><ele>1234.0</ele><time>2026-04-11T07:08:11.57Z</time></trkpt><trkpt lat="45.0711488" lon="7.2467396"><ele>1235.0</ele><time>2026-04-11T07:08:31.547Z</time></trkpt><trkpt lat="45.0711566" lon="7.2466434"><ele>1236.0</ele><time>2026-04-11T07:08:40.579Z</time></trkpt><trkpt lat="45.0712048" lon="7.2465698"><ele>1237.0</ele><time>2026-04-11T07:08:48.548Z</time></trkpt><trkpt lat="45.0712203" lon="7.2464793"><ele>1233.5714285714284</ele><time>2026-04-11T07:09:01.516Z</time></trkpt><trkpt lat="45.0712627" lon="7.2464132"><ele>1230.1428571428573</ele><time>2026-04-11T07:09:08.523Z</time></trkpt><trkpt lat="45.0713123" lon="7.2463574"><ele>1226.7142857142858</ele><time>2026-04-11T07:09:15.536Z</time></trkpt><trkpt lat="45.0713687" lon="7.2463088"><ele>1223.2857142857142</ele><time>2026-04-11T07:09:22.548Z</time></trkpt><trkpt lat="45.0714041" lon="7.2462269"><ele>1219.8571428571427</ele><time>2026-04-11T07:09:32.536Z</time></trkpt><trkpt lat="45.07147" lon="7.2462062"><ele>1216.4285714285716</ele><time>2026-04-11T07:09:38.594Z</time></trkpt><trkpt lat="45.0715289" lon="7.2461579"><ele>1213.0</ele><time>2026-04-11T07:09:46.621Z</time></trkpt><trkpt lat="45.0715537" lon="7.2460754"><ele>1213.0</ele><time>2026-04-11T07:09:55.564Z</time></trkpt><trkpt lat="45.0715996" lon="7.246004"><ele>1213.0</ele><time>2026-04-11T07:10:05.42Z</time></trkpt><trkpt lat="45.0716419" lon="7.2459263"><ele>1213.0</ele><time>2026-04-11T07:10:12.583Z</time></trkpt><trkpt lat="45.0716598" lon="7.2458389"><ele>1213.0</ele><time>2026-04-11T07:10:19.516Z</time></trkpt><trkpt lat="45.0716738" lon="7.2457488"><ele>1213.0</ele><time>2026-04-11T07:10:26.58Z</time></trkpt><trkpt lat="45.0717283" lon="7.2456805"><ele>1213.0</ele><time>2026-04-11T07:10:34.591Z</time></trkpt><trkpt lat="45.0717612" lon="7.2455923"><ele>1213.0</ele><time>2026-04-11T07:10:47.555Z</time></trkpt><trkpt lat="45.0717865" lon="7.2454978"><ele>1215.5714285714287</ele><time>2026-04-11T07:10:58.516Z</time></trkpt><trkpt lat="45.0718238" lon="7.2454186"><ele>1218.142857142857</ele><time>2026-04-11T07:11:06.575Z</time></trkpt><trkpt lat="45.0718736" lon="7.2453522"><ele>1220.7142857142858</ele><time>2026-04-11T07:11:14.599Z</time></trkpt><trkpt lat="45.0718865" lon="7.2452597"><ele>1223.2857142857142</ele><time>2026-04-11T07:11:26.552Z</time></trkpt><trkpt lat="45.0719002" lon="7.2451654"><ele>1225.857142857143</ele><time>2026-04-11T07:11:35.421Z</time></trkpt><trkpt lat="45.0719165" lon="7.2450745"><ele>1228.4285714285713</ele><time>2026-04-11T07:11:46.528Z</time></trkpt><trkpt lat="45.071967" lon="7.2450093"><ele>1231.0</ele><time>2026-04-11T07:11:53.541Z</time></trkpt><trkpt lat="45.0720104" lon="7.2449427"><ele>1231.0</ele><time>2026-04-11T07:12:04.464Z</time></trkpt><trkpt lat="45.072044" lon="7.2448549"><ele>1231.0</ele><time>2026-04-11T07:12:12.562Z</time></trkpt><trkpt lat="45.072095" lon="7.2447934"><ele>1231.0</ele><time>2026-04-11T07:12:20.579Z</time></trkpt><trkpt lat="45.0721456" lon="7.2447214"><ele>1231.0</ele><time>2026-04-11T07:12:32.539Z</time></trkpt><trkpt lat="45.0721861" lon="7.2446415"><ele>1231.0</ele><time>2026-04-11T07:12:39.444Z</time></trkpt><trkpt lat="45.0722474" lon="7.2446041"><ele>1231.0</ele><time>2026-04-11T07:12:48.515Z</time></trkpt><trkpt lat="45.0723379" lon="7.244542"><ele>1231.0</ele><time>2026-04-11T07:13:04.557Z</time></trkpt><trkpt lat="45.0723972" lon="7.2444927"><ele>1229.7142857142858</ele><time>2026-04-11T07:13:21.558Z</time></trkpt><trkpt lat="45.072417" lon="7.2444064"><ele>1228.4285714285716</ele><time>2026-04-11T07:13:32.556Z</time></trkpt><trkpt lat="45.0724" lon="7.2443005"><ele>1227.1428571428573</ele><time>2026-04-11T07:13:39.497Z</time></trkpt><trkpt lat="45.0723676" lon="7.244214"><ele>1225.857142857143</ele><time>2026-04-11T07:13:46.636Z</time></trkpt><trkpt lat="45.072343" lon="7.2440944"><ele>1224.5714285714287</ele><time>2026-04-11T07:14:03.53Z</time></trkpt><trkpt lat="45.0723024" lon="7.2440194"><ele>1223.2857142857144</ele><time>2026-04-11T07:14:13.517Z</time></trkpt><trkpt lat="45.0722627" lon="7.2439486"><ele>1222.0</ele><time>2026-04-11T07:14:24.569Z</time></trkpt><trkpt lat="45.0722602" lon="7.2438508"><ele>1226.2857142857144</ele><time>2026-04-11T07:14:36.577Z</time></trkpt><trkpt lat="45.072281" lon="7.2437586"><ele>1230.5714285714287</ele><time>2026-04-11T07:14:48.584Z</time></trkpt><trkpt lat="45.0723185" lon="7.2436752"><ele>1234.857142857143</ele><time>2026-04-11T07:14:55.597Z</time></trkpt><trkpt lat="45.0723096" lon="7.2435774"><ele>1239.1428571428573</ele><time>2026-04-11T07:15:05.586Z</time></trkpt><trkpt lat="45.0722593" lon="7.2435036"><ele>1243.4285714285716</ele><time>2026-04-11T07:15:13.556Z</time></trkpt><trkpt lat="45.0721921" lon="7.2434891"><ele>1247.7142857142858</ele><time>2026-04-11T07:15:20.569Z</time></trkpt><trkpt lat="45.0721473" lon="7.2434152"><ele>1252.0</ele><time>2026-04-11T07:15:27.582Z</time></trkpt><trkpt lat="45.0721068" lon="7.2433467"><ele>1252.0</ele><time>2026-04-11T07:15:33.533Z</time></trkpt><trkpt lat="45.0719881" lon="7.243267"><ele>1252.0</ele><time>2026-04-11T07:15:53.515Z</time></trkpt><trkpt lat="45.0719345" lon="7.2432041"><ele>1252.0</ele><time>2026-04-11T07:16:01.495Z</time></trkpt><trkpt lat="45.0718989" lon="7.2431292"><ele>1252.0</ele><time>2026-04-11T07:16:08.597Z</time></trkpt><trkpt lat="45.0718397" lon="7.2430745"><ele>1252.0</ele><time>2026-04-11T07:16:14.549Z</time></trkpt><trkpt lat="45.0717908" lon="7.2430147"><ele>1252.0</ele><time>2026-04-11T07:16:21.562Z</time></trkpt><trkpt lat="45.0717347" lon="7.2429489"><ele>1255.7142857142858</ele><time>2026-04-11T07:16:35.587Z</time></trkpt><trkpt lat="45.0717176" lon="7.2428613"><ele>1259.4285714285716</ele><time>2026-04-11T07:16:41.538Z</time></trkpt><trkpt lat="45.0716564" lon="7.2428234"><ele>1263.1428571428573</ele><time>2026-04-11T07:16:52.59Z</time></trkpt><trkpt lat="45.0715976" lon="7.2427817"><ele>1266.857142857143</ele><time>2026-04-11T07:17:03.534Z</time></trkpt><trkpt lat="45.071532" lon="7.2427779"><ele>1270.5714285714287</ele><time>2026-04-11T07:17:09.591Z</time></trkpt><trkpt lat="45.0714657" lon="7.2427811"><ele>1274.2857142857144</ele><time>2026-04-11T07:17:17.561Z</time></trkpt><trkpt lat="45.0713987" lon="7.2427759"><ele>1278.0</ele><time>2026-04-11T07:17:26.593Z</time></trkpt><trkpt lat="45.0713511" lon="7.2427169"><ele>1278.0000000000002</ele><time>2026-04-11T07:17:37.537Z</time></trkpt><trkpt lat="45.0712876" lon="7.242692"><ele>1278.0</ele><time>2026-04-11T07:17:44.499Z</time></trkpt><trkpt lat="45.0712225" lon="7.2426813"><ele>1278.0</ele><time>2026-04-11T07:17:51.578Z</time></trkpt><trkpt lat="45.0711691" lon="7.2426246"><ele>1278.0</ele><time>2026-04-11T07:18:00.595Z</time></trkpt><trkpt lat="45.0711127" lon="7.2425701"><ele>1278.0</ele><time>2026-04-11T07:18:13.557Z</time></trkpt><trkpt lat="45.0710511" lon="7.2425215"><ele>1278.0000000000002</ele><time>2026-04-11T07:18:23.547Z</time></trkpt><trkpt lat="45.0709988" lon="7.2424679"><ele>1278.0</ele><time>2026-04-11T07:18:37.555Z</time></trkpt><trkpt lat="45.0709963" lon="7.2423719"><ele>1278.0000000000002</ele><time>2026-04-11T07:18:47.561Z</time></trkpt><trkpt lat="45.0709481" lon="7.2423113"><ele>1278.0</ele><time>2026-04-11T07:19:01.586Z</time></trkpt><trkpt lat="45.0708842" lon="7.2423154"><ele>1278.0</ele><time>2026-04-11T07:19:16.569Z</time></trkpt><trkpt lat="45.070821" lon="7.2423164"><ele>1278.0</ele><time>2026-04-11T07:19:21.439Z</time></trkpt><trkpt lat="45.0707526" lon="7.2423053"><ele>1278.0</ele><time>2026-04-11T07:19:27.515Z</time></trkpt><trkpt lat="45.0706867" lon="7.242275"><ele>1278.0000000000002</ele><time>2026-04-11T07:19:43.558Z</time></trkpt><trkpt lat="45.0706212" lon="7.2422562"><ele>1278.0</ele><time>2026-04-11T07:19:54.609Z</time></trkpt><trkpt lat="45.0705649" lon="7.2422991"><ele>1279.0000000000002</ele><time>2026-04-11T07:20:06.579Z</time></trkpt><trkpt lat="45.0705686" lon="7.2421937"><ele>1280.0</ele><time>2026-04-11T07:21:07.475Z</time></trkpt><trkpt lat="45.0705684" lon="7.2421042"><ele>1281.0</ele><time>2026-04-11T07:21:14.517Z</time></trkpt><trkpt lat="45.0705471" lon="7.2420153"><ele>1282.0</ele><time>2026-04-11T07:21:25.566Z</time></trkpt><trkpt lat="45.0705193" lon="7.2419332"><ele>1283.0</ele><time>2026-04-11T07:21:38.53Z</time></trkpt><trkpt lat="45.0704575" lon="7.2418893"><ele>1284.0000000000002</ele><time>2026-04-11T07:21:47.578Z</time></trkpt><trkpt lat="45.0704077" lon="7.2418269"><ele>1285.0</ele><time>2026-04-11T07:21:55.531Z</time></trkpt><trkpt lat="45.0703498" lon="7.241711"><ele>1285.0</ele><time>2026-04-11T07:22:25.575Z</time></trkpt><trkpt lat="45.0702955" lon="7.2416438"><ele>1285.0</ele><time>2026-04-11T07:22:37.609Z</time></trkpt><trkpt lat="45.0702554" lon="7.2415737"><ele>1285.0</ele><time>2026-04-11T07:22:54.609Z</time></trkpt><trkpt lat="45.0702425" lon="7.2414167"><ele>1285.0</ele><time>2026-04-11T07:23:27.55Z</time></trkpt><trkpt lat="45.0702631" lon="7.2413307"><ele>1285.0</ele><time>2026-04-11T07:23:37.538Z</time></trkpt><trkpt lat="45.0703375" lon="7.2412534"><ele>1285.0</ele><time>2026-04-11T07:24:36.517Z</time></trkpt><trkpt lat="45.0703679" lon="7.2411399"><ele>1286.8333333333333</ele><time>2026-04-11T07:24:51.601Z</time></trkpt><trkpt lat="45.0703767" lon="7.2410495"><ele>1288.6666666666665</ele><time>2026-04-11T07:25:02.546Z</time></trkpt><trkpt lat="45.0703933" lon="7.2409542"><ele>1290.5</ele><time>2026-04-11T07:25:21.457Z</time></trkpt><trkpt lat="45.0704743" lon="7.2408295"><ele>1292.3333333333333</ele><time>2026-04-11T07:26:04.599Z</time></trkpt><trkpt lat="45.0705382" lon="7.2408008"><ele>1294.1666666666667</ele><time>2026-04-11T07:26:13.526Z</time></trkpt><trkpt lat="45.0705859" lon="7.240737"><ele>1296.0</ele><time>2026-04-11T07:26:43.597Z</time></trkpt><trkpt lat="45.0706053" lon="7.2406394"><ele>1297.0</ele><time>2026-04-11T07:26:56.561Z</time></trkpt><trkpt lat="45.0706379" lon="7.2405501"><ele>1298.0</ele><time>2026-04-11T07:27:03.573Z</time></trkpt><trkpt lat="45.0706624" lon="7.2404678"><ele>1299.0</ele><time>2026-04-11T07:27:14.518Z</time></trkpt><trkpt lat="45.0706725" lon="7.2403649"><ele>1300.0</ele><time>2026-04-11T07:27:33.559Z</time></trkpt><trkpt lat="45.0707442" lon="7.2402893"><ele>1301.0</ele><time>2026-04-11T07:28:24.639Z</time></trkpt><trkpt lat="45.0707511" lon="7.2401935"><ele>1302.0</ele><time>2026-04-11T07:28:36.55Z</time></trkpt><trkpt lat="45.0707209" lon="7.2401122"><ele>1303.0</ele><time>2026-04-11T07:28:42.607Z</time></trkpt><trkpt lat="45.070706" lon="7.2400212"><ele>1303.0</ele><time>2026-04-11T07:28:54.518Z</time></trkpt><trkpt lat="45.0707178" lon="7.2399292"><ele>1303.0</ele><time>2026-04-11T07:29:03.54Z</time></trkpt><trkpt lat="45.0706995" lon="7.2398401"><ele>1303.0</ele><time>2026-04-11T07:29:13.528Z</time></trkpt><trkpt lat="45.0706987" lon="7.2397462"><ele>1303.0</ele><time>2026-04-11T07:29:23.517Z</time></trkpt><trkpt lat="45.070715" lon="7.2396596"><ele>1303.0</ele><time>2026-04-11T07:29:48.593Z</time></trkpt><trkpt lat="45.0707002" lon="7.2395504"><ele>1303.0</ele><time>2026-04-11T07:29:49.55Z</time></trkpt><trkpt lat="45.0706933" lon="7.2394616"><ele>1303.0</ele><time>2026-04-11T07:30:00.598Z</time></trkpt><trkpt lat="45.0706643" lon="7.2393276"><ele>1305.1666666666665</ele><time>2026-04-11T07:30:21.478Z</time></trkpt><trkpt lat="45.0706265" lon="7.2391576"><ele>1307.3333333333333</ele><time>2026-04-11T07:30:43.556Z</time></trkpt><trkpt lat="45.0705894" lon="7.2390806"><ele>1309.5</ele><time>2026-04-11T07:30:55.538Z</time></trkpt><trkpt lat="45.0705777" lon="7.2389789"><ele>1311.6666666666667</ele><time>2026-04-11T07:31:03.519Z</time></trkpt><trkpt lat="45.0705775" lon="7.2388855"><ele>1313.8333333333335</ele><time>2026-04-11T07:31:15.519Z</time></trkpt><trkpt lat="45.0705789" lon="7.2387925"><ele>1316.0</ele><time>2026-04-11T07:31:30.604Z</time></trkpt><trkpt lat="45.0705522" lon="7.2387038"><ele>1320.5</ele><time>2026-04-11T07:31:39.53Z</time></trkpt><trkpt lat="45.0706057" lon="7.2387583"><ele>1325.0</ele><time>2026-04-11T07:32:20.548Z</time></trkpt><trkpt lat="45.0706494" lon="7.2388242"><ele>1329.5</ele><time>2026-04-11T07:32:25.542Z</time></trkpt><trkpt lat="45.0707476" lon="7.2387035"><ele>1334.0</ele><time>2026-04-11T07:33:08.578Z</time></trkpt><trkpt lat="45.0707309" lon="7.2386175"><ele>1338.5</ele><time>2026-04-11T07:33:24.537Z</time></trkpt><trkpt lat="45.0707022" lon="7.2385359"><ele>1343.0</ele><time>2026-04-11T07:33:47.523Z</time></trkpt><trkpt lat="45.0707216" lon="7.2384435"><ele>1343.0</ele><time>2026-04-11T07:33:55.599Z</time></trkpt><trkpt lat="45.0707228" lon="7.238236"><ele>1343.0</ele><time>2026-04-11T07:34:32.579Z</time></trkpt><trkpt lat="45.0706981" lon="7.2381465"><ele>1343.0</ele><time>2026-04-11T07:34:44.586Z</time></trkpt><trkpt lat="45.0706549" lon="7.2380782"><ele>1343.0</ele><time>2026-04-11T07:34:54.575Z</time></trkpt><trkpt lat="45.070624" lon="7.237991"><ele>1343.0</ele><time>2026-04-11T07:35:20.514Z</time></trkpt><trkpt lat="45.0706029" lon="7.2378979"><ele>1343.0</ele><time>2026-04-11T07:35:28.579Z</time></trkpt><trkpt lat="45.0706053" lon="7.2378033"><ele>1347.2857142857142</ele><time>2026-04-11T07:35:36.549Z</time></trkpt><trkpt lat="45.0705892" lon="7.2377081"><ele>1351.5714285714287</ele><time>2026-04-11T07:35:44.519Z</time></trkpt><trkpt lat="45.0705601" lon="7.2376253"><ele>1355.857142857143</ele><time>2026-04-11T07:35:53.551Z</time></trkpt><trkpt lat="45.0705024" lon="7.2375595"><ele>1360.142857142857</ele><time>2026-04-11T07:36:12.501Z</time></trkpt><trkpt lat="45.0704553" lon="7.2374884"><ele>1364.4285714285713</ele><time>2026-04-11T07:36:19.586Z</time></trkpt><trkpt lat="45.0704032" lon="7.2374214"><ele>1368.7142857142858</ele><time>2026-04-11T07:36:27.6Z</time></trkpt><trkpt lat="45.0703581" lon="7.2373551"><ele>1373.0</ele><time>2026-04-11T07:36:38.606Z</time></trkpt><trkpt lat="45.0703411" lon="7.2372686"><ele>1377.4285714285716</ele><time>2026-04-11T07:36:51.571Z</time></trkpt><trkpt lat="45.0703086" lon="7.2371821"><ele>1381.857142857143</ele><time>2026-04-11T07:37:04.534Z</time></trkpt><trkpt lat="45.0702639" lon="7.2371101"><ele>1386.2857142857142</ele><time>2026-04-11T07:37:13.568Z</time></trkpt><trkpt lat="45.0702297" lon="7.2370343"><ele>1390.7142857142858</ele><time>2026-04-11T07:37:26.508Z</time></trkpt><trkpt lat="45.0701798" lon="7.2369718"><ele>1395.142857142857</ele><time>2026-04-11T07:37:30.545Z</time></trkpt><trkpt lat="45.0701301" lon="7.2369063"><ele>1399.5714285714287</ele><time>2026-04-11T07:37:36.603Z</time></trkpt><trkpt lat="45.0700654" lon="7.236861"><ele>1404.0</ele><time>2026-04-11T07:37:43.616Z</time></trkpt><trkpt lat="45.0700013" lon="7.2368393"><ele>1404.0000000000002</ele><time>2026-04-11T07:38:03.592Z</time></trkpt><trkpt lat="45.0699494" lon="7.2367885"><ele>1404.0</ele><time>2026-04-11T07:38:31.541Z</time></trkpt><trkpt lat="45.069892" lon="7.2367471"><ele>1404.0</ele><time>2026-04-11T07:38:36.534Z</time></trkpt><trkpt lat="45.0698491" lon="7.23667"><ele>1404.0</ele><time>2026-04-11T07:38:45.566Z</time></trkpt><trkpt lat="45.0698668" lon="7.2367569"><ele>1404.0</ele><time>2026-04-11T07:39:23.609Z</time></trkpt><trkpt lat="45.0699162" lon="7.2366642"><ele>1404.0000000000002</ele><time>2026-04-11T07:39:47.518Z</time></trkpt><trkpt lat="45.0699365" lon="7.2365794"><ele>1404.0</ele><time>2026-04-11T07:40:20.548Z</time></trkpt><trkpt lat="45.0699844" lon="7.236457"><ele>1406.5714285714287</ele><time>2026-04-11T07:40:45.538Z</time></trkpt><trkpt lat="45.0700662" lon="7.236423"><ele>1409.142857142857</ele><time>2026-04-11T07:41:02.593Z</time></trkpt><trkpt lat="45.0700545" lon="7.236333"><ele>1411.7142857142858</ele><time>2026-04-11T07:41:19.595Z</time></trkpt><trkpt lat="45.070061" lon="7.2362442"><ele>1414.2857142857142</ele><time>2026-04-11T07:41:30.541Z</time></trkpt><trkpt lat="45.0700696" lon="7.2361529"><ele>1416.857142857143</ele><time>2026-04-11T07:41:43.514Z</time></trkpt><trkpt lat="45.0700951" lon="7.2360697"><ele>1419.4285714285716</ele><time>2026-04-11T07:42:01.569Z</time></trkpt><trkpt lat="45.0701183" lon="7.2359858"><ele>1422.0</ele><time>2026-04-11T07:42:16.554Z</time></trkpt><trkpt lat="45.0701361" lon="7.2358566"><ele>1422.0</ele><time>2026-04-11T07:42:54.596Z</time></trkpt><trkpt lat="45.0701404" lon="7.2357671"><ele>1422.0</ele><time>2026-04-11T07:43:00.547Z</time></trkpt><trkpt lat="45.0701433" lon="7.2356732"><ele>1422.0</ele><time>2026-04-11T07:43:07.559Z</time></trkpt><trkpt lat="45.0701428" lon="7.2355744"><ele>1422.0</ele><time>2026-04-11T07:43:18.513Z</time></trkpt><trkpt lat="45.0701434" lon="7.2354765"><ele>1422.0</ele><time>2026-04-11T07:43:26.539Z</time></trkpt><trkpt lat="45.0701294" lon="7.2353847"><ele>1422.0</ele><time>2026-04-11T07:43:33.595Z</time></trkpt><trkpt lat="45.070105" lon="7.2352997"><ele>1422.0</ele><time>2026-04-11T07:43:42.521Z</time></trkpt><trkpt lat="45.070106" lon="7.235208"><ele>1424.142857142857</ele><time>2026-04-11T07:43:47.515Z</time></trkpt><trkpt lat="45.0700989" lon="7.2351138"><ele>1426.2857142857142</ele><time>2026-04-11T07:43:52.514Z</time></trkpt><trkpt lat="45.0701031" lon="7.2350138"><ele>1428.4285714285716</ele><time>2026-04-11T07:44:00.586Z</time></trkpt><trkpt lat="45.0701186" lon="7.2349108"><ele>1430.5714285714284</ele><time>2026-04-11T07:44:07.6Z</time></trkpt><trkpt lat="45.0701333" lon="7.2348209"><ele>1432.7142857142856</ele><time>2026-04-11T07:44:15.569Z</time></trkpt><trkpt lat="45.0701368" lon="7.2347107"><ele>1434.857142857143</ele><time>2026-04-11T07:44:26.619Z</time></trkpt><trkpt lat="45.0701422" lon="7.2346179"><ele>1437.0</ele><time>2026-04-11T07:44:34.478Z</time></trkpt><trkpt lat="45.0701681" lon="7.2344018"><ele>1438.2857142857144</ele><time>2026-04-11T07:44:56.538Z</time></trkpt><trkpt lat="45.0701978" lon="7.2343214"><ele>1439.5714285714284</ele><time>2026-04-11T07:45:08.597Z</time></trkpt><trkpt lat="45.0701948" lon="7.2342314"><ele>1440.857142857143</ele><time>2026-04-11T07:45:15.611Z</time></trkpt><trkpt lat="45.0701963" lon="7.2341379"><ele>1442.1428571428573</ele><time>2026-04-11T07:45:22.596Z</time></trkpt><trkpt lat="45.0701935" lon="7.2340339"><ele>1443.4285714285716</ele><time>2026-04-11T07:45:29.531Z</time></trkpt><trkpt lat="45.0701818" lon="7.2339431"><ele>1444.7142857142858</ele><time>2026-04-11T07:45:38.564Z</time></trkpt><trkpt lat="45.0701854" lon="7.2338494"><ele>1446.0</ele><time>2026-04-11T07:45:47.595Z</time></trkpt><trkpt lat="45.07022" lon="7.2337723"><ele>1446.2857142857144</ele><time>2026-04-11T07:45:52.436Z</time></trkpt><trkpt lat="45.0702786" lon="7.2337351"><ele>1446.5714285714287</ele><time>2026-04-11T07:46:02.579Z</time></trkpt><trkpt lat="45.0703105" lon="7.2336547"><ele>1446.857142857143</ele><time>2026-04-11T07:46:11.478Z</time></trkpt><trkpt lat="45.0703355" lon="7.2335628"><ele>1447.1428571428573</ele><time>2026-04-11T07:46:19.581Z</time></trkpt><trkpt lat="45.0703486" lon="7.2334747"><ele>1447.4285714285713</ele><time>2026-04-11T07:46:28.515Z</time></trkpt><trkpt lat="45.070358" lon="7.2333832"><ele>1447.7142857142858</ele><time>2026-04-11T07:46:36.536Z</time></trkpt><trkpt lat="45.0703985" lon="7.2333008"><ele>1448.0</ele><time>2026-04-11T07:46:42.534Z</time></trkpt><trkpt lat="45.0704383" lon="7.2332285"><ele>1448.0</ele><time>2026-04-11T07:46:49.538Z</time></trkpt><trkpt lat="45.0704913" lon="7.2331777"><ele>1448.0</ele><time>2026-04-11T07:47:02.556Z</time></trkpt><trkpt lat="45.0705405" lon="7.2331167"><ele>1448.0</ele><time>2026-04-11T07:47:17.6Z</time></trkpt><trkpt lat="45.0705783" lon="7.2330365"><ele>1448.0</ele><time>2026-04-11T07:47:26.526Z</time></trkpt><trkpt lat="45.0706167" lon="7.2329598"><ele>1448.0</ele><time>2026-04-11T07:47:32.583Z</time></trkpt><trkpt lat="45.0706628" lon="7.232881"><ele>1448.0</ele><time>2026-04-11T07:47:40.553Z</time></trkpt><trkpt lat="45.070616" lon="7.2327858"><ele>1448.0</ele><time>2026-04-11T07:48:15.515Z</time></trkpt><trkpt lat="45.0706799" lon="7.2327837"><ele>1446.142857142857</ele><time>2026-04-11T07:48:47.072Z</time></trkpt><trkpt lat="45.0706945" lon="7.2326965"><ele>1444.2857142857142</ele><time>2026-04-11T07:49:09.601Z</time></trkpt><trkpt lat="45.0706854" lon="7.232602"><ele>1442.4285714285716</ele><time>2026-04-11T07:49:18.528Z</time></trkpt><trkpt lat="45.0707083" lon="7.2325076"><ele>1440.5714285714284</ele><time>2026-04-11T07:49:26.596Z</time></trkpt><trkpt lat="45.0707627" lon="7.2324417"><ele>1438.7142857142858</ele><time>2026-04-11T07:49:34.574Z</time></trkpt><trkpt lat="45.0708257" lon="7.2324125"><ele>1436.857142857143</ele><time>2026-04-11T07:49:40.616Z</time></trkpt><trkpt lat="45.0708947" lon="7.2323784"><ele>1435.0</ele><time>2026-04-11T07:49:51.576Z</time></trkpt><trkpt lat="45.0709509" lon="7.232326"><ele>1439.857142857143</ele><time>2026-04-11T07:50:06.558Z</time></trkpt><trkpt lat="45.0710209" lon="7.2323109"><ele>1444.7142857142858</ele><time>2026-04-11T07:50:13.572Z</time></trkpt><trkpt lat="45.0710866" lon="7.232285"><ele>1449.5714285714284</ele><time>2026-04-11T07:50:20.586Z</time></trkpt><trkpt lat="45.0711421" lon="7.2322225"><ele>1454.4285714285716</ele><time>2026-04-11T07:50:34.612Z</time></trkpt><trkpt lat="45.0711795" lon="7.2321406"><ele>1459.2857142857142</ele><time>2026-04-11T07:50:40.563Z</time></trkpt><trkpt lat="45.0712234" lon="7.232069"><ele>1464.142857142857</ele><time>2026-04-11T07:50:49.596Z</time></trkpt><trkpt lat="45.0712569" lon="7.2319845"><ele>1469.0</ele><time>2026-04-11T07:50:57.565Z</time></trkpt><trkpt lat="45.0713347" lon="7.2319214"><ele>1469.0</ele><time>2026-04-11T07:51:28.527Z</time></trkpt><trkpt lat="45.0713451" lon="7.2320118"><ele>1469.0</ele><time>2026-04-11T07:51:41.598Z</time></trkpt><trkpt lat="45.071435" lon="7.2320358"><ele>1469.0</ele><time>2026-04-11T07:52:09.528Z</time></trkpt><trkpt lat="45.0714761" lon="7.2319618"><ele>1469.0</ele><time>2026-04-11T07:52:18.579Z</time></trkpt><trkpt lat="45.0715661" lon="7.2319688"><ele>1469.0</ele><time>2026-04-11T07:53:26.588Z</time></trkpt><trkpt lat="45.0716246" lon="7.2319285"><ele>1469.0</ele><time>2026-04-11T07:53:30.52Z</time></trkpt><trkpt lat="45.0716657" lon="7.2318607"><ele>1469.0</ele><time>2026-04-11T07:53:37.533Z</time></trkpt><trkpt lat="45.0716908" lon="7.2317668"><ele>1476.4285714285713</ele><time>2026-04-11T07:53:55.596Z</time></trkpt><trkpt lat="45.071704" lon="7.2316716"><ele>1483.8571428571427</ele><time>2026-04-11T07:54:02.67Z</time></trkpt><trkpt lat="45.0717421" lon="7.2315993"><ele>1491.2857142857142</ele><time>2026-04-11T07:54:13.522Z</time></trkpt><trkpt lat="45.0718046" lon="7.2315505"><ele>1498.7142857142858</ele><time>2026-04-11T07:54:17.537Z</time></trkpt><trkpt lat="45.0718224" lon="7.2314121"><ele>1506.142857142857</ele><time>2026-04-11T07:54:34.561Z</time></trkpt><trkpt lat="45.0718092" lon="7.2313213"><ele>1513.5714285714287</ele><time>2026-04-11T07:54:43.594Z</time></trkpt><trkpt lat="45.0718122" lon="7.2312309"><ele>1521.0</ele><time>2026-04-11T07:54:50.608Z</time></trkpt><trkpt lat="45.071832" lon="7.2311417"><ele>1521.0</ele><time>2026-04-11T07:54:57.621Z</time></trkpt><trkpt lat="45.0718119" lon="7.2310562"><ele>1521.0</ele><time>2026-04-11T07:55:06.547Z</time></trkpt><trkpt lat="45.0718135" lon="7.2309597"><ele>1521.0</ele><time>2026-04-11T07:55:16.535Z</time></trkpt><trkpt lat="45.0718275" lon="7.2308653"><ele>1521.0</ele><time>2026-04-11T07:55:34.6Z</time></trkpt><trkpt lat="45.0718585" lon="7.2307846"><ele>1521.0</ele><time>2026-04-11T07:55:43.526Z</time></trkpt><trkpt lat="45.0718807" lon="7.2306592"><ele>1521.0</ele><time>2026-04-11T07:56:03.596Z</time></trkpt><trkpt lat="45.0719312" lon="7.2305875"><ele>1521.0</ele><time>2026-04-11T07:56:10.495Z</time></trkpt><trkpt lat="45.0719729" lon="7.230517"><ele>1520.0</ele><time>2026-04-11T07:56:19.55Z</time></trkpt><trkpt lat="45.0719896" lon="7.2303502"><ele>1519.0</ele><time>2026-04-11T07:56:39.527Z</time></trkpt><trkpt lat="45.0720137" lon="7.2302636"><ele>1518.0</ele><time>2026-04-11T07:56:46.539Z</time></trkpt><trkpt lat="45.0720386" lon="7.2301741"><ele>1517.0</ele><time>2026-04-11T07:56:52.597Z</time></trkpt><trkpt lat="45.0720838" lon="7.2301094"><ele>1516.0</ele><time>2026-04-11T07:57:01.523Z</time></trkpt><trkpt lat="45.072109" lon="7.2300227"><ele>1515.0</ele><time>2026-04-11T07:57:11.516Z</time></trkpt><trkpt lat="45.0721581" lon="7.2299575"><ele>1514.9999999999998</ele><time>2026-04-11T07:57:20.545Z</time></trkpt><trkpt lat="45.0722162" lon="7.2299211"><ele>1515.0</ele><time>2026-04-11T07:57:28.516Z</time></trkpt><trkpt lat="45.0722645" lon="7.2298614"><ele>1515.0</ele><time>2026-04-11T07:57:36.589Z</time></trkpt><trkpt lat="45.072307" lon="7.2297877"><ele>1515.0</ele><time>2026-04-11T07:57:42.54Z</time></trkpt><trkpt lat="45.0723654" lon="7.22974"><ele>1515.0</ele><time>2026-04-11T07:57:49.554Z</time></trkpt><trkpt lat="45.0724198" lon="7.2296937"><ele>1514.9999999999998</ele><time>2026-04-11T07:58:00.497Z</time></trkpt><trkpt lat="45.0725049" lon="7.2295913"><ele>1515.0</ele><time>2026-04-11T07:58:24.516Z</time></trkpt><trkpt lat="45.0725591" lon="7.2295402"><ele>1517.7142857142856</ele><time>2026-04-11T07:58:34.61Z</time></trkpt><trkpt lat="45.0726231" lon="7.2295302"><ele>1520.4285714285713</ele><time>2026-04-11T07:58:42.519Z</time></trkpt><trkpt lat="45.0726877" lon="7.2295118"><ele>1523.142857142857</ele><time>2026-04-11T07:58:53.525Z</time></trkpt><trkpt lat="45.0727755" lon="7.2294499"><ele>1525.8571428571427</ele><time>2026-04-11T07:59:13.518Z</time></trkpt><trkpt lat="45.0728394" lon="7.2294146"><ele>1528.5714285714287</ele><time>2026-04-11T07:59:19.559Z</time></trkpt><trkpt lat="45.0729047" lon="7.2293847"><ele>1531.2857142857142</ele><time>2026-04-11T07:59:27.529Z</time></trkpt><trkpt lat="45.0729718" lon="7.2293318"><ele>1534.0</ele><time>2026-04-11T07:59:36.561Z</time></trkpt><trkpt lat="45.0730587" lon="7.2293194"><ele>1534.0</ele><time>2026-04-11T08:00:11.521Z</time></trkpt><trkpt lat="45.0731165" lon="7.2292822"><ele>1534.0</ele><time>2026-04-11T08:00:23.529Z</time></trkpt><trkpt lat="45.0731651" lon="7.229341"><ele>1534.0</ele><time>2026-04-11T08:00:34.58Z</time></trkpt><trkpt lat="45.0732346" lon="7.2293674"><ele>1534.0</ele><time>2026-04-11T08:00:55.559Z</time></trkpt><trkpt lat="45.0732494" lon="7.2294562"><ele>1534.0</ele><time>2026-04-11T08:01:14.541Z</time></trkpt><trkpt lat="45.0733251" lon="7.229508"><ele>1534.0</ele><time>2026-04-11T08:01:53.547Z</time></trkpt><trkpt lat="45.0734091" lon="7.2295089"><ele>1534.0</ele><time>2026-04-11T08:02:05.6Z</time></trkpt><trkpt lat="45.0734735" lon="7.2294997"><ele>1540.6666666666665</ele><time>2026-04-11T08:02:29.57Z</time></trkpt><trkpt lat="45.0735531" lon="7.2294376"><ele>1547.3333333333333</ele><time>2026-04-11T08:02:47.528Z</time></trkpt><trkpt lat="45.0736126" lon="7.2294011"><ele>1554.0</ele><time>2026-04-11T08:02:55.604Z</time></trkpt><trkpt lat="45.0737263" lon="7.2292964"><ele>1560.6666666666665</ele><time>2026-04-11T08:03:49.583Z</time></trkpt><trkpt lat="45.0737784" lon="7.2292463"><ele>1567.3333333333333</ele><time>2026-04-11T08:03:57.553Z</time></trkpt><trkpt lat="45.0738511" lon="7.2292528"><ele>1574.0</ele><time>2026-04-11T08:04:04.567Z</time></trkpt><trkpt lat="45.0739313" lon="7.2292347"><ele>1574.0</ele><time>2026-04-11T08:04:17.531Z</time></trkpt><trkpt lat="45.0739974" lon="7.2292246"><ele>1574.0</ele><time>2026-04-11T08:04:28.582Z</time></trkpt><trkpt lat="45.0740368" lon="7.2291485"><ele>1574.0</ele><time>2026-04-11T08:04:35.595Z</time></trkpt><trkpt lat="45.074106" lon="7.229114"><ele>1574.0</ele><time>2026-04-11T08:04:43.565Z</time></trkpt><trkpt lat="45.074178" lon="7.2291202"><ele>1574.0</ele><time>2026-04-11T08:04:53.553Z</time></trkpt><trkpt lat="45.074238" lon="7.2290873"><ele>1574.0</ele><time>2026-04-11T08:05:05.519Z</time></trkpt><trkpt lat="45.0742914" lon="7.2290093"><ele>1574.0</ele><time>2026-04-11T08:05:11.515Z</time></trkpt><trkpt lat="45.074415" lon="7.229014"><ele>1578.857142857143</ele><time>2026-04-11T08:05:30.533Z</time></trkpt><trkpt lat="45.0744793" lon="7.2290224"><ele>1583.7142857142858</ele><time>2026-04-11T08:05:49.554Z</time></trkpt><trkpt lat="45.0745683" lon="7.2290376"><ele>1588.5714285714284</ele><time>2026-04-11T08:06:07.515Z</time></trkpt><trkpt lat="45.0746312" lon="7.2290268"><ele>1593.4285714285716</ele><time>2026-04-11T08:06:13.569Z</time></trkpt><trkpt lat="45.0746935" lon="7.2290488"><ele>1598.2857142857144</ele><time>2026-04-11T08:06:33.546Z</time></trkpt><trkpt lat="45.0747529" lon="7.229083"><ele>1603.142857142857</ele><time>2026-04-11T08:06:44.597Z</time></trkpt><trkpt lat="45.0748161" lon="7.229098"><ele>1608.0</ele><time>2026-04-11T08:06:53.523Z</time></trkpt><trkpt lat="45.074863" lon="7.2290256"><ele>1609.8333333333333</ele><time>2026-04-11T08:07:05.521Z</time></trkpt><trkpt lat="45.0749182" lon="7.2289715"><ele>1611.6666666666665</ele><time>2026-04-11T08:07:14.562Z</time></trkpt><trkpt lat="45.0750326" lon="7.2289545"><ele>1613.5</ele><time>2026-04-11T08:07:32.521Z</time></trkpt><trkpt lat="45.0751311" lon="7.2288879"><ele>1615.3333333333333</ele><time>2026-04-11T08:07:50.585Z</time></trkpt><trkpt lat="45.0751743" lon="7.2288152"><ele>1617.1666666666665</ele><time>2026-04-11T08:07:57.598Z</time></trkpt><trkpt lat="45.0752347" lon="7.2287798"><ele>1619.0</ele><time>2026-04-11T08:08:05.567Z</time></trkpt><trkpt lat="45.0752948" lon="7.2288174"><ele>1619.0</ele><time>2026-04-11T08:08:14.6Z</time></trkpt><trkpt lat="45.0753691" lon="7.2288001"><ele>1619.0</ele><time>2026-04-11T08:08:27.563Z</time></trkpt><trkpt lat="45.075433" lon="7.2287871"><ele>1619.0</ele><time>2026-04-11T08:08:35.533Z</time></trkpt><trkpt lat="45.0754795" lon="7.2287186"><ele>1619.0</ele><time>2026-04-11T08:08:46.441Z</time></trkpt><trkpt lat="45.0755446" lon="7.228705"><ele>1619.0</ele><time>2026-04-11T08:08:54.553Z</time></trkpt><trkpt lat="45.0756007" lon="7.2286603"><ele>1619.0</ele><time>2026-04-11T08:09:12.58Z</time></trkpt><trkpt lat="45.0756367" lon="7.2285841"><ele>1619.0</ele><time>2026-04-11T08:09:19.524Z</time></trkpt><trkpt lat="45.0757043" lon="7.2285494"><ele>1618.9999999999998</ele><time>2026-04-11T08:09:29.461Z</time></trkpt><trkpt lat="45.0757648" lon="7.2285125"><ele>1619.0</ele><time>2026-04-11T08:09:38.544Z</time></trkpt><trkpt lat="45.0758222" lon="7.2284533"><ele>1619.0</ele><time>2026-04-11T08:09:47.575Z</time></trkpt><trkpt lat="45.0758762" lon="7.2284026"><ele>1619.0</ele><time>2026-04-11T08:09:53.48Z</time></trkpt><trkpt lat="45.0759342" lon="7.2283675"><ele>1618.9999999999998</ele><time>2026-04-11T08:09:58.521Z</time></trkpt><trkpt lat="45.076053" lon="7.2283751"><ele>1619.0</ele><time>2026-04-11T08:11:14.515Z</time></trkpt><trkpt lat="45.0761238" lon="7.2283938"><ele>1623.3333333333333</ele><time>2026-04-11T08:11:17.578Z</time></trkpt><trkpt lat="45.0761979" lon="7.2284116"><ele>1627.6666666666665</ele><time>2026-04-11T08:11:21.515Z</time></trkpt><trkpt lat="45.0762826" lon="7.2283501"><ele>1632.0</ele><time>2026-04-11T08:11:28.523Z</time></trkpt><trkpt lat="45.0762182" lon="7.2283748"><ele>1636.3333333333335</ele><time>2026-04-11T08:11:55.516Z</time></trkpt><trkpt lat="45.0761273" lon="7.2283521"><ele>1640.6666666666667</ele><time>2026-04-11T08:12:10.602Z</time></trkpt><trkpt lat="45.0760564" lon="7.2283389"><ele>1645.0</ele><time>2026-04-11T08:12:17.516Z</time></trkpt><trkpt lat="45.0760897" lon="7.2282555"><ele>1645.0000000000002</ele><time>2026-04-11T08:13:52.517Z</time></trkpt><trkpt lat="45.0761548" lon="7.2282116"><ele>1645.0</ele><time>2026-04-11T08:13:59.519Z</time></trkpt><trkpt lat="45.0761863" lon="7.2281248"><ele>1645.0</ele><time>2026-04-11T08:14:07.578Z</time></trkpt><trkpt lat="45.0761972" lon="7.2280369"><ele>1645.0</ele><time>2026-04-11T08:14:15.565Z</time></trkpt><trkpt lat="45.0762037" lon="7.2279419"><ele>1645.0000000000002</ele><time>2026-04-11T08:14:27.52Z</time></trkpt><trkpt lat="45.0761811" lon="7.2278343"><ele>1645.0</ele><time>2026-04-11T08:14:42.542Z</time></trkpt><trkpt lat="45.0762523" lon="7.2276876"><ele>1645.7142857142858</ele><time>2026-04-11T08:15:27.531Z</time></trkpt><trkpt lat="45.0763109" lon="7.2276449"><ele>1646.4285714285716</ele><time>2026-04-11T08:16:01.474Z</time></trkpt><trkpt lat="45.0763561" lon="7.2275509"><ele>1647.142857142857</ele><time>2026-04-11T08:16:08.616Z</time></trkpt><trkpt lat="45.0763913" lon="7.2274731"><ele>1647.857142857143</ele><time>2026-04-11T08:16:17.542Z</time></trkpt><trkpt lat="45.0763835" lon="7.2273565"><ele>1648.5714285714287</ele><time>2026-04-11T08:16:31.569Z</time></trkpt><trkpt lat="45.0763923" lon="7.2272621"><ele>1649.2857142857142</ele><time>2026-04-11T08:16:38.583Z</time></trkpt><trkpt lat="45.0763624" lon="7.2271829"><ele>1650.0</ele><time>2026-04-11T08:16:48.482Z</time></trkpt><trkpt lat="45.0763966" lon="7.2270903"><ele>1652.0</ele><time>2026-04-11T08:16:59.566Z</time></trkpt><trkpt lat="45.0764594" lon="7.2270809"><ele>1654.0</ele><time>2026-04-11T08:17:06.579Z</time></trkpt><trkpt lat="45.0765129" lon="7.2270166"><ele>1656.0</ele><time>2026-04-11T08:17:36.545Z</time></trkpt><trkpt lat="45.0765276" lon="7.2269153"><ele>1658.0</ele><time>2026-04-11T08:18:09.595Z</time></trkpt><trkpt lat="45.0765487" lon="7.2268284"><ele>1660.0</ele><time>2026-04-11T08:18:19.584Z</time></trkpt><trkpt lat="45.076557" lon="7.2267341"><ele>1662.0</ele><time>2026-04-11T08:18:36.587Z</time></trkpt><trkpt lat="45.0766104" lon="7.2266705"><ele>1664.0</ele><time>2026-04-11T08:18:49.619Z</time></trkpt><trkpt lat="45.0766851" lon="7.2265858"><ele>1673.4</ele><time>2026-04-11T08:19:23.523Z</time></trkpt><trkpt lat="45.0767808" lon="7.2264501"><ele>1682.8000000000002</ele><time>2026-04-11T08:20:02.555Z</time></trkpt><trkpt lat="45.0767936" lon="7.2262945"><ele>1692.1999999999998</ele><time>2026-04-11T08:20:29.547Z</time></trkpt><trkpt lat="45.0768073" lon="7.2262026"><ele>1701.6</ele><time>2026-04-11T08:20:35.604Z</time></trkpt><trkpt lat="45.0767703" lon="7.2260503"><ele>1711.0</ele><time>2026-04-11T08:21:03.602Z</time></trkpt><trkpt lat="45.076771" lon="7.2259569"><ele>1710.9999999999998</ele><time>2026-04-11T08:21:11.581Z</time></trkpt><trkpt lat="45.0767794" lon="7.2258672"><ele>1711.0</ele><time>2026-04-11T08:21:20.554Z</time></trkpt><trkpt lat="45.0767691" lon="7.2257761"><ele>1711.0</ele><time>2026-04-11T08:21:32.561Z</time></trkpt><trkpt lat="45.0767591" lon="7.2256835"><ele>1711.0</ele><time>2026-04-11T08:21:42.551Z</time></trkpt><trkpt lat="45.0767365" lon="7.2255878"><ele>1711.0</ele><time>2026-04-11T08:21:58.597Z</time></trkpt><trkpt lat="45.0767399" lon="7.2254981"><ele>1710.9999999999998</ele><time>2026-04-11T08:22:08.586Z</time></trkpt><trkpt lat="45.0767306" lon="7.2254005"><ele>1711.0</ele><time>2026-04-11T08:22:16.523Z</time></trkpt><trkpt lat="45.0767204" lon="7.225305"><ele>1712.5714285714284</ele><time>2026-04-11T08:22:42.184Z</time></trkpt><trkpt lat="45.076719" lon="7.2252103"><ele>1714.142857142857</ele><time>2026-04-11T08:22:51.513Z</time></trkpt><trkpt lat="45.0767205" lon="7.2251158"><ele>1715.7142857142858</ele><time>2026-04-11T08:23:01.606Z</time></trkpt><trkpt lat="45.076743" lon="7.2250262"><ele>1717.2857142857142</ele><time>2026-04-11T08:23:12.551Z</time></trkpt><trkpt lat="45.0767373" lon="7.2249365"><ele>1718.857142857143</ele><time>2026-04-11T08:23:25.515Z</time></trkpt><trkpt lat="45.076765" lon="7.224854"><ele>1720.4285714285713</ele><time>2026-04-11T08:23:35.61Z</time></trkpt><trkpt lat="45.0767648" lon="7.2247631"><ele>1722.0</ele><time>2026-04-11T08:23:49.53Z</time></trkpt><trkpt lat="45.0767499" lon="7.2246735"><ele>1724.142857142857</ele><time>2026-04-11T08:24:23.535Z</time></trkpt><trkpt lat="45.0767637" lon="7.224586"><ele>1726.2857142857142</ele><time>2026-04-11T08:24:25.554Z</time></trkpt><trkpt lat="45.07675" lon="7.2244923"><ele>1728.4285714285716</ele><time>2026-04-11T08:24:32.566Z</time></trkpt><trkpt lat="45.0767506" lon="7.2243944"><ele>1730.5714285714284</ele><time>2026-04-11T08:24:43.453Z</time></trkpt><trkpt lat="45.0767259" lon="7.2243032"><ele>1732.7142857142858</ele><time>2026-04-11T08:24:50.526Z</time></trkpt><trkpt lat="45.0767092" lon="7.2242102"><ele>1734.857142857143</ele><time>2026-04-11T08:24:58.602Z</time></trkpt><trkpt lat="45.0767027" lon="7.2240757"><ele>1737.0</ele><time>2026-04-11T08:25:14.541Z</time></trkpt><trkpt lat="45.0767118" lon="7.2239828"><ele>1737.5714285714287</ele><time>2026-04-11T08:25:28.568Z</time></trkpt><trkpt lat="45.0767277" lon="7.223871"><ele>1738.1428571428573</ele><time>2026-04-11T08:25:42.595Z</time></trkpt><trkpt lat="45.076735" lon="7.2237822"><ele>1738.7142857142858</ele><time>2026-04-11T08:25:48.545Z</time></trkpt><trkpt lat="45.0767553" lon="7.2236916"><ele>1739.2857142857142</ele><time>2026-04-11T08:25:57.578Z</time></trkpt><trkpt lat="45.076768" lon="7.2235778"><ele>1739.857142857143</ele><time>2026-04-11T08:26:10.543Z</time></trkpt><trkpt lat="45.0767978" lon="7.2234974"><ele>1740.4285714285713</ele><time>2026-04-11T08:26:16.6Z</time></trkpt><trkpt lat="45.0768229" lon="7.2234031"><ele>1741.0</ele><time>2026-04-11T08:26:23.452Z</time></trkpt><trkpt lat="45.0768542" lon="7.2233217"><ele>1741.0</ele><time>2026-04-11T08:26:30.513Z</time></trkpt><trkpt lat="45.0768834" lon="7.2232313"><ele>1741.0</ele><time>2026-04-11T08:26:38.516Z</time></trkpt><trkpt lat="45.0768847" lon="7.2231331"><ele>1741.0</ele><time>2026-04-11T08:26:46.566Z</time></trkpt><trkpt lat="45.0768935" lon="7.2230415"><ele>1741.0</ele><time>2026-04-11T08:26:52.592Z</time></trkpt><trkpt lat="45.0769206" lon="7.2229487"><ele>1741.0</ele><time>2026-04-11T08:27:00.53Z</time></trkpt><trkpt lat="45.0769482" lon="7.2228653"><ele>1741.0</ele><time>2026-04-11T08:27:07.574Z</time></trkpt><trkpt lat="45.0769897" lon="7.2227708"><ele>1741.0</ele><time>2026-04-11T08:27:21.49Z</time></trkpt><trkpt lat="45.0769985" lon="7.2226614"><ele>1740.2857142857142</ele><time>2026-04-11T08:30:11.548Z</time></trkpt><trkpt lat="45.0770306" lon="7.2225773"><ele>1739.5714285714287</ele><time>2026-04-11T08:30:17.606Z</time></trkpt><trkpt lat="45.0770623" lon="7.2224851"><ele>1738.857142857143</ele><time>2026-04-11T08:30:24.516Z</time></trkpt><trkpt lat="45.0770725" lon="7.222391"><ele>1738.142857142857</ele><time>2026-04-11T08:30:31.527Z</time></trkpt><trkpt lat="45.0770772" lon="7.2222968"><ele>1737.4285714285716</ele><time>2026-04-11T08:30:39.603Z</time></trkpt><trkpt lat="45.077085" lon="7.2222028"><ele>1736.7142857142858</ele><time>2026-04-11T08:30:47.613Z</time></trkpt><trkpt lat="45.0770752" lon="7.2221049"><ele>1736.0</ele><time>2026-04-11T08:30:54.586Z</time></trkpt><trkpt lat="45.0770861" lon="7.2220154"><ele>1736.2857142857142</ele><time>2026-04-11T08:31:01.599Z</time></trkpt><trkpt lat="45.0771213" lon="7.22194"><ele>1736.5714285714284</ele><time>2026-04-11T08:31:09.568Z</time></trkpt><trkpt lat="45.0771428" lon="7.221849"><ele>1736.857142857143</ele><time>2026-04-11T08:31:17.538Z</time></trkpt><trkpt lat="45.0771682" lon="7.2217547"><ele>1737.142857142857</ele><time>2026-04-11T08:31:23.595Z</time></trkpt><trkpt lat="45.0772048" lon="7.221675"><ele>1737.4285714285713</ele><time>2026-04-11T08:31:30.608Z</time></trkpt><trkpt lat="45.0772151" lon="7.2215755"><ele>1737.7142857142858</ele><time>2026-04-11T08:31:39.534Z</time></trkpt><trkpt lat="45.0772185" lon="7.2214861"><ele>1738.0</ele><time>2026-04-11T08:31:45.593Z</time></trkpt><trkpt lat="45.0772109" lon="7.2213906"><ele>1738.0</ele><time>2026-04-11T08:31:53.561Z</time></trkpt><trkpt lat="45.0772283" lon="7.2212961"><ele>1738.0</ele><time>2026-04-11T08:32:03.55Z</time></trkpt><trkpt lat="45.0772406" lon="7.2212056"><ele>1738.0</ele><time>2026-04-11T08:32:14.601Z</time></trkpt><trkpt lat="45.077224" lon="7.2211139"><ele>1738.0</ele><time>2026-04-11T08:32:24.59Z</time></trkpt><trkpt lat="45.0771932" lon="7.2210321"><ele>1738.0</ele><time>2026-04-11T08:32:32.559Z</time></trkpt><trkpt lat="45.0771926" lon="7.2209338"><ele>1738.0</ele><time>2026-04-11T08:32:40.529Z</time></trkpt><trkpt lat="45.0772175" lon="7.2208493"><ele>1738.0</ele><time>2026-04-11T08:32:48.472Z</time></trkpt><trkpt lat="45.0772434" lon="7.2207545"><ele>1738.0</ele><time>2026-04-11T08:33:03.531Z</time></trkpt><trkpt lat="45.0772809" lon="7.2206804"><ele>1738.0</ele><time>2026-04-11T08:33:26.54Z</time></trkpt><trkpt lat="45.0773209" lon="7.2206084"><ele>1738.0</ele><time>2026-04-11T08:33:35.573Z</time></trkpt><trkpt lat="45.0773942" lon="7.2205475"><ele>1738.0</ele><time>2026-04-11T08:34:06.531Z</time></trkpt><trkpt lat="45.0774552" lon="7.2205797"><ele>1738.0</ele><time>2026-04-11T08:34:13.516Z</time></trkpt><trkpt lat="45.0775136" lon="7.2205305"><ele>1738.0</ele><time>2026-04-11T08:34:28.597Z</time></trkpt><trkpt lat="45.077529" lon="7.2204322"><ele>1738.0</ele><time>2026-04-11T08:34:52.614Z</time></trkpt><trkpt lat="45.0775366" lon="7.220336"><ele>1742.4285714285716</ele><time>2026-04-11T08:35:04.517Z</time></trkpt><trkpt lat="45.0775288" lon="7.2202417"><ele>1746.8571428571427</ele><time>2026-04-11T08:35:18.54Z</time></trkpt><trkpt lat="45.0774913" lon="7.2201127"><ele>1751.2857142857142</ele><time>2026-04-11T08:35:43.517Z</time></trkpt><trkpt lat="45.0774701" lon="7.2200237"><ele>1755.7142857142858</ele><time>2026-04-11T08:35:50.524Z</time></trkpt><trkpt lat="45.0774788" lon="7.2199296"><ele>1760.1428571428573</ele><time>2026-04-11T08:36:24.394Z</time></trkpt><trkpt lat="45.0774492" lon="7.2198489"><ele>1764.5714285714284</ele><time>2026-04-11T08:36:34.773Z</time></trkpt><trkpt lat="45.0774086" lon="7.2197806"><ele>1769.0</ele><time>2026-04-11T08:36:38.588Z</time></trkpt><trkpt lat="45.077464" lon="7.2197344"><ele>1774.142857142857</ele><time>2026-04-11T08:37:00.586Z</time></trkpt><trkpt lat="45.0774689" lon="7.2196444"><ele>1779.2857142857142</ele><time>2026-04-11T08:37:12.595Z</time></trkpt><trkpt lat="45.077474" lon="7.219549"><ele>1784.4285714285713</ele><time>2026-04-11T08:37:22.584Z</time></trkpt><trkpt lat="45.0774665" lon="7.2194585"><ele>1789.5714285714284</ele><time>2026-04-11T08:38:54.511Z</time></trkpt><trkpt lat="45.0774934" lon="7.219373"><ele>1794.7142857142858</ele><time>2026-04-11T08:39:02.581Z</time></trkpt><trkpt lat="45.077483" lon="7.2192842"><ele>1799.8571428571427</ele><time>2026-04-11T08:39:14.59Z</time></trkpt><trkpt lat="45.0774541" lon="7.2191908"><ele>1804.9999999999998</ele><time>2026-04-11T08:39:24.578Z</time></trkpt><trkpt lat="45.0774364" lon="7.2190986"><ele>1803.7142857142853</ele><time>2026-04-11T08:39:44.558Z</time></trkpt><trkpt lat="45.0774316" lon="7.2190082"><ele>1802.4285714285713</ele><time>2026-04-11T08:40:02.517Z</time></trkpt><trkpt lat="45.0774099" lon="7.2189229"><ele>1801.1428571428569</ele><time>2026-04-11T08:40:15.588Z</time></trkpt><trkpt lat="45.0774172" lon="7.2188327"><ele>1799.8571428571427</ele><time>2026-04-11T08:40:27.596Z</time></trkpt><trkpt lat="45.0774368" lon="7.2187407"><ele>1798.5714285714284</ele><time>2026-04-11T08:40:41.516Z</time></trkpt><trkpt lat="45.0774466" lon="7.2186445"><ele>1797.2857142857142</ele><time>2026-04-11T08:40:50.55Z</time></trkpt><trkpt lat="45.0774368" lon="7.2185533"><ele>1796.0</ele><time>2026-04-11T08:41:04.578Z</time></trkpt><trkpt lat="45.0774076" lon="7.2184676"><ele>1796.0</ele><time>2026-04-11T08:41:19.563Z</time></trkpt><trkpt lat="45.0773903" lon="7.2183764"><ele>1795.9999999999998</ele><time>2026-04-11T08:41:29.552Z</time></trkpt><trkpt lat="45.077386" lon="7.2182869"><ele>1796.0</ele><time>2026-04-11T08:41:41.561Z</time></trkpt><trkpt lat="45.077349" lon="7.2182061"><ele>1796.0</ele><time>2026-04-11T08:41:57.607Z</time></trkpt><trkpt lat="45.0773153" lon="7.2181273"><ele>1795.9999999999998</ele><time>2026-04-11T08:42:09.53Z</time></trkpt><trkpt lat="45.0772644" lon="7.2180678"><ele>1796.0</ele><time>2026-04-11T08:42:21.517Z</time></trkpt><trkpt lat="45.0772514" lon="7.2179779"><ele>1796.0</ele><time>2026-04-11T08:42:31.614Z</time></trkpt><trkpt lat="45.077206" lon="7.2179139"><ele>1799.4285714285713</ele><time>2026-04-11T08:42:54.568Z</time></trkpt><trkpt lat="45.0771494" lon="7.217869"><ele>1802.8571428571427</ele><time>2026-04-11T08:43:03.552Z</time></trkpt><trkpt lat="45.0771189" lon="7.2177898"><ele>1806.2857142857142</ele><time>2026-04-11T08:43:19.539Z</time></trkpt><trkpt lat="45.077093" lon="7.2177031"><ele>1809.7142857142858</ele><time>2026-04-11T08:43:30.491Z</time></trkpt><trkpt lat="45.0770731" lon="7.2176106"><ele>1813.142857142857</ele><time>2026-04-11T08:43:42.601Z</time></trkpt><trkpt lat="45.0770512" lon="7.2175205"><ele>1816.5714285714284</ele><time>2026-04-11T08:43:58.54Z</time></trkpt><trkpt lat="45.077054" lon="7.2174205"><ele>1820.0</ele><time>2026-04-11T08:44:06.57Z</time></trkpt><trkpt lat="45.0770148" lon="7.2173481"><ele>1820.142857142857</ele><time>2026-04-11T08:44:18.52Z</time></trkpt><trkpt lat="45.0769979" lon="7.2172579"><ele>1820.2857142857142</ele><time>2026-04-11T08:44:29.572Z</time></trkpt><trkpt lat="45.0770137" lon="7.2171687"><ele>1820.4285714285716</ele><time>2026-04-11T08:44:40.518Z</time></trkpt><trkpt lat="45.0770377" lon="7.2170659"><ele>1820.5714285714287</ele><time>2026-04-11T08:44:54.546Z</time></trkpt><trkpt lat="45.0770302" lon="7.2169683"><ele>1820.7142857142858</ele><time>2026-04-11T08:45:06.555Z</time></trkpt><trkpt lat="45.0769953" lon="7.2168818"><ele>1820.8571428571431</ele><time>2026-04-11T08:45:18.563Z</time></trkpt><trkpt lat="45.0769941" lon="7.2167858"><ele>1821.0000000000002</ele><time>2026-04-11T08:45:29.616Z</time></trkpt><trkpt lat="45.0770013" lon="7.216696"><ele>1821.0000000000002</ele><time>2026-04-11T08:45:41.518Z</time></trkpt><trkpt lat="45.0770217" lon="7.2166048"><ele>1821.0</ele><time>2026-04-11T08:45:50.551Z</time></trkpt><trkpt lat="45.0770642" lon="7.2165212"><ele>1821.0000000000002</ele><time>2026-04-11T08:46:08.513Z</time></trkpt><trkpt lat="45.0770965" lon="7.2164334"><ele>1821.0000000000002</ele><time>2026-04-11T08:46:18.455Z</time></trkpt><trkpt lat="45.0771287" lon="7.2163488"><ele>1821.0</ele><time>2026-04-11T08:46:25.473Z</time></trkpt><trkpt lat="45.0771532" lon="7.2162573"><ele>1821.0000000000002</ele><time>2026-04-11T08:46:36.567Z</time></trkpt><trkpt lat="45.077162" lon="7.2161646"><ele>1821.0000000000002</ele><time>2026-04-11T08:46:45.6Z</time></trkpt><trkpt lat="45.0771656" lon="7.216069"><ele>1819.2857142857147</ele><time>2026-04-11T08:46:55.59Z</time></trkpt><trkpt lat="45.0771858" lon="7.2159824"><ele>1817.5714285714287</ele><time>2026-04-11T08:47:05.58Z</time></trkpt><trkpt lat="45.0772192" lon="7.2158962"><ele>1815.8571428571431</ele><time>2026-04-11T08:47:19.607Z</time></trkpt><trkpt lat="45.0772278" lon="7.2158012"><ele>1814.1428571428573</ele><time>2026-04-11T08:47:33.528Z</time></trkpt><trkpt lat="45.0772555" lon="7.2157202"><ele>1812.4285714285716</ele><time>2026-04-11T08:47:41.606Z</time></trkpt><trkpt lat="45.077281" lon="7.215636"><ele>1810.7142857142858</ele><time>2026-04-11T08:47:58.553Z</time></trkpt><trkpt lat="45.077307" lon="7.2155509"><ele>1809.0</ele><time>2026-04-11T08:48:18.589Z</time></trkpt><trkpt lat="45.07732" lon="7.2154627"><ele>1807.4285714285716</ele><time>2026-04-11T08:48:28.578Z</time></trkpt><trkpt lat="45.0773301" lon="7.2153697"><ele>1805.8571428571431</ele><time>2026-04-11T08:48:36.549Z</time></trkpt><trkpt lat="45.0773472" lon="7.215283"><ele>1804.2857142857142</ele><time>2026-04-11T08:48:46.539Z</time></trkpt><trkpt lat="45.0773408" lon="7.2151925"><ele>1802.7142857142858</ele><time>2026-04-11T08:49:04.605Z</time></trkpt><trkpt lat="45.0773714" lon="7.2151057"><ele>1801.142857142857</ele><time>2026-04-11T08:49:20.545Z</time></trkpt><trkpt lat="45.0774119" lon="7.2150359"><ele>1799.5714285714284</ele><time>2026-04-11T08:49:29.734Z</time></trkpt><trkpt lat="45.0774179" lon="7.214946"><ele>1797.9999999999998</ele><time>2026-04-11T08:49:49.595Z</time></trkpt><trkpt lat="45.0774463" lon="7.2148615"><ele>1796.285714285714</ele><time>2026-04-11T08:49:55.526Z</time></trkpt><trkpt lat="45.0774351" lon="7.2147716"><ele>1794.5714285714284</ele><time>2026-04-11T08:50:10.513Z</time></trkpt><trkpt lat="45.0774403" lon="7.2146755"><ele>1792.8571428571427</ele><time>2026-04-11T08:50:27.515Z</time></trkpt><trkpt lat="45.077461" lon="7.214586"><ele>1791.1428571428569</ele><time>2026-04-11T08:50:34.529Z</time></trkpt><trkpt lat="45.0774927" lon="7.214503"><ele>1789.4285714285716</ele><time>2026-04-11T08:50:44.519Z</time></trkpt><trkpt lat="45.0774856" lon="7.2144142"><ele>1787.7142857142858</ele><time>2026-04-11T08:50:52.596Z</time></trkpt><trkpt lat="45.0774851" lon="7.2143163"><ele>1786.0</ele><time>2026-04-11T08:51:04.605Z</time></trkpt><trkpt lat="45.0775052" lon="7.214231"><ele>1795.1666666666667</ele><time>2026-04-11T08:51:13.532Z</time></trkpt><trkpt lat="45.077553" lon="7.2141651"><ele>1804.3333333333335</ele><time>2026-04-11T08:51:21.614Z</time></trkpt><trkpt lat="45.0775756" lon="7.2140733"><ele>1813.5</ele><time>2026-04-11T08:51:29.579Z</time></trkpt><trkpt lat="45.0776091" lon="7.2138697"><ele>1822.6666666666665</ele><time>2026-04-11T08:52:17.615Z</time></trkpt><trkpt lat="45.0776255" lon="7.2137831"><ele>1831.8333333333333</ele><time>2026-04-11T08:52:31.537Z</time></trkpt><trkpt lat="45.0776353" lon="7.213689"><ele>1841.0</ele><time>2026-04-11T08:52:40.576Z</time></trkpt><trkpt lat="45.0776481" lon="7.2135949"><ele>1841.0</ele><time>2026-04-11T08:52:55.554Z</time></trkpt><trkpt lat="45.0776616" lon="7.2135012"><ele>1841.0</ele><time>2026-04-11T08:53:04.588Z</time></trkpt><trkpt lat="45.0776686" lon="7.2134042"><ele>1841.0</ele><time>2026-04-11T08:53:14.577Z</time></trkpt><trkpt lat="45.0776842" lon="7.2133052"><ele>1841.0</ele><time>2026-04-11T08:53:23.514Z</time></trkpt><trkpt lat="45.0776955" lon="7.2132149"><ele>1841.0</ele><time>2026-04-11T08:53:32.538Z</time></trkpt><trkpt lat="45.0777174" lon="7.2131159"><ele>1841.0</ele><time>2026-04-11T08:53:42.317Z</time></trkpt><trkpt lat="45.0777513" lon="7.2130391"><ele>1841.0</ele><time>2026-04-11T08:53:50.605Z</time></trkpt><trkpt lat="45.0777759" lon="7.2129553"><ele>1839.2857142857142</ele><time>2026-04-11T08:54:02.513Z</time></trkpt><trkpt lat="45.0777982" lon="7.212869"><ele>1837.5714285714284</ele><time>2026-04-11T08:54:14.517Z</time></trkpt><trkpt lat="45.0778168" lon="7.2127811"><ele>1835.857142857143</ele><time>2026-04-11T08:54:22.594Z</time></trkpt><trkpt lat="45.0778641" lon="7.2127137"><ele>1834.142857142857</ele><time>2026-04-11T08:54:32.583Z</time></trkpt><trkpt lat="45.0778812" lon="7.2126193"><ele>1832.4285714285713</ele><time>2026-04-11T08:54:43.597Z</time></trkpt><trkpt lat="45.0779108" lon="7.212516"><ele>1830.7142857142858</ele><time>2026-04-11T08:55:02.597Z</time></trkpt><trkpt lat="45.0779517" lon="7.2124475"><ele>1829.0</ele><time>2026-04-11T08:55:09.566Z</time></trkpt><trkpt lat="45.077985" lon="7.212354"><ele>1827.3333333333333</ele><time>2026-04-11T08:55:19.579Z</time></trkpt><trkpt lat="45.0779829" lon="7.2122539"><ele>1825.6666666666665</ele><time>2026-04-11T08:55:25.514Z</time></trkpt><trkpt lat="45.0779831" lon="7.2121647"><ele>1824.0</ele><time>2026-04-11T08:55:32.522Z</time></trkpt><trkpt lat="45.0780213" lon="7.2119557"><ele>1822.3333333333335</ele><time>2026-04-11T08:55:54.519Z</time></trkpt><trkpt lat="45.0780144" lon="7.2118586"><ele>1820.6666666666667</ele><time>2026-04-11T08:56:00.574Z</time></trkpt><trkpt lat="45.0780292" lon="7.2117606"><ele>1819.0</ele><time>2026-04-11T08:56:05.572Z</time></trkpt><trkpt lat="45.0780671" lon="7.2116823"><ele>1818.9999999999998</ele><time>2026-04-11T08:56:10.568Z</time></trkpt><trkpt lat="45.0780908" lon="7.2115997"><ele>1819.0</ele><time>2026-04-11T08:56:23.36Z</time></trkpt><trkpt lat="45.0781294" lon="7.2115159"><ele>1818.9999999999998</ele><time>2026-04-11T08:56:35.577Z</time></trkpt><trkpt lat="45.078224" lon="7.2114276"><ele>1818.9999999999998</ele><time>2026-04-11T08:57:10.557Z</time></trkpt><trkpt lat="45.0782908" lon="7.2114178"><ele>1819.0</ele><time>2026-04-11T08:57:19.46Z</time></trkpt><trkpt lat="45.0783519" lon="7.2113962"><ele>1818.9999999999998</ele><time>2026-04-11T08:57:25.526Z</time></trkpt><trkpt lat="45.0784137" lon="7.2113658"><ele>1818.9999999999998</ele><time>2026-04-11T08:57:35.516Z</time></trkpt><trkpt lat="45.0784708" lon="7.2113172"><ele>1825.6666666666667</ele><time>2026-04-11T08:57:43.593Z</time></trkpt><trkpt lat="45.0785402" lon="7.2112937"><ele>1832.3333333333335</ele><time>2026-04-11T08:57:52.821Z</time></trkpt><trkpt lat="45.0786053" lon="7.2112914"><ele>1839.0</ele><time>2026-04-11T08:58:00.596Z</time></trkpt><trkpt lat="45.078665" lon="7.2112368"><ele>1845.6666666666665</ele><time>2026-04-11T08:58:08.568Z</time></trkpt><trkpt lat="45.0788051" lon="7.2111831"><ele>1852.3333333333333</ele><time>2026-04-11T08:58:30.567Z</time></trkpt><trkpt lat="45.0788648" lon="7.2111336"><ele>1859.0</ele><time>2026-04-11T08:58:39.539Z</time></trkpt><trkpt lat="45.0789238" lon="7.2110892"><ele>1859.0</ele><time>2026-04-11T08:58:47.581Z</time></trkpt><trkpt lat="45.0789823" lon="7.2110404"><ele>1858.9999999999998</ele><time>2026-04-11T08:58:57.56Z</time></trkpt><trkpt lat="45.0790454" lon="7.2110095"><ele>1859.0</ele><time>2026-04-11T08:59:06.594Z</time></trkpt><trkpt lat="45.0791087" lon="7.210966"><ele>1859.0</ele><time>2026-04-11T09:00:46.242Z</time></trkpt><trkpt lat="45.0790454" lon="7.2109827"><ele>1858.9999999999998</ele><time>2026-04-11T09:00:51.593Z</time></trkpt><trkpt lat="45.0789775" lon="7.2110083"><ele>1859.0</ele><time>2026-04-11T09:00:57.544Z</time></trkpt><trkpt lat="45.0790552" lon="7.2110036"><ele>1859.0</ele><time>2026-04-11T09:01:26.556Z</time></trkpt><trkpt lat="45.0791253" lon="7.2109187"><ele>1857.8333333333333</ele><time>2026-04-11T09:01:52.183Z</time></trkpt><trkpt lat="45.0791817" lon="7.2108505"><ele>1856.6666666666665</ele><time>2026-04-11T09:02:02.661Z</time></trkpt><trkpt lat="45.0791843" lon="7.2107266"><ele>1855.5</ele><time>2026-04-11T09:02:38.746Z</time></trkpt><trkpt lat="45.0791386" lon="7.210838"><ele>1854.3333333333335</ele><time>2026-04-11T09:02:57.665Z</time></trkpt><trkpt lat="45.0791293" lon="7.210935"><ele>1853.1666666666667</ele><time>2026-04-11T09:03:17.75Z</time></trkpt><trkpt lat="45.0791015" lon="7.2108512"><ele>1852.0</ele><time>2026-04-11T09:04:45.535Z</time></trkpt><trkpt lat="45.0791654" lon="7.2108183"><ele>1852.0000000000002</ele><time>2026-04-11T09:05:08.596Z</time></trkpt><trkpt lat="45.0790852" lon="7.2109448"><ele>1852.0</ele><time>2026-04-11T09:05:11.573Z</time></trkpt><trkpt lat="45.0791078" lon="7.2110367"><ele>1852.0</ele><time>2026-04-11T09:06:09.599Z</time></trkpt><trkpt lat="45.0790512" lon="7.2110801"><ele>1852.0</ele><time>2026-04-11T09:08:32.541Z</time></trkpt><trkpt lat="45.0790428" lon="7.2109916"><ele>1852.0000000000002</ele><time>2026-04-11T09:08:46.571Z</time></trkpt><trkpt lat="45.0790964" lon="7.2109318"><ele>1852.0</ele><time>2026-04-11T09:08:56.56Z</time></trkpt><trkpt lat="45.0790285" lon="7.2110462"><ele>1853.0</ele><time>2026-04-11T09:09:53.526Z</time></trkpt><trkpt lat="45.0789658" lon="7.2110923"><ele>1853.9999999999998</ele><time>2026-04-11T09:10:00.54Z</time></trkpt><trkpt lat="45.0789133" lon="7.2111446"><ele>1855.0</ele><time>2026-04-11T09:10:09.573Z</time></trkpt><trkpt lat="45.0788502" lon="7.2111843"><ele>1856.0</ele><time>2026-04-11T09:10:36.54Z</time></trkpt><trkpt lat="45.0787934" lon="7.2112261"><ele>1856.9999999999998</ele><time>2026-04-11T09:10:47.54Z</time></trkpt><trkpt lat="45.078725" lon="7.211268"><ele>1858.0</ele><time>2026-04-11T09:10:52.516Z</time></trkpt><trkpt lat="45.0786598" lon="7.2112881"><ele>1859.0</ele><time>2026-04-11T09:10:59.523Z</time></trkpt><trkpt lat="45.0785966" lon="7.2113047"><ele>1859.0</ele><time>2026-04-11T09:11:05.58Z</time></trkpt><trkpt lat="45.0785312" lon="7.2113239"><ele>1858.9999999999998</ele><time>2026-04-11T09:11:14.517Z</time></trkpt><trkpt lat="45.0784691" lon="7.2113404"><ele>1859.0</ele><time>2026-04-11T09:11:19.48Z</time></trkpt><trkpt lat="45.0783739" lon="7.2113796"><ele>1859.0</ele><time>2026-04-11T09:11:37.57Z</time></trkpt><trkpt lat="45.0783071" lon="7.2114061"><ele>1858.9999999999998</ele><time>2026-04-11T09:11:41.88Z</time></trkpt><trkpt lat="45.078239" lon="7.2114183"><ele>1859.0</ele><time>2026-04-11T09:11:51.598Z</time></trkpt><trkpt lat="45.0781845" lon="7.2114685"><ele>1859.0</ele><time>2026-04-11T09:12:03.608Z</time></trkpt><trkpt lat="45.0782021" lon="7.2115578"><ele>1858.5714285714284</ele><time>2026-04-11T09:12:13.597Z</time></trkpt><trkpt lat="45.0782494" lon="7.2116257"><ele>1858.1428571428569</ele><time>2026-04-11T09:12:21.569Z</time></trkpt><trkpt lat="45.0782515" lon="7.2117318"><ele>1857.7142857142858</ele><time>2026-04-11T09:12:33.063Z</time></trkpt><trkpt lat="45.0782786" lon="7.2118161"><ele>1857.2857142857142</ele><time>2026-04-11T09:12:45.52Z</time></trkpt><trkpt lat="45.0782507" lon="7.2119015"><ele>1856.857142857143</ele><time>2026-04-11T09:12:56.572Z</time></trkpt><trkpt lat="45.0782491" lon="7.2119933"><ele>1856.4285714285716</ele><time>2026-04-11T09:13:04.342Z</time></trkpt><trkpt lat="45.0782681" lon="7.2120938"><ele>1856.0000000000002</ele><time>2026-04-11T09:13:14.534Z</time></trkpt><trkpt lat="45.0782928" lon="7.2121831"><ele>1855.9999999999998</ele><time>2026-04-11T09:13:23.624Z</time></trkpt><trkpt lat="45.0782919" lon="7.2122778"><ele>1856.0</ele><time>2026-04-11T09:13:47.507Z</time></trkpt><trkpt lat="45.0782842" lon="7.2123746"><ele>1856.0</ele><time>2026-04-11T09:13:50.563Z</time></trkpt><trkpt lat="45.0783446" lon="7.212472"><ele>1856.0</ele><time>2026-04-11T09:14:26.623Z</time></trkpt><trkpt lat="45.078315" lon="7.2126483"><ele>1855.9999999999998</ele><time>2026-04-11T09:15:23.012Z</time></trkpt><trkpt lat="45.0783023" lon="7.2127746"><ele>1856.0</ele><time>2026-04-11T09:16:15.533Z</time></trkpt><trkpt lat="45.0782871" lon="7.2128647"><ele>1857.0000000000002</ele><time>2026-04-11T09:16:45.565Z</time></trkpt><trkpt lat="45.0782858" lon="7.2129545"><ele>1858.0</ele><time>2026-04-11T09:17:01.553Z</time></trkpt><trkpt lat="45.0782777" lon="7.2130522"><ele>1859.0000000000002</ele><time>2026-04-11T09:17:17.602Z</time></trkpt><trkpt lat="45.0782806" lon="7.2131482"><ele>1860.0000000000002</ele><time>2026-04-11T09:17:24.618Z</time></trkpt><trkpt lat="45.0782934" lon="7.2132424"><ele>1861.0</ele><time>2026-04-11T09:17:36.521Z</time></trkpt><trkpt lat="45.0782925" lon="7.213349"><ele>1862.0000000000002</ele><time>2026-04-11T09:20:25.563Z</time></trkpt><trkpt lat="45.0782855" lon="7.2134432"><ele>1863.0000000000002</ele><time>2026-04-11T09:20:34.547Z</time></trkpt><trkpt lat="45.0782752" lon="7.2135363"><ele>1863.0</ele><time>2026-04-11T09:20:43.506Z</time></trkpt><trkpt lat="45.0783033" lon="7.2134483"><ele>1863.0</ele><time>2026-04-11T09:50:36.515Z</time></trkpt><trkpt lat="45.0783183" lon="7.2133617"><ele>1863.0</ele><time>2026-04-11T09:50:47.515Z</time></trkpt><trkpt lat="45.0783438" lon="7.2132731"><ele>1863.0</ele><time>2026-04-11T09:51:51.593Z</time></trkpt><trkpt lat="45.0782668" lon="7.2131331"><ele>1863.0</ele><time>2026-04-11T09:52:22.583Z</time></trkpt><trkpt lat="45.078271" lon="7.2130437"><ele>1863.0</ele><time>2026-04-11T09:52:32.515Z</time></trkpt><trkpt lat="45.078292" lon="7.2129552"><ele>1863.0000000000002</ele><time>2026-04-11T09:52:42.61Z</time></trkpt><trkpt lat="45.078273" lon="7.2128683"><ele>1863.0</ele><time>2026-04-11T09:53:08.543Z</time></trkpt><trkpt lat="45.0782773" lon="7.2127613"><ele>1863.0000000000002</ele><time>2026-04-11T09:53:39.578Z</time></trkpt><trkpt lat="45.0783221" lon="7.2126849"><ele>1863.0000000000002</ele><time>2026-04-11T09:54:09.549Z</time></trkpt><trkpt lat="45.0783491" lon="7.2126004"><ele>1863.0</ele><time>2026-04-11T09:54:25.485Z</time></trkpt><trkpt lat="45.078341" lon="7.2125116"><ele>1863.0000000000002</ele><time>2026-04-11T09:55:04.603Z</time></trkpt><trkpt lat="45.0783026" lon="7.2124131"><ele>1863.0000000000002</ele><time>2026-04-11T09:55:28.518Z</time></trkpt><trkpt lat="45.0782742" lon="7.2123255"><ele>1854.2</ele><time>2026-04-11T09:55:35.533Z</time></trkpt><trkpt lat="45.0782584" lon="7.2122318"><ele>1845.4</ele><time>2026-04-11T09:55:46.586Z</time></trkpt><trkpt lat="45.0782393" lon="7.2121452"><ele>1836.6000000000001</ele><time>2026-04-11T09:55:59.602Z</time></trkpt><trkpt lat="45.0782175" lon="7.2120585"><ele>1827.8000000000002</ele><time>2026-04-11T09:56:46.531Z</time></trkpt><trkpt lat="45.0782347" lon="7.2118454"><ele>1819.0</ele><time>2026-04-11T09:57:55.516Z</time></trkpt><trkpt lat="45.0782336" lon="7.2116791"><ele>1818.9999999999998</ele><time>2026-04-11T09:58:26.225Z</time></trkpt><trkpt lat="45.0782034" lon="7.2115956"><ele>1819.0</ele><time>2026-04-11T09:58:33.517Z</time></trkpt><trkpt lat="45.0781828" lon="7.211509"><ele>1818.9999999999998</ele><time>2026-04-11T09:58:43.614Z</time></trkpt><trkpt lat="45.0781259" lon="7.2115488"><ele>1818.9999999999998</ele><time>2026-04-11T09:59:19.537Z</time></trkpt><trkpt lat="45.0781007" lon="7.2116384"><ele>1819.0</ele><time>2026-04-11T09:59:35.606Z</time></trkpt><trkpt lat="45.078085" lon="7.2117251"><ele>1818.9999999999998</ele><time>2026-04-11T09:59:41.537Z</time></trkpt><trkpt lat="45.0780641" lon="7.2118122"><ele>1818.9999999999998</ele><time>2026-04-11T09:59:49.614Z</time></trkpt><trkpt lat="45.0780699" lon="7.211905"><ele>1818.9999999999998</ele><time>2026-04-11T09:59:55.566Z</time></trkpt><trkpt lat="45.078041" lon="7.2119932"><ele>1819.0</ele><time>2026-04-11T10:00:03.537Z</time></trkpt><trkpt lat="45.0780142" lon="7.2120854"><ele>1818.9999999999998</ele><time>2026-04-11T10:00:12.571Z</time></trkpt><trkpt lat="45.0779828" lon="7.2121746"><ele>1818.9999999999998</ele><time>2026-04-11T10:00:20.606Z</time></trkpt><trkpt lat="45.0779825" lon="7.2122693"><ele>1819.0</ele><time>2026-04-11T10:00:27.568Z</time></trkpt><trkpt lat="45.0779667" lon="7.2123583"><ele>1818.9999999999998</ele><time>2026-04-11T10:00:33.512Z</time></trkpt><trkpt lat="45.077931" lon="7.2124416"><ele>1818.9999999999998</ele><time>2026-04-11T10:00:41.486Z</time></trkpt><trkpt lat="45.0779134" lon="7.2125293"><ele>1820.428571428571</ele><time>2026-04-11T10:00:49.626Z</time></trkpt><trkpt lat="45.0778743" lon="7.2125993"><ele>1821.8571428571427</ele><time>2026-04-11T10:00:56.571Z</time></trkpt><trkpt lat="45.0778682" lon="7.2126889"><ele>1823.2857142857142</ele><time>2026-04-11T10:01:06.561Z</time></trkpt><trkpt lat="45.0778334" lon="7.2127745"><ele>1824.7142857142856</ele><time>2026-04-11T10:01:17.615Z</time></trkpt><trkpt lat="45.0778217" lon="7.2128667"><ele>1826.1428571428569</ele><time>2026-04-11T10:01:27.605Z</time></trkpt><trkpt lat="45.0777728" lon="7.212941"><ele>1827.5714285714287</ele><time>2026-04-11T10:01:35.576Z</time></trkpt><trkpt lat="45.0777254" lon="7.2130417"><ele>1829.0</ele><time>2026-04-11T10:02:07.566Z</time></trkpt><trkpt lat="45.0777031" lon="7.2131317"><ele>1830.7142857142858</ele><time>2026-04-11T10:02:12.546Z</time></trkpt><trkpt lat="45.0776818" lon="7.213221"><ele>1832.4285714285713</ele><time>2026-04-11T10:02:18.808Z</time></trkpt><trkpt lat="45.0776784" lon="7.2133311"><ele>1834.142857142857</ele><time>2026-04-11T10:02:26.589Z</time></trkpt><trkpt lat="45.0776874" lon="7.213423"><ele>1835.857142857143</ele><time>2026-04-11T10:02:35.516Z</time></trkpt><trkpt lat="45.0776686" lon="7.2135184"><ele>1837.5714285714284</ele><time>2026-04-11T10:02:44.55Z</time></trkpt><trkpt lat="45.0776339" lon="7.2136026"><ele>1839.2857142857142</ele><time>2026-04-11T10:02:51.564Z</time></trkpt><trkpt lat="45.0776231" lon="7.2136963"><ele>1841.0</ele><time>2026-04-11T10:03:00.598Z</time></trkpt><trkpt lat="45.0776059" lon="7.2137826"><ele>1841.0</ele><time>2026-04-11T10:03:10.588Z</time></trkpt><trkpt lat="45.0776212" lon="7.2138716"><ele>1841.0</ele><time>2026-04-11T10:03:22.597Z</time></trkpt><trkpt lat="45.0775866" lon="7.213956"><ele>1841.0</ele><time>2026-04-11T10:03:33.544Z</time></trkpt><trkpt lat="45.0775742" lon="7.2140467"><ele>1841.0</ele><time>2026-04-11T10:03:40.558Z</time></trkpt><trkpt lat="45.0775739" lon="7.2141413"><ele>1841.0</ele><time>2026-04-11T10:03:49.592Z</time></trkpt><trkpt lat="45.0775333" lon="7.2142252"><ele>1841.0</ele><time>2026-04-11T10:04:05.532Z</time></trkpt><trkpt lat="45.0775499" lon="7.2143113"><ele>1841.0</ele><time>2026-04-11T10:04:10.528Z</time></trkpt><trkpt lat="45.077551" lon="7.2144055"><ele>1842.0</ele><time>2026-04-11T10:04:18.605Z</time></trkpt><trkpt lat="45.0775306" lon="7.2145008"><ele>1843.0</ele><time>2026-04-11T10:04:26.576Z</time></trkpt><trkpt lat="45.0774942" lon="7.214582"><ele>1844.0</ele><time>2026-04-11T10:04:34.476Z</time></trkpt><trkpt lat="45.0774635" lon="7.2146662"><ele>1845.0</ele><time>2026-04-11T10:04:46.556Z</time></trkpt><trkpt lat="45.0774647" lon="7.2147666"><ele>1846.0</ele><time>2026-04-11T10:04:56.545Z</time></trkpt><trkpt lat="45.0774666" lon="7.2148631"><ele>1847.0</ele><time>2026-04-11T10:05:06.552Z</time></trkpt><trkpt lat="45.0774406" lon="7.2149508"><ele>1848.0</ele><time>2026-04-11T10:05:13.549Z</time></trkpt><trkpt lat="45.0774207" lon="7.2150402"><ele>1840.857142857143</ele><time>2026-04-11T10:05:22.584Z</time></trkpt><trkpt lat="45.0773725" lon="7.2151127"><ele>1833.7142857142858</ele><time>2026-04-11T10:05:31.513Z</time></trkpt><trkpt lat="45.077373" lon="7.2152118"><ele>1826.5714285714284</ele><time>2026-04-11T10:05:42.562Z</time></trkpt><trkpt lat="45.0773803" lon="7.215309"><ele>1819.4285714285713</ele><time>2026-04-11T10:05:51.596Z</time></trkpt><trkpt lat="45.0773597" lon="7.2154024"><ele>1812.2857142857142</ele><time>2026-04-11T10:05:59.454Z</time></trkpt><trkpt lat="45.0773366" lon="7.2154939"><ele>1805.1428571428569</ele><time>2026-04-11T10:06:05.518Z</time></trkpt><trkpt lat="45.0773069" lon="7.2155735"><ele>1797.9999999999998</ele><time>2026-04-11T10:06:13.595Z</time></trkpt><trkpt lat="45.0772619" lon="7.2156448"><ele>1799.5714285714284</ele><time>2026-04-11T10:06:26.561Z</time></trkpt><trkpt lat="45.0772496" lon="7.2157457"><ele>1801.142857142857</ele><time>2026-04-11T10:06:35.594Z</time></trkpt><trkpt lat="45.0772219" lon="7.2158397"><ele>1802.7142857142858</ele><time>2026-04-11T10:06:49.516Z</time></trkpt><trkpt lat="45.0772284" lon="7.2159361"><ele>1804.2857142857142</ele><time>2026-04-11T10:06:55.574Z</time></trkpt><trkpt lat="45.0772115" lon="7.2160229"><ele>1805.8571428571431</ele><time>2026-04-11T10:07:02.588Z</time></trkpt><trkpt lat="45.0771969" lon="7.2161117"><ele>1807.4285714285716</ele><time>2026-04-11T10:07:10.559Z</time></trkpt><trkpt lat="45.0771786" lon="7.2162048"><ele>1809.0</ele><time>2026-04-11T10:07:18.529Z</time></trkpt><trkpt lat="45.0771544" lon="7.2162937"><ele>1809.0</ele><time>2026-04-11T10:07:28.519Z</time></trkpt><trkpt lat="45.0771145" lon="7.2163765"><ele>1809.0000000000002</ele><time>2026-04-11T10:07:36.594Z</time></trkpt><trkpt lat="45.0770833" lon="7.2164614"><ele>1809.0</ele><time>2026-04-11T10:07:43.513Z</time></trkpt><trkpt lat="45.0770455" lon="7.2165443"><ele>1809.0</ele><time>2026-04-11T10:07:56.474Z</time></trkpt><trkpt lat="45.0770328" lon="7.2166398"><ele>1809.0000000000002</ele><time>2026-04-11T10:08:06.575Z</time></trkpt><trkpt lat="45.0770361" lon="7.2167372"><ele>1809.0</ele><time>2026-04-11T10:08:14.614Z</time></trkpt><trkpt lat="45.0770133" lon="7.2168321"><ele>1809.0</ele><time>2026-04-11T10:08:21.492Z</time></trkpt><trkpt lat="45.0770179" lon="7.216932"><ele>1810.5714285714287</ele><time>2026-04-11T10:08:36.533Z</time></trkpt><trkpt lat="45.0770463" lon="7.2170277"><ele>1812.1428571428573</ele><time>2026-04-11T10:08:43.514Z</time></trkpt><trkpt lat="45.0770291" lon="7.2171225"><ele>1813.7142857142858</ele><time>2026-04-11T10:08:50.561Z</time></trkpt><trkpt lat="45.0770221" lon="7.21722"><ele>1815.2857142857142</ele><time>2026-04-11T10:08:57.575Z</time></trkpt><trkpt lat="45.0769991" lon="7.2173135"><ele>1816.857142857143</ele><time>2026-04-11T10:09:06.551Z</time></trkpt><trkpt lat="45.0770111" lon="7.217402"><ele>1818.4285714285716</ele><time>2026-04-11T10:09:16.598Z</time></trkpt><trkpt lat="45.0770526" lon="7.2174814"><ele>1820.0</ele><time>2026-04-11T10:09:27.544Z</time></trkpt><trkpt lat="45.0770706" lon="7.2175709"><ele>1820.0</ele><time>2026-04-11T10:09:35.515Z</time></trkpt><trkpt lat="45.077072" lon="7.2176657"><ele>1820.0</ele><time>2026-04-11T10:09:46.571Z</time></trkpt><trkpt lat="45.0771034" lon="7.2177507"><ele>1820.0</ele><time>2026-04-11T10:09:55.598Z</time></trkpt><trkpt lat="45.0771603" lon="7.2177913"><ele>1820.0</ele><time>2026-04-11T10:10:03.569Z</time></trkpt><trkpt lat="45.0771702" lon="7.2178865"><ele>1820.0</ele><time>2026-04-11T10:10:15.578Z</time></trkpt><trkpt lat="45.0771848" lon="7.2179752"><ele>1820.0</ele><time>2026-04-11T10:10:27.586Z</time></trkpt><trkpt lat="45.0772311" lon="7.2180432"><ele>1820.0</ele><time>2026-04-11T10:10:49.584Z</time></trkpt><trkpt lat="45.0772799" lon="7.2181102"><ele>1816.5714285714284</ele><time>2026-04-11T10:11:02.549Z</time></trkpt><trkpt lat="45.077325" lon="7.2181885"><ele>1813.142857142857</ele><time>2026-04-11T10:11:13.496Z</time></trkpt><trkpt lat="45.0773683" lon="7.2182635"><ele>1809.7142857142858</ele><time>2026-04-11T10:11:23.59Z</time></trkpt><trkpt lat="45.0774058" lon="7.2183477"><ele>1806.2857142857142</ele><time>2026-04-11T10:11:31.531Z</time></trkpt><trkpt lat="45.07741" lon="7.2184393"><ele>1802.8571428571427</ele><time>2026-04-11T10:11:39.53Z</time></trkpt><trkpt lat="45.0774134" lon="7.2185356"><ele>1799.4285714285713</ele><time>2026-04-11T10:11:49.52Z</time></trkpt><trkpt lat="45.0774065" lon="7.2186363"><ele>1796.0</ele><time>2026-04-11T10:12:00.572Z</time></trkpt><trkpt lat="45.0774168" lon="7.2187252"><ele>1796.0</ele><time>2026-04-11T10:12:07.585Z</time></trkpt><trkpt lat="45.0774123" lon="7.2188144"><ele>1795.9999999999998</ele><time>2026-04-11T10:12:19.394Z</time></trkpt><trkpt lat="45.0774041" lon="7.2189071"><ele>1796.0</ele><time>2026-04-11T10:12:29.473Z</time></trkpt><trkpt lat="45.0774354" lon="7.2189917"><ele>1796.0</ele><time>2026-04-11T10:12:39.572Z</time></trkpt><trkpt lat="45.0774451" lon="7.219086"><ele>1795.9999999999998</ele><time>2026-04-11T10:12:48.605Z</time></trkpt><trkpt lat="45.077439" lon="7.2191827"><ele>1796.0</ele><time>2026-04-11T10:13:05.608Z</time></trkpt><trkpt lat="45.0774622" lon="7.2192702"><ele>1796.0</ele><time>2026-04-11T10:13:13.577Z</time></trkpt><trkpt lat="45.0774653" lon="7.2193629"><ele>1795.2857142857142</ele><time>2026-04-11T10:13:22.611Z</time></trkpt><trkpt lat="45.0774578" lon="7.219453"><ele>1794.5714285714284</ele><time>2026-04-11T10:13:33.557Z</time></trkpt><trkpt lat="45.0774807" lon="7.2195424"><ele>1793.8571428571427</ele><time>2026-04-11T10:13:41.527Z</time></trkpt><trkpt lat="45.0775177" lon="7.219632"><ele>1793.142857142857</ele><time>2026-04-11T10:13:51.516Z</time></trkpt><trkpt lat="45.0774922" lon="7.2197296"><ele>1792.4285714285713</ele><time>2026-04-11T10:14:01.513Z</time></trkpt><trkpt lat="45.0774742" lon="7.2198212"><ele>1791.7142857142858</ele><time>2026-04-11T10:14:11.599Z</time></trkpt><trkpt lat="45.0774898" lon="7.2199077"><ele>1791.0</ele><time>2026-04-11T10:14:25.52Z</time></trkpt><trkpt lat="45.0774574" lon="7.2200215"><ele>1791.0</ele><time>2026-04-11T10:14:45.514Z</time></trkpt><trkpt lat="45.0774606" lon="7.2201121"><ele>1791.0</ele><time>2026-04-11T10:14:54.532Z</time></trkpt><trkpt lat="45.0774837" lon="7.2201964"><ele>1791.0</ele><time>2026-04-11T10:15:05.584Z</time></trkpt><trkpt lat="45.0775206" lon="7.2202753"><ele>1791.0</ele><time>2026-04-11T10:15:12.453Z</time></trkpt><trkpt lat="45.0775213" lon="7.2203716"><ele>1791.0</ele><time>2026-04-11T10:15:21.434Z</time></trkpt><trkpt lat="45.0774907" lon="7.2204568"><ele>1791.0</ele><time>2026-04-11T10:15:31.534Z</time></trkpt><trkpt lat="45.0774662" lon="7.2205418"><ele>1791.0</ele><time>2026-04-11T10:15:38.552Z</time></trkpt><trkpt lat="45.0774183" lon="7.2206113"><ele>1785.2857142857142</ele><time>2026-04-11T10:15:49.614Z</time></trkpt><trkpt lat="45.0773548" lon="7.2205485"><ele>1779.5714285714284</ele><time>2026-04-11T10:16:13.496Z</time></trkpt><trkpt lat="45.0772954" lon="7.2205901"><ele>1773.857142857143</ele><time>2026-04-11T10:16:25.604Z</time></trkpt><trkpt lat="45.0772975" lon="7.2206799"><ele>1768.142857142857</ele><time>2026-04-11T10:16:41.575Z</time></trkpt><trkpt lat="45.0772442" lon="7.2207351"><ele>1762.4285714285716</ele><time>2026-04-11T10:17:02.592Z</time></trkpt><trkpt lat="45.0772386" lon="7.2208276"><ele>1756.7142857142858</ele><time>2026-04-11T10:17:17.57Z</time></trkpt><trkpt lat="45.0772045" lon="7.2209112"><ele>1751.0</ele><time>2026-04-11T10:17:28.516Z</time></trkpt><trkpt lat="45.0771901" lon="7.221006"><ele>1749.142857142857</ele><time>2026-04-11T10:17:37.335Z</time></trkpt><trkpt lat="45.0772009" lon="7.2210956"><ele>1747.2857142857142</ele><time>2026-04-11T10:17:43.453Z</time></trkpt><trkpt lat="45.0772148" lon="7.2211831"><ele>1745.4285714285716</ele><time>2026-04-11T10:17:52.532Z</time></trkpt><trkpt lat="45.0772332" lon="7.2212705"><ele>1743.5714285714284</ele><time>2026-04-11T10:18:07.515Z</time></trkpt><trkpt lat="45.0772494" lon="7.2213582"><ele>1741.7142857142856</ele><time>2026-04-11T10:18:16.549Z</time></trkpt><trkpt lat="45.0772182" lon="7.2214422"><ele>1739.857142857143</ele><time>2026-04-11T10:18:25.582Z</time></trkpt><trkpt lat="45.0772121" lon="7.2215378"><ele>1738.0</ele><time>2026-04-11T10:18:35.571Z</time></trkpt><trkpt lat="45.0772205" lon="7.2216352"><ele>1737.2857142857144</ele><time>2026-04-11T10:18:42.571Z</time></trkpt><trkpt lat="45.0771935" lon="7.2217259"><ele>1736.5714285714284</ele><time>2026-04-11T10:18:50.555Z</time></trkpt><trkpt lat="45.0771555" lon="7.2218022"><ele>1735.857142857143</ele><time>2026-04-11T10:18:56.514Z</time></trkpt><trkpt lat="45.0771281" lon="7.2218843"><ele>1735.1428571428573</ele><time>2026-04-11T10:19:04.515Z</time></trkpt><trkpt lat="45.0771022" lon="7.2219691"><ele>1734.4285714285716</ele><time>2026-04-11T10:19:13.615Z</time></trkpt><trkpt lat="45.0770817" lon="7.2220636"><ele>1733.7142857142858</ele><time>2026-04-11T10:19:19.566Z</time></trkpt><trkpt lat="45.0770902" lon="7.2221562"><ele>1733.0</ele><time>2026-04-11T10:19:26.578Z</time></trkpt><trkpt lat="45.0770933" lon="7.2222484"><ele>1733.4285714285716</ele><time>2026-04-11T10:19:33.592Z</time></trkpt><trkpt lat="45.0770836" lon="7.2223438"><ele>1733.857142857143</ele><time>2026-04-11T10:19:39.544Z</time></trkpt><trkpt lat="45.0770714" lon="7.2224431"><ele>1734.2857142857142</ele><time>2026-04-11T10:19:46.557Z</time></trkpt><trkpt lat="45.07705" lon="7.2225415"><ele>1734.7142857142858</ele><time>2026-04-11T10:19:53.571Z</time></trkpt><trkpt lat="45.0770301" lon="7.22264"><ele>1735.142857142857</ele><time>2026-04-11T10:20:00.585Z</time></trkpt><trkpt lat="45.0769982" lon="7.2227279"><ele>1735.5714285714287</ele><time>2026-04-11T10:20:07.598Z</time></trkpt><trkpt lat="45.0769606" lon="7.2228056"><ele>1736.0</ele><time>2026-04-11T10:20:13.548Z</time></trkpt><trkpt lat="45.0769258" lon="7.2228895"><ele>1736.0</ele><time>2026-04-11T10:20:22.582Z</time></trkpt><trkpt lat="45.0769181" lon="7.2229833"><ele>1736.0</ele><time>2026-04-11T10:20:29.616Z</time></trkpt><trkpt lat="45.0769087" lon="7.2230834"><ele>1736.0</ele><time>2026-04-11T10:20:36.515Z</time></trkpt><trkpt lat="45.0769218" lon="7.2231768"><ele>1736.0</ele><time>2026-04-11T10:20:43.517Z</time></trkpt><trkpt lat="45.0768927" lon="7.2232575"><ele>1736.0</ele><time>2026-04-11T10:20:50.53Z</time></trkpt><trkpt lat="45.0768615" lon="7.2233502"><ele>1736.0</ele><time>2026-04-11T10:20:56.587Z</time></trkpt><trkpt lat="45.0768517" lon="7.2234445"><ele>1736.0</ele><time>2026-04-11T10:21:02.538Z</time></trkpt><trkpt lat="45.0768236" lon="7.2235336"><ele>1736.142857142857</ele><time>2026-04-11T10:21:09.552Z</time></trkpt><trkpt lat="45.0767909" lon="7.2236228"><ele>1736.2857142857142</ele><time>2026-04-11T10:21:15.608Z</time></trkpt><trkpt lat="45.0767711" lon="7.2237185"><ele>1736.4285714285716</ele><time>2026-04-11T10:21:23.578Z</time></trkpt><trkpt lat="45.0767605" lon="7.2238164"><ele>1736.5714285714284</ele><time>2026-04-11T10:21:30.474Z</time></trkpt><trkpt lat="45.0767226" lon="7.2239021"><ele>1736.7142857142858</ele><time>2026-04-11T10:21:36.544Z</time></trkpt><trkpt lat="45.0767009" lon="7.2239906"><ele>1736.857142857143</ele><time>2026-04-11T10:21:42.517Z</time></trkpt><trkpt lat="45.0767151" lon="7.2240823"><ele>1737.0</ele><time>2026-04-11T10:21:50.534Z</time></trkpt><trkpt lat="45.0767265" lon="7.2241779"><ele>1737.0</ele><time>2026-04-11T10:21:57.475Z</time></trkpt><trkpt lat="45.0767505" lon="7.2242659"><ele>1737.0</ele><time>2026-04-11T10:22:04.494Z</time></trkpt><trkpt lat="45.0767629" lon="7.224366"><ele>1737.0</ele><time>2026-04-11T10:22:13.631Z</time></trkpt><trkpt lat="45.0767617" lon="7.2244584"><ele>1737.0</ele><time>2026-04-11T10:22:26.595Z</time></trkpt><trkpt lat="45.0767651" lon="7.2245563"><ele>1737.0</ele><time>2026-04-11T10:22:36.584Z</time></trkpt><trkpt lat="45.076768" lon="7.2246488"><ele>1737.0</ele><time>2026-04-11T10:22:48.574Z</time></trkpt><trkpt lat="45.0767676" lon="7.2247471"><ele>1737.0</ele><time>2026-04-11T10:23:02.515Z</time></trkpt><trkpt lat="45.0767629" lon="7.2248368"><ele>1734.857142857143</ele><time>2026-04-11T10:23:12.607Z</time></trkpt><trkpt lat="45.0767453" lon="7.2249274"><ele>1732.7142857142858</ele><time>2026-04-11T10:23:22.434Z</time></trkpt><trkpt lat="45.0767242" lon="7.2250199"><ele>1730.5714285714284</ele><time>2026-04-11T10:23:31.475Z</time></trkpt><trkpt lat="45.0767217" lon="7.2251118"><ele>1728.4285714285716</ele><time>2026-04-11T10:23:39.436Z</time></trkpt><trkpt lat="45.0767155" lon="7.2252043"><ele>1726.2857142857142</ele><time>2026-04-11T10:23:49.473Z</time></trkpt><trkpt lat="45.0766721" lon="7.2252726"><ele>1724.142857142857</ele><time>2026-04-11T10:24:03.592Z</time></trkpt><trkpt lat="45.0766967" lon="7.2253678"><ele>1722.0</ele><time>2026-04-11T10:24:12.541Z</time></trkpt><trkpt lat="45.0767167" lon="7.2254534"><ele>1722.0</ele><time>2026-04-11T10:24:18.613Z</time></trkpt><trkpt lat="45.0766975" lon="7.2255427"><ele>1722.0</ele><time>2026-04-11T10:24:25.61Z</time></trkpt><trkpt lat="45.0767264" lon="7.2256357"><ele>1722.0</ele><time>2026-04-11T10:24:33.581Z</time></trkpt><trkpt lat="45.076739" lon="7.2257286"><ele>1722.0</ele><time>2026-04-11T10:24:43.595Z</time></trkpt><trkpt lat="45.076726" lon="7.2258268"><ele>1722.0</ele><time>2026-04-11T10:24:54.515Z</time></trkpt><trkpt lat="45.0767431" lon="7.2259258"><ele>1722.0</ele><time>2026-04-11T10:25:01.529Z</time></trkpt><trkpt lat="45.0767545" lon="7.2260184"><ele>1722.0</ele><time>2026-04-11T10:25:10.561Z</time></trkpt><trkpt lat="45.0767556" lon="7.2261124"><ele>1720.4285714285713</ele><time>2026-04-11T10:25:19.594Z</time></trkpt><trkpt lat="45.076768" lon="7.22621"><ele>1718.857142857143</ele><time>2026-04-11T10:25:27.613Z</time></trkpt><trkpt lat="45.0767573" lon="7.226349"><ele>1717.2857142857142</ele><time>2026-04-11T10:25:48.604Z</time></trkpt><trkpt lat="45.0767492" lon="7.2264439"><ele>1715.7142857142858</ele><time>2026-04-11T10:25:55.515Z</time></trkpt><trkpt lat="45.0767277" lon="7.2265346"><ele>1714.142857142857</ele><time>2026-04-11T10:26:14.532Z</time></trkpt><trkpt lat="45.0766733" lon="7.2265815"><ele>1712.5714285714284</ele><time>2026-04-11T10:26:24.52Z</time></trkpt><trkpt lat="45.076618" lon="7.2266255"><ele>1711.0</ele><time>2026-04-11T10:26:35.464Z</time></trkpt><trkpt lat="45.0765903" lon="7.2267108"><ele>1704.2857142857142</ele><time>2026-04-11T10:26:48.536Z</time></trkpt><trkpt lat="45.0765268" lon="7.2267473"><ele>1697.5714285714284</ele><time>2026-04-11T10:27:03.518Z</time></trkpt><trkpt lat="45.0764795" lon="7.2268091"><ele>1690.8571428571427</ele><time>2026-04-11T10:27:12.533Z</time></trkpt><trkpt lat="45.0764519" lon="7.2268956"><ele>1684.142857142857</ele><time>2026-04-11T10:27:24.558Z</time></trkpt><trkpt lat="45.0764625" lon="7.226987"><ele>1677.4285714285716</ele><time>2026-04-11T10:27:33.496Z</time></trkpt><trkpt lat="45.0764434" lon="7.2271089"><ele>1670.7142857142856</ele><time>2026-04-11T10:27:51.549Z</time></trkpt><trkpt lat="45.0763939" lon="7.2271771"><ele>1664.0</ele><time>2026-04-11T10:27:59.517Z</time></trkpt><trkpt lat="45.0763311" lon="7.2271851"><ele>1664.0</ele><time>2026-04-11T10:28:07.615Z</time></trkpt><trkpt lat="45.0763181" lon="7.2272853"><ele>1664.0</ele><time>2026-04-11T10:28:16.52Z</time></trkpt><trkpt lat="45.0763361" lon="7.2273771"><ele>1664.0</ele><time>2026-04-11T10:28:22.576Z</time></trkpt><trkpt lat="45.0763351" lon="7.2274735"><ele>1664.0</ele><time>2026-04-11T10:28:31.61Z</time></trkpt><trkpt lat="45.0763012" lon="7.2275523"><ele>1664.0</ele><time>2026-04-11T10:28:43.516Z</time></trkpt><trkpt lat="45.0762721" lon="7.2276417"><ele>1664.0</ele><time>2026-04-11T10:28:52.515Z</time></trkpt><trkpt lat="45.0762109" lon="7.2276972"><ele>1664.0</ele><time>2026-04-11T10:29:01.575Z</time></trkpt><trkpt lat="45.0761942" lon="7.2277908"><ele>1662.0</ele><time>2026-04-11T10:29:08.589Z</time></trkpt><trkpt lat="45.0762075" lon="7.2278802"><ele>1660.0</ele><time>2026-04-11T10:29:20.597Z</time></trkpt><trkpt lat="45.0761726" lon="7.2279602"><ele>1658.0</ele><time>2026-04-11T10:29:29.616Z</time></trkpt><trkpt lat="45.0761394" lon="7.2280515"><ele>1656.0</ele><time>2026-04-11T10:34:47.566Z</time></trkpt><trkpt lat="45.076096" lon="7.2281315"><ele>1654.0</ele><time>2026-04-11T10:34:54.456Z</time></trkpt><trkpt lat="45.0760491" lon="7.2282179"><ele>1652.0</ele><time>2026-04-11T10:35:09.562Z</time></trkpt><trkpt lat="45.0760058" lon="7.228293"><ele>1650.0</ele><time>2026-04-11T10:35:18.595Z</time></trkpt><trkpt lat="45.075953" lon="7.2283564"><ele>1649.2857142857142</ele><time>2026-04-11T10:35:28.532Z</time></trkpt><trkpt lat="45.0759042" lon="7.2284353"><ele>1648.5714285714287</ele><time>2026-04-11T10:35:35.597Z</time></trkpt><trkpt lat="45.0758532" lon="7.2285033"><ele>1647.857142857143</ele><time>2026-04-11T10:35:42.518Z</time></trkpt><trkpt lat="45.0757963" lon="7.2285635"><ele>1647.142857142857</ele><time>2026-04-11T10:35:53.555Z</time></trkpt><trkpt lat="45.075758" lon="7.2286411"><ele>1646.4285714285716</ele><time>2026-04-11T10:36:01.594Z</time></trkpt><trkpt lat="45.0757291" lon="7.2287256"><ele>1645.7142857142858</ele><time>2026-04-11T10:36:10.557Z</time></trkpt><trkpt lat="45.0757067" lon="7.2288141"><ele>1645.0</ele><time>2026-04-11T10:36:20.545Z</time></trkpt><trkpt lat="45.0757043" lon="7.2289285"><ele>1643.857142857143</ele><time>2026-04-11T10:40:00.433Z</time></trkpt><trkpt lat="45.0756461" lon="7.228981"><ele>1642.7142857142858</ele><time>2026-04-11T10:40:07.519Z</time></trkpt><trkpt lat="45.0755918" lon="7.2290431"><ele>1641.5714285714284</ele><time>2026-04-11T10:40:14.595Z</time></trkpt><trkpt lat="45.0755177" lon="7.2291214"><ele>1640.4285714285716</ele><time>2026-04-11T10:40:30.476Z</time></trkpt><trkpt lat="45.0754643" lon="7.2291795"><ele>1639.2857142857142</ele><time>2026-04-11T10:40:36.513Z</time></trkpt><trkpt lat="45.0753968" lon="7.229209"><ele>1638.142857142857</ele><time>2026-04-11T10:40:42.436Z</time></trkpt><trkpt lat="45.0753379" lon="7.2292607"><ele>1637.0</ele><time>2026-04-11T10:40:48.534Z</time></trkpt><trkpt lat="45.0752993" lon="7.2293412"><ele>1637.0</ele><time>2026-04-11T10:40:57.566Z</time></trkpt><trkpt lat="45.0752487" lon="7.229404"><ele>1637.0</ele><time>2026-04-11T10:41:07.555Z</time></trkpt><trkpt lat="45.0752096" lon="7.2294775"><ele>1637.0</ele><time>2026-04-11T10:41:13.61Z</time></trkpt><trkpt lat="45.0751567" lon="7.2295601"><ele>1637.0</ele><time>2026-04-11T10:41:20.519Z</time></trkpt><trkpt lat="45.0751133" lon="7.2296321"><ele>1637.0</ele><time>2026-04-11T10:41:26.575Z</time></trkpt><trkpt lat="45.0750683" lon="7.2297109"><ele>1637.0</ele><time>2026-04-11T10:41:35.607Z</time></trkpt><trkpt lat="45.0750182" lon="7.2297904"><ele>1637.0</ele><time>2026-04-11T10:41:41.614Z</time></trkpt><trkpt lat="45.0750036" lon="7.229879"><ele>1635.0</ele><time>2026-04-11T10:41:48.571Z</time></trkpt><trkpt lat="45.0749197" lon="7.2299546"><ele>1633.0</ele><time>2026-04-11T10:42:08.548Z</time></trkpt><trkpt lat="45.0748658" lon="7.2300309"><ele>1631.0</ele><time>2026-04-11T10:42:28.525Z</time></trkpt><trkpt lat="45.0748171" lon="7.2300951"><ele>1629.0</ele><time>2026-04-11T10:42:34.582Z</time></trkpt><trkpt lat="45.0747443" lon="7.2301211"><ele>1627.0</ele><time>2026-04-11T10:42:49.564Z</time></trkpt><trkpt lat="45.0746974" lon="7.2301861"><ele>1625.0</ele><time>2026-04-11T10:42:56.578Z</time></trkpt><trkpt lat="45.0746761" lon="7.2302728"><ele>1623.0</ele><time>2026-04-11T10:43:03.591Z</time></trkpt><trkpt lat="45.0746487" lon="7.23037"><ele>1623.0</ele><time>2026-04-11T10:43:11.561Z</time></trkpt><trkpt lat="45.0746078" lon="7.2304462"><ele>1623.0</ele><time>2026-04-11T10:43:18.556Z</time></trkpt><trkpt lat="45.0745717" lon="7.2305324"><ele>1623.0</ele><time>2026-04-11T10:43:30.433Z</time></trkpt><trkpt lat="45.0745135" lon="7.2305809"><ele>1623.0</ele><time>2026-04-11T10:43:37.593Z</time></trkpt><trkpt lat="45.074478" lon="7.2306598"><ele>1623.0</ele><time>2026-04-11T10:43:44.606Z</time></trkpt><trkpt lat="45.0744376" lon="7.2307545"><ele>1623.0</ele><time>2026-04-11T10:45:10.118Z</time></trkpt><trkpt lat="45.0743867" lon="7.2308241"><ele>1623.0</ele><time>2026-04-11T10:45:15.533Z</time></trkpt><trkpt lat="45.0743344" lon="7.2308832"><ele>1625.142857142857</ele><time>2026-04-11T10:45:35.512Z</time></trkpt><trkpt lat="45.0742849" lon="7.2309563"><ele>1627.2857142857142</ele><time>2026-04-11T10:45:47.52Z</time></trkpt><trkpt lat="45.0742248" lon="7.230994"><ele>1629.4285714285716</ele><time>2026-04-11T10:46:09.513Z</time></trkpt><trkpt lat="45.0741418" lon="7.2310512"><ele>1631.5714285714284</ele><time>2026-04-11T10:46:32.575Z</time></trkpt><trkpt lat="45.0740694" lon="7.2311006"><ele>1633.7142857142858</ele><time>2026-04-11T10:46:45.538Z</time></trkpt><trkpt lat="45.0740213" lon="7.2311624"><ele>1635.857142857143</ele><time>2026-04-11T10:46:53.515Z</time></trkpt><trkpt lat="45.0740094" lon="7.2312514"><ele>1638.0</ele><time>2026-04-11T10:47:04.56Z</time></trkpt><trkpt lat="45.0739625" lon="7.2313157"><ele>1635.142857142857</ele><time>2026-04-11T10:49:33.543Z</time></trkpt><trkpt lat="45.0739153" lon="7.2313797"><ele>1632.2857142857142</ele><time>2026-04-11T10:49:39.601Z</time></trkpt><trkpt lat="45.0738679" lon="7.2314394"><ele>1629.4285714285716</ele><time>2026-04-11T10:49:45.553Z</time></trkpt><trkpt lat="45.0738545" lon="7.2315438"><ele>1626.5714285714284</ele><time>2026-04-11T10:49:58.602Z</time></trkpt><trkpt lat="45.0738079" lon="7.2316298"><ele>1623.7142857142858</ele><time>2026-04-11T10:50:02.581Z</time></trkpt><trkpt lat="45.073788" lon="7.231718"><ele>1620.857142857143</ele><time>2026-04-11T10:50:05.531Z</time></trkpt><trkpt lat="45.0737857" lon="7.2318149"><ele>1618.0</ele><time>2026-04-11T10:50:13.441Z</time></trkpt><trkpt lat="45.0737415" lon="7.2318903"><ele>1618.0</ele><time>2026-04-11T10:50:23.514Z</time></trkpt><trkpt lat="45.0737546" lon="7.2320191"><ele>1618.0</ele><time>2026-04-11T10:50:30.514Z</time></trkpt><trkpt lat="45.0737818" lon="7.2321127"><ele>1618.0</ele><time>2026-04-11T10:50:36.563Z</time></trkpt><trkpt lat="45.0737824" lon="7.2322155"><ele>1618.0</ele><time>2026-04-11T10:50:43.577Z</time></trkpt><trkpt lat="45.0737711" lon="7.2323115"><ele>1618.0</ele><time>2026-04-11T10:50:51.547Z</time></trkpt><trkpt lat="45.0737562" lon="7.2324151"><ele>1618.0</ele><time>2026-04-11T10:50:58.561Z</time></trkpt><trkpt lat="45.0737341" lon="7.2325006"><ele>1618.0</ele><time>2026-04-11T10:51:04.514Z</time></trkpt><trkpt lat="45.0737109" lon="7.2325908"><ele>1619.0</ele><time>2026-04-11T10:51:12.606Z</time></trkpt><trkpt lat="45.0737097" lon="7.2326924"><ele>1620.0</ele><time>2026-04-11T10:51:19.603Z</time></trkpt><trkpt lat="45.0736752" lon="7.2327781"><ele>1621.0</ele><time>2026-04-11T10:51:26.52Z</time></trkpt><trkpt lat="45.0736468" lon="7.2328763"><ele>1622.0</ele><time>2026-04-11T10:51:32.568Z</time></trkpt><trkpt lat="45.0736484" lon="7.2329727"><ele>1623.0</ele><time>2026-04-11T10:51:38.519Z</time></trkpt><trkpt lat="45.0736129" lon="7.2330551"><ele>1624.0</ele><time>2026-04-11T10:51:45.563Z</time></trkpt><trkpt lat="45.0735792" lon="7.233137"><ele>1625.0</ele><time>2026-04-11T10:51:50.528Z</time></trkpt><trkpt lat="45.073539" lon="7.2332215"><ele>1625.5714285714287</ele><time>2026-04-11T10:51:56.585Z</time></trkpt><trkpt lat="45.0735095" lon="7.233316"><ele>1626.1428571428573</ele><time>2026-04-11T10:52:03.599Z</time></trkpt><trkpt lat="45.0735234" lon="7.2334064"><ele>1626.7142857142858</ele><time>2026-04-11T10:52:10.604Z</time></trkpt><trkpt lat="45.0734929" lon="7.2334976"><ele>1627.2857142857142</ele><time>2026-04-11T10:52:15.607Z</time></trkpt><trkpt lat="45.0734581" lon="7.2335798"><ele>1627.857142857143</ele><time>2026-04-11T10:52:20.544Z</time></trkpt><trkpt lat="45.0734394" lon="7.2336817"><ele>1628.4285714285713</ele><time>2026-04-11T10:52:28.571Z</time></trkpt><trkpt lat="45.0734262" lon="7.2337788"><ele>1629.0</ele><time>2026-04-11T10:52:32.6Z</time></trkpt><trkpt lat="45.0734047" lon="7.2338655"><ele>1629.0</ele><time>2026-04-11T10:52:36.483Z</time></trkpt><trkpt lat="45.0733754" lon="7.2339661"><ele>1629.0</ele><time>2026-04-11T10:52:42.598Z</time></trkpt><trkpt lat="45.0733761" lon="7.234068"><ele>1629.0</ele><time>2026-04-11T10:52:48.561Z</time></trkpt><trkpt lat="45.0733702" lon="7.2341582"><ele>1629.0</ele><time>2026-04-11T10:52:52.586Z</time></trkpt><trkpt lat="45.0733531" lon="7.2342585"><ele>1629.0</ele><time>2026-04-11T10:52:59.6Z</time></trkpt><trkpt lat="45.0733673" lon="7.2343645"><ele>1629.0</ele><time>2026-04-11T10:53:06.515Z</time></trkpt><trkpt lat="45.0733963" lon="7.2344601"><ele>1629.0</ele><time>2026-04-11T10:53:12.564Z</time></trkpt><trkpt lat="45.0734254" lon="7.2345552"><ele>1629.7142857142856</ele><time>2026-04-11T10:53:20.56Z</time></trkpt><trkpt lat="45.0734479" lon="7.2346474"><ele>1630.4285714285716</ele><time>2026-04-11T10:53:26.592Z</time></trkpt><trkpt lat="45.0734814" lon="7.2347377"><ele>1631.142857142857</ele><time>2026-04-11T10:53:32.543Z</time></trkpt><trkpt lat="45.0735066" lon="7.2348239"><ele>1631.8571428571427</ele><time>2026-04-11T10:53:38.6Z</time></trkpt><trkpt lat="45.0735562" lon="7.2348792"><ele>1632.5714285714284</ele><time>2026-04-11T10:53:44.551Z</time></trkpt><trkpt lat="45.0735845" lon="7.234961"><ele>1633.2857142857142</ele><time>2026-04-11T10:53:52.015Z</time></trkpt><trkpt lat="45.0736521" lon="7.2350253"><ele>1634.0</ele><time>2026-04-11T10:54:01.593Z</time></trkpt><trkpt lat="45.0737024" lon="7.2350858"><ele>1632.4285714285713</ele><time>2026-04-11T10:54:04.528Z</time></trkpt><trkpt lat="45.0737375" lon="7.2351665"><ele>1630.857142857143</ele><time>2026-04-11T10:54:08.566Z</time></trkpt><trkpt lat="45.073776" lon="7.2352518"><ele>1629.2857142857142</ele><time>2026-04-11T10:54:15.58Z</time></trkpt><trkpt lat="45.0738251" lon="7.2353083"><ele>1627.7142857142858</ele><time>2026-04-11T10:54:22.593Z</time></trkpt><trkpt lat="45.0738657" lon="7.235393"><ele>1626.142857142857</ele><time>2026-04-11T10:54:30.562Z</time></trkpt><trkpt lat="45.0738866" lon="7.2354884"><ele>1624.5714285714284</ele><time>2026-04-11T10:54:38.531Z</time></trkpt><trkpt lat="45.0738717" lon="7.2355772"><ele>1623.0</ele><time>2026-04-11T10:54:45.546Z</time></trkpt><trkpt lat="45.0738606" lon="7.2356731"><ele>1619.4285714285713</ele><time>2026-04-11T10:54:52.559Z</time></trkpt><trkpt lat="45.0738621" lon="7.2357698"><ele>1615.8571428571427</ele><time>2026-04-11T10:54:58.616Z</time></trkpt><trkpt lat="45.0738462" lon="7.2358592"><ele>1612.2857142857142</ele><time>2026-04-11T10:55:04.593Z</time></trkpt><trkpt lat="45.0738789" lon="7.2359439"><ele>1608.7142857142858</ele><time>2026-04-11T10:55:10.517Z</time></trkpt><trkpt lat="45.0739182" lon="7.2360317"><ele>1605.142857142857</ele><time>2026-04-11T10:55:17.513Z</time></trkpt><trkpt lat="45.0739475" lon="7.2361204"><ele>1601.5714285714287</ele><time>2026-04-11T10:55:24.544Z</time></trkpt><trkpt lat="45.0739605" lon="7.2362086"><ele>1598.0</ele><time>2026-04-11T10:55:30.601Z</time></trkpt><trkpt lat="45.0739863" lon="7.236291"><ele>1598.0</ele><time>2026-04-11T10:55:34.572Z</time></trkpt><trkpt lat="45.0740257" lon="7.2363684"><ele>1598.0</ele><time>2026-04-11T10:55:39.527Z</time></trkpt><trkpt lat="45.0740695" lon="7.2364389"><ele>1598.0</ele><time>2026-04-11T10:55:46.54Z</time></trkpt><trkpt lat="45.0740845" lon="7.2365274"><ele>1598.0</ele><time>2026-04-11T10:55:56.528Z</time></trkpt><trkpt lat="45.0741214" lon="7.2366236"><ele>1598.0</ele><time>2026-04-11T10:56:04.572Z</time></trkpt><trkpt lat="45.0741522" lon="7.2367068"><ele>1598.0</ele><time>2026-04-11T10:56:11.513Z</time></trkpt><trkpt lat="45.074202" lon="7.2367777"><ele>1598.0</ele><time>2026-04-11T10:56:20.492Z</time></trkpt><trkpt lat="45.0742558" lon="7.2368408"><ele>1598.857142857143</ele><time>2026-04-11T10:56:27.592Z</time></trkpt><trkpt lat="45.0742458" lon="7.2369329"><ele>1599.7142857142856</ele><time>2026-04-11T10:56:36.589Z</time></trkpt><trkpt lat="45.0742829" lon="7.237017"><ele>1600.5714285714284</ele><time>2026-04-11T10:56:46.511Z</time></trkpt><trkpt lat="45.074326" lon="7.2370876"><ele>1601.4285714285716</ele><time>2026-04-11T10:56:54.394Z</time></trkpt><trkpt lat="45.0743708" lon="7.237156"><ele>1602.2857142857142</ele><time>2026-04-11T10:57:02.516Z</time></trkpt><trkpt lat="45.0744123" lon="7.2372338"><ele>1603.142857142857</ele><time>2026-04-11T10:57:09.633Z</time></trkpt><trkpt lat="45.0744639" lon="7.2373074"><ele>1604.0</ele><time>2026-04-11T10:57:16.572Z</time></trkpt><trkpt lat="45.0745118" lon="7.2373751"><ele>1604.0</ele><time>2026-04-11T10:57:23.556Z</time></trkpt><trkpt lat="45.0745652" lon="7.2374234"><ele>1604.0</ele><time>2026-04-11T10:57:32.587Z</time></trkpt><trkpt lat="45.074615" lon="7.2374937"><ele>1604.0</ele><time>2026-04-11T10:57:42.577Z</time></trkpt><trkpt lat="45.0746506" lon="7.2375728"><ele>1604.0</ele><time>2026-04-11T10:57:50.495Z</time></trkpt><trkpt lat="45.0746922" lon="7.2376509"><ele>1604.0</ele><time>2026-04-11T10:57:59.493Z</time></trkpt><trkpt lat="45.0747215" lon="7.2377335"><ele>1604.0</ele><time>2026-04-11T10:58:06.172Z</time></trkpt><trkpt lat="45.0747741" lon="7.2378085"><ele>1604.0</ele><time>2026-04-11T10:58:16.58Z</time></trkpt><trkpt lat="45.0748233" lon="7.2378695"><ele>1604.0</ele><time>2026-04-11T10:58:23.594Z</time></trkpt><trkpt lat="45.0748482" lon="7.2379584"><ele>1604.0</ele><time>2026-04-11T10:58:33.581Z</time></trkpt><trkpt lat="45.0748709" lon="7.2381017"><ele>1604.0</ele><time>2026-04-11T10:58:49.545Z</time></trkpt><trkpt lat="45.0749166" lon="7.2381744"><ele>1604.0</ele><time>2026-04-11T10:59:04.531Z</time></trkpt><trkpt lat="45.0749427" lon="7.2382585"><ele>1604.0</ele><time>2026-04-11T10:59:11.543Z</time></trkpt><trkpt lat="45.0749582" lon="7.2383538"><ele>1604.0</ele><time>2026-04-11T10:59:21.533Z</time></trkpt><trkpt lat="45.0749909" lon="7.2384407"><ele>1604.0</ele><time>2026-04-11T10:59:30.565Z</time></trkpt><trkpt lat="45.0750282" lon="7.238524"><ele>1603.2857142857142</ele><time>2026-04-11T10:59:37.578Z</time></trkpt><trkpt lat="45.075075" lon="7.2385918"><ele>1602.5714285714287</ele><time>2026-04-11T10:59:44.591Z</time></trkpt><trkpt lat="45.0750996" lon="7.2386808"><ele>1601.8571428571427</ele><time>2026-04-11T10:59:57.554Z</time></trkpt><trkpt lat="45.0751226" lon="7.2387656"><ele>1601.142857142857</ele><time>2026-04-11T11:00:03.61Z</time></trkpt><trkpt lat="45.0751318" lon="7.2388624"><ele>1600.4285714285713</ele><time>2026-04-11T11:00:12.586Z</time></trkpt><trkpt lat="45.0751777" lon="7.2389326"><ele>1599.7142857142856</ele><time>2026-04-11T11:00:20.513Z</time></trkpt><trkpt lat="45.0752075" lon="7.2390153"><ele>1599.0</ele><time>2026-04-11T11:00:30.599Z</time></trkpt><trkpt lat="45.0752416" lon="7.2391021"><ele>1598.9999999999998</ele><time>2026-04-11T11:00:38.604Z</time></trkpt><trkpt lat="45.0752634" lon="7.2391902"><ele>1599.0</ele><time>2026-04-11T11:00:49.564Z</time></trkpt><trkpt lat="45.0752921" lon="7.2392768"><ele>1599.0</ele><time>2026-04-11T11:00:58.546Z</time></trkpt><trkpt lat="45.0753292" lon="7.2393499"><ele>1599.0</ele><time>2026-04-11T11:01:08.533Z</time></trkpt><trkpt lat="45.0753726" lon="7.2394257"><ele>1599.0</ele><time>2026-04-11T11:01:18.522Z</time></trkpt><trkpt lat="45.0753779" lon="7.2395321"><ele>1598.9999999999998</ele><time>2026-04-11T11:01:33.527Z</time></trkpt><trkpt lat="45.0754042" lon="7.2396177"><ele>1599.0</ele><time>2026-04-11T11:01:43.598Z</time></trkpt><trkpt lat="45.0754741" lon="7.2397274"><ele>1598.9999999999998</ele><time>2026-04-11T11:02:08.569Z</time></trkpt><trkpt lat="45.0755316" lon="7.2397671"><ele>1599.0</ele><time>2026-04-11T11:02:16.538Z</time></trkpt><trkpt lat="45.0755882" lon="7.2398212"><ele>1599.0</ele><time>2026-04-11T11:02:24.613Z</time></trkpt><trkpt lat="45.0756367" lon="7.2398894"><ele>1599.0</ele><time>2026-04-11T11:02:37.443Z</time></trkpt><trkpt lat="45.0756673" lon="7.2399682"><ele>1599.0</ele><time>2026-04-11T11:02:45.546Z</time></trkpt><trkpt lat="45.0756715" lon="7.2400582"><ele>1598.9999999999998</ele><time>2026-04-11T11:02:53.463Z</time></trkpt><trkpt lat="45.0757223" lon="7.24013"><ele>1599.0</ele><time>2026-04-11T11:03:02.547Z</time></trkpt><trkpt lat="45.0757722" lon="7.2401847"><ele>1598.3333333333333</ele><time>2026-04-11T11:03:08.602Z</time></trkpt><trkpt lat="45.0758209" lon="7.2402518"><ele>1597.6666666666665</ele><time>2026-04-11T11:03:17.529Z</time></trkpt><trkpt lat="45.0758662" lon="7.2403327"><ele>1597.0</ele><time>2026-04-11T11:03:26.561Z</time></trkpt><trkpt lat="45.0759081" lon="7.2404069"><ele>1596.3333333333333</ele><time>2026-04-11T11:03:37.611Z</time></trkpt><trkpt lat="45.0759661" lon="7.2404554"><ele>1595.6666666666665</ele><time>2026-04-11T11:03:47.599Z</time></trkpt><trkpt lat="45.075976" lon="7.2406283"><ele>1595.0</ele><time>2026-04-11T11:04:19.582Z</time></trkpt><trkpt lat="45.0760106" lon="7.2407099"><ele>1595.0</ele><time>2026-04-11T11:04:25.532Z</time></trkpt><trkpt lat="45.0760587" lon="7.2407718"><ele>1595.0</ele><time>2026-04-11T11:04:36.583Z</time></trkpt><trkpt lat="45.076092" lon="7.2408485"><ele>1595.0</ele><time>2026-04-11T11:04:45.586Z</time></trkpt><trkpt lat="45.0761339" lon="7.2409173"><ele>1595.0</ele><time>2026-04-11T11:04:55.515Z</time></trkpt><trkpt lat="45.076193" lon="7.240959"><ele>1595.0</ele><time>2026-04-11T11:05:07.609Z</time></trkpt><trkpt lat="45.0762274" lon="7.2410375"><ele>1595.0</ele><time>2026-04-11T11:05:17.597Z</time></trkpt><trkpt lat="45.0762367" lon="7.2411363"><ele>1595.0</ele><time>2026-04-11T11:05:26.628Z</time></trkpt><trkpt lat="45.0762448" lon="7.2412301"><ele>1595.0</ele><time>2026-04-11T11:05:37.572Z</time></trkpt><trkpt lat="45.0762488" lon="7.2413264"><ele>1595.0</ele><time>2026-04-11T11:05:46.466Z</time></trkpt><trkpt lat="45.0762603" lon="7.2414152"><ele>1595.0</ele><time>2026-04-11T11:05:56.592Z</time></trkpt><trkpt lat="45.0762023" lon="7.2414735"><ele>1595.0</ele><time>2026-04-11T11:06:07.536Z</time></trkpt><trkpt lat="45.0762051" lon="7.2415676"><ele>1595.0</ele><time>2026-04-11T11:06:13.619Z</time></trkpt><trkpt lat="45.0762361" lon="7.2416502"><ele>1595.0</ele><time>2026-04-11T11:06:18.587Z</time></trkpt><trkpt lat="45.0762777" lon="7.2417199"><ele>1595.0</ele><time>2026-04-11T11:06:26.556Z</time></trkpt><trkpt lat="45.0762691" lon="7.241828"><ele>1592.4285714285713</ele><time>2026-04-11T11:06:51.525Z</time></trkpt><trkpt lat="45.0762908" lon="7.2419129"><ele>1589.8571428571427</ele><time>2026-04-11T11:06:59.518Z</time></trkpt><trkpt lat="45.0763349" lon="7.2419874"><ele>1587.2857142857142</ele><time>2026-04-11T11:07:06.616Z</time></trkpt><trkpt lat="45.0763539" lon="7.242078"><ele>1584.7142857142858</ele><time>2026-04-11T11:07:15.54Z</time></trkpt><trkpt lat="45.0763511" lon="7.2422338"><ele>1582.142857142857</ele><time>2026-04-11T11:07:54.536Z</time></trkpt><trkpt lat="45.0763857" lon="7.2423158"><ele>1579.5714285714287</ele><time>2026-04-11T11:08:00.592Z</time></trkpt><trkpt lat="45.0764022" lon="7.2424056"><ele>1577.0</ele><time>2026-04-11T11:08:08.561Z</time></trkpt><trkpt lat="45.0764313" lon="7.2424874"><ele>1574.142857142857</ele><time>2026-04-11T11:08:15.574Z</time></trkpt><trkpt lat="45.0764695" lon="7.2425708"><ele>1571.2857142857142</ele><time>2026-04-11T11:08:22.587Z</time></trkpt><trkpt lat="45.0764996" lon="7.2426614"><ele>1568.4285714285713</ele><time>2026-04-11T11:08:33.531Z</time></trkpt><trkpt lat="45.0765415" lon="7.2427349"><ele>1565.5714285714284</ele><time>2026-04-11T11:08:41.516Z</time></trkpt><trkpt lat="45.0765881" lon="7.2428026"><ele>1562.7142857142858</ele><time>2026-04-11T11:08:49.616Z</time></trkpt><trkpt lat="45.0766345" lon="7.2428741"><ele>1559.8571428571427</ele><time>2026-04-11T11:08:59.563Z</time></trkpt><trkpt lat="45.0766708" lon="7.2429538"><ele>1557.0</ele><time>2026-04-11T11:09:08.475Z</time></trkpt><trkpt lat="45.0767067" lon="7.2430291"><ele>1561.5714285714284</ele><time>2026-04-11T11:09:15.458Z</time></trkpt><trkpt lat="45.0767189" lon="7.2431219"><ele>1566.142857142857</ele><time>2026-04-11T11:09:22.513Z</time></trkpt><trkpt lat="45.0767507" lon="7.2432081"><ele>1570.7142857142858</ele><time>2026-04-11T11:09:30.589Z</time></trkpt><trkpt lat="45.0767938" lon="7.2432884"><ele>1575.2857142857142</ele><time>2026-04-11T11:09:45.571Z</time></trkpt><trkpt lat="45.0768106" lon="7.2433816"><ele>1579.857142857143</ele><time>2026-04-11T11:09:52.478Z</time></trkpt><trkpt lat="45.076825" lon="7.2434761"><ele>1584.4285714285713</ele><time>2026-04-11T11:09:58.534Z</time></trkpt><trkpt lat="45.076875" lon="7.2435366"><ele>1589.0</ele><time>2026-04-11T11:10:04.457Z</time></trkpt><trkpt lat="45.0768743" lon="7.2436331"><ele>1589.0</ele><time>2026-04-11T11:10:12.559Z</time></trkpt><trkpt lat="45.0768544" lon="7.2437245"><ele>1589.0</ele><time>2026-04-11T11:10:21.59Z</time></trkpt><trkpt lat="45.0768739" lon="7.2438132"><ele>1589.0</ele><time>2026-04-11T11:10:29.56Z</time></trkpt><trkpt lat="45.0768982" lon="7.2438994"><ele>1589.0</ele><time>2026-04-11T11:10:36.497Z</time></trkpt><trkpt lat="45.0769103" lon="7.2439942"><ele>1589.0</ele><time>2026-04-11T11:10:44.542Z</time></trkpt><trkpt lat="45.076895" lon="7.2440823"><ele>1589.0</ele><time>2026-04-11T11:10:52.618Z</time></trkpt><trkpt lat="45.0769002" lon="7.2441832"><ele>1589.0</ele><time>2026-04-11T11:11:00.587Z</time></trkpt><trkpt lat="45.0769164" lon="7.2442794"><ele>1587.4285714285713</ele><time>2026-04-11T11:11:11.531Z</time></trkpt><trkpt lat="45.0769068" lon="7.2443698"><ele>1585.857142857143</ele><time>2026-04-11T11:11:20.562Z</time></trkpt><trkpt lat="45.0768929" lon="7.2444589"><ele>1584.2857142857142</ele><time>2026-04-11T11:11:33.526Z</time></trkpt><trkpt lat="45.0768695" lon="7.2445434"><ele>1582.7142857142858</ele><time>2026-04-11T11:11:45.5Z</time></trkpt><trkpt lat="45.0768586" lon="7.2446387"><ele>1581.142857142857</ele><time>2026-04-11T11:11:55.498Z</time></trkpt><trkpt lat="45.0768535" lon="7.2447351"><ele>1579.5714285714284</ele><time>2026-04-11T11:12:02.533Z</time></trkpt><trkpt lat="45.0768319" lon="7.2448217"><ele>1578.0</ele><time>2026-04-11T11:12:11.564Z</time></trkpt><trkpt lat="45.0768351" lon="7.2449217"><ele>1577.9999999999998</ele><time>2026-04-11T11:12:18.477Z</time></trkpt><trkpt lat="45.0768036" lon="7.2450075"><ele>1578.0</ele><time>2026-04-11T11:12:25.59Z</time></trkpt><trkpt lat="45.0767765" lon="7.2450968"><ele>1578.0</ele><time>2026-04-11T11:12:34.515Z</time></trkpt><trkpt lat="45.076764" lon="7.2452006"><ele>1578.0</ele><time>2026-04-11T11:12:43.547Z</time></trkpt><trkpt lat="45.0767342" lon="7.245293"><ele>1578.0</ele><time>2026-04-11T11:12:50.582Z</time></trkpt><trkpt lat="45.0767121" lon="7.2453766"><ele>1577.9999999999998</ele><time>2026-04-11T11:12:57.572Z</time></trkpt><trkpt lat="45.0767239" lon="7.2454694"><ele>1578.0</ele><time>2026-04-11T11:13:05.54Z</time></trkpt><trkpt lat="45.0766886" lon="7.2455479"><ele>1579.142857142857</ele><time>2026-04-11T11:13:13.616Z</time></trkpt><trkpt lat="45.0766727" lon="7.2456433"><ele>1580.2857142857142</ele><time>2026-04-11T11:13:20.523Z</time></trkpt><trkpt lat="45.0766764" lon="7.245734"><ele>1581.4285714285716</ele><time>2026-04-11T11:13:26.579Z</time></trkpt><trkpt lat="45.0766781" lon="7.2458313"><ele>1582.5714285714284</ele><time>2026-04-11T11:13:35.611Z</time></trkpt><trkpt lat="45.0766978" lon="7.2459229"><ele>1583.7142857142858</ele><time>2026-04-11T11:13:45.492Z</time></trkpt><trkpt lat="45.0766802" lon="7.2460139"><ele>1584.857142857143</ele><time>2026-04-11T11:13:53.567Z</time></trkpt><trkpt lat="45.076667" lon="7.2461058"><ele>1586.0</ele><time>2026-04-11T11:13:59.518Z</time></trkpt><trkpt lat="45.0766666" lon="7.2462025"><ele>1586.0000000000002</ele><time>2026-04-11T11:14:07.593Z</time></trkpt><trkpt lat="45.0766615" lon="7.2462937"><ele>1586.0</ele><time>2026-04-11T11:14:17.581Z</time></trkpt><trkpt lat="45.0766578" lon="7.2463862"><ele>1586.0</ele><time>2026-04-11T11:14:24.518Z</time></trkpt><trkpt lat="45.0766284" lon="7.2464677"><ele>1586.0</ele><time>2026-04-11T11:14:30.543Z</time></trkpt><trkpt lat="45.0766206" lon="7.2465586"><ele>1586.0</ele><time>2026-04-11T11:14:38.516Z</time></trkpt><trkpt lat="45.0766025" lon="7.2466504"><ele>1586.0000000000002</ele><time>2026-04-11T11:14:47.545Z</time></trkpt><trkpt lat="45.0766112" lon="7.2467421"><ele>1586.0</ele><time>2026-04-11T11:14:57.533Z</time></trkpt><trkpt lat="45.0765982" lon="7.2468317"><ele>1580.1428571428573</ele><time>2026-04-11T11:15:08.584Z</time></trkpt><trkpt lat="45.0765739" lon="7.2469144"><ele>1574.2857142857142</ele><time>2026-04-11T11:15:18.571Z</time></trkpt><trkpt lat="45.0765577" lon="7.2470062"><ele>1568.4285714285716</ele><time>2026-04-11T11:15:25.585Z</time></trkpt><trkpt lat="45.0765552" lon="7.247106"><ele>1562.5714285714287</ele><time>2026-04-11T11:15:34.616Z</time></trkpt><trkpt lat="45.0765676" lon="7.2471959"><ele>1556.7142857142858</ele><time>2026-04-11T11:15:41.64Z</time></trkpt><trkpt lat="45.0765485" lon="7.2472914"><ele>1550.857142857143</ele><time>2026-04-11T11:15:49.479Z</time></trkpt><trkpt lat="45.0765463" lon="7.2473805"><ele>1545.0</ele><time>2026-04-11T11:16:01.605Z</time></trkpt><trkpt lat="45.0765496" lon="7.2474881"><ele>1545.0</ele><time>2026-04-11T11:16:08.617Z</time></trkpt><trkpt lat="45.0765677" lon="7.2475795"><ele>1545.0</ele><time>2026-04-11T11:16:14.566Z</time></trkpt><trkpt lat="45.076574" lon="7.2476717"><ele>1545.0</ele><time>2026-04-11T11:16:23.598Z</time></trkpt><trkpt lat="45.0765866" lon="7.2477727"><ele>1545.0</ele><time>2026-04-11T11:16:30.612Z</time></trkpt><trkpt lat="45.0765912" lon="7.2478627"><ele>1545.0</ele><time>2026-04-11T11:16:38.5Z</time></trkpt><trkpt lat="45.076614" lon="7.247946"><ele>1545.0</ele><time>2026-04-11T11:16:48.569Z</time></trkpt><trkpt lat="45.0766267" lon="7.2480365"><ele>1545.0</ele><time>2026-04-11T11:16:58.556Z</time></trkpt><trkpt lat="45.0766429" lon="7.2481391"><ele>1551.4285714285713</ele><time>2026-04-11T11:17:06.525Z</time></trkpt><trkpt lat="45.0766681" lon="7.2482244"><ele>1557.857142857143</ele><time>2026-04-11T11:17:13.539Z</time></trkpt><trkpt lat="45.0766452" lon="7.2483212"><ele>1564.2857142857142</ele><time>2026-04-11T11:17:22.499Z</time></trkpt><trkpt lat="45.0766511" lon="7.2484126"><ele>1570.7142857142858</ele><time>2026-04-11T11:17:29.583Z</time></trkpt><trkpt lat="45.0766694" lon="7.2485078"><ele>1577.1428571428573</ele><time>2026-04-11T11:17:42.499Z</time></trkpt><trkpt lat="45.0766965" lon="7.2485905"><ele>1583.5714285714287</ele><time>2026-04-11T11:17:52.534Z</time></trkpt><trkpt lat="45.0766873" lon="7.2486806"><ele>1590.0</ele><time>2026-04-11T11:18:00.609Z</time></trkpt><trkpt lat="45.0767128" lon="7.2487644"><ele>1590.0</ele><time>2026-04-11T11:18:10.597Z</time></trkpt><trkpt lat="45.076714" lon="7.2488586"><ele>1590.0</ele><time>2026-04-11T11:18:19.538Z</time></trkpt><trkpt lat="45.0767183" lon="7.2489478"><ele>1590.0</ele><time>2026-04-11T11:18:27.515Z</time></trkpt><trkpt lat="45.0767327" lon="7.2490406"><ele>1590.0</ele><time>2026-04-11T11:18:35.566Z</time></trkpt><trkpt lat="45.0767383" lon="7.2491405"><ele>1590.0</ele><time>2026-04-11T11:18:43.497Z</time></trkpt><trkpt lat="45.0767296" lon="7.2492344"><ele>1590.0</ele><time>2026-04-11T11:18:51.61Z</time></trkpt><trkpt lat="45.0767536" lon="7.2493173"><ele>1590.0</ele><time>2026-04-11T11:19:01.598Z</time></trkpt><trkpt lat="45.0767439" lon="7.2494111"><ele>1589.5714285714287</ele><time>2026-04-11T11:19:09.567Z</time></trkpt><trkpt lat="45.076733" lon="7.2495073"><ele>1589.1428571428573</ele><time>2026-04-11T11:19:17.536Z</time></trkpt><trkpt lat="45.0767197" lon="7.2495995"><ele>1588.7142857142858</ele><time>2026-04-11T11:19:24.548Z</time></trkpt><trkpt lat="45.076719" lon="7.2496929"><ele>1588.2857142857142</ele><time>2026-04-11T11:19:34.535Z</time></trkpt><trkpt lat="45.0767148" lon="7.2497946"><ele>1587.857142857143</ele><time>2026-04-11T11:19:44.524Z</time></trkpt><trkpt lat="45.0767075" lon="7.249891"><ele>1587.4285714285713</ele><time>2026-04-11T11:19:52.599Z</time></trkpt><trkpt lat="45.0767207" lon="7.2499828"><ele>1587.0</ele><time>2026-04-11T11:20:00.568Z</time></trkpt><trkpt lat="45.0766984" lon="7.250076"><ele>1586.857142857143</ele><time>2026-04-11T11:20:10.556Z</time></trkpt><trkpt lat="45.0766761" lon="7.2501649"><ele>1586.7142857142858</ele><time>2026-04-11T11:20:18.524Z</time></trkpt><trkpt lat="45.0766477" lon="7.2502572"><ele>1586.5714285714287</ele><time>2026-04-11T11:20:25.537Z</time></trkpt><trkpt lat="45.0766157" lon="7.2503465"><ele>1586.4285714285716</ele><time>2026-04-11T11:20:33.613Z</time></trkpt><trkpt lat="45.0766155" lon="7.2504447"><ele>1586.2857142857142</ele><time>2026-04-11T11:20:40.519Z</time></trkpt><trkpt lat="45.0766072" lon="7.2505367"><ele>1586.1428571428573</ele><time>2026-04-11T11:20:47.532Z</time></trkpt><trkpt lat="45.0765886" lon="7.2506306"><ele>1586.0</ele><time>2026-04-11T11:20:54.545Z</time></trkpt><trkpt lat="45.0765741" lon="7.250724"><ele>1579.7142857142858</ele><time>2026-04-11T11:21:01.556Z</time></trkpt><trkpt lat="45.076565" lon="7.2508238"><ele>1573.4285714285716</ele><time>2026-04-11T11:21:08.569Z</time></trkpt><trkpt lat="45.0765719" lon="7.2509226"><ele>1567.1428571428573</ele><time>2026-04-11T11:21:17.602Z</time></trkpt><trkpt lat="45.0765824" lon="7.2510128"><ele>1560.857142857143</ele><time>2026-04-11T11:21:24.517Z</time></trkpt><trkpt lat="45.0765891" lon="7.2511081"><ele>1554.5714285714284</ele><time>2026-04-11T11:21:31.521Z</time></trkpt><trkpt lat="45.0765464" lon="7.2511801"><ele>1548.2857142857144</ele><time>2026-04-11T11:21:42.571Z</time></trkpt><trkpt lat="45.0764943" lon="7.2512351"><ele>1542.0</ele><time>2026-04-11T11:21:52.558Z</time></trkpt><trkpt lat="45.0764986" lon="7.2513255"><ele>1542.0</ele><time>2026-04-11T11:21:58.517Z</time></trkpt><trkpt lat="45.0765166" lon="7.2514127"><ele>1542.0</ele><time>2026-04-11T11:22:03.609Z</time></trkpt><trkpt lat="45.076532" lon="7.2515007"><ele>1542.0</ele><time>2026-04-11T11:22:09.56Z</time></trkpt><trkpt lat="45.0765544" lon="7.2515847"><ele>1542.0</ele><time>2026-04-11T11:22:17.528Z</time></trkpt><trkpt lat="45.0765703" lon="7.2517253"><ele>1542.0</ele><time>2026-04-11T11:22:59.393Z</time></trkpt><trkpt lat="45.0765692" lon="7.2518247"><ele>1542.0</ele><time>2026-04-11T11:23:03.537Z</time></trkpt><trkpt lat="45.0765872" lon="7.2519135"><ele>1542.0</ele><time>2026-04-11T11:23:09.592Z</time></trkpt><trkpt lat="45.0766127" lon="7.2519987"><ele>1548.142857142857</ele><time>2026-04-11T11:23:17.561Z</time></trkpt><trkpt lat="45.076625" lon="7.2521023"><ele>1554.2857142857142</ele><time>2026-04-11T11:23:24.575Z</time></trkpt><trkpt lat="45.0766411" lon="7.2521937"><ele>1560.4285714285713</ele><time>2026-04-11T11:23:31.588Z</time></trkpt><trkpt lat="45.0766484" lon="7.2522901"><ele>1566.5714285714284</ele><time>2026-04-11T11:23:40.457Z</time></trkpt><trkpt lat="45.0766845" lon="7.2523791"><ele>1572.7142857142858</ele><time>2026-04-11T11:23:46.57Z</time></trkpt><trkpt lat="45.0767102" lon="7.2524664"><ele>1578.8571428571427</ele><time>2026-04-11T11:23:53.599Z</time></trkpt><trkpt lat="45.0767393" lon="7.2525595"><ele>1585.0</ele><time>2026-04-11T11:24:00.456Z</time></trkpt><trkpt lat="45.0767672" lon="7.2526406"><ele>1584.9999999999998</ele><time>2026-04-11T11:24:05.59Z</time></trkpt><trkpt lat="45.0767668" lon="7.252731"><ele>1585.0</ele><time>2026-04-11T11:24:15.599Z</time></trkpt><trkpt lat="45.0767736" lon="7.2528202"><ele>1585.0</ele><time>2026-04-11T11:24:26.519Z</time></trkpt><trkpt lat="45.0767999" lon="7.2529017"><ele>1585.0</ele><time>2026-04-11T11:24:34.598Z</time></trkpt><trkpt lat="45.076834" lon="7.2530045"><ele>1585.0</ele><time>2026-04-11T11:24:57.548Z</time></trkpt><trkpt lat="45.0768773" lon="7.2530725"><ele>1584.9999999999998</ele><time>2026-04-11T11:25:02.542Z</time></trkpt><trkpt lat="45.076908" lon="7.2531571"><ele>1585.0</ele><time>2026-04-11T11:25:10.618Z</time></trkpt><trkpt lat="45.0769436" lon="7.2532373"><ele>1581.4285714285713</ele><time>2026-04-11T11:25:18.587Z</time></trkpt><trkpt lat="45.0769574" lon="7.2533372"><ele>1577.857142857143</ele><time>2026-04-11T11:25:27.517Z</time></trkpt><trkpt lat="45.0769686" lon="7.2534268"><ele>1574.2857142857142</ele><time>2026-04-11T11:25:34.535Z</time></trkpt><trkpt lat="45.0769722" lon="7.2535272"><ele>1570.7142857142858</ele><time>2026-04-11T11:25:43.556Z</time></trkpt><trkpt lat="45.0770186" lon="7.2536127"><ele>1567.142857142857</ele><time>2026-04-11T11:25:51.619Z</time></trkpt><trkpt lat="45.0770121" lon="7.2537014"><ele>1563.5714285714284</ele><time>2026-04-11T11:26:00.557Z</time></trkpt><trkpt lat="45.0770311" lon="7.2537874"><ele>1560.0</ele><time>2026-04-11T11:26:07.596Z</time></trkpt><trkpt lat="45.0770351" lon="7.2538876"><ele>1558.7142857142858</ele><time>2026-04-11T11:26:14.578Z</time></trkpt><trkpt lat="45.0770302" lon="7.2539787"><ele>1557.4285714285713</ele><time>2026-04-11T11:26:21.596Z</time></trkpt><trkpt lat="45.0770027" lon="7.2540626"><ele>1556.1428571428573</ele><time>2026-04-11T11:26:29.436Z</time></trkpt><trkpt lat="45.0769775" lon="7.2541577"><ele>1554.857142857143</ele><time>2026-04-11T11:26:37.639Z</time></trkpt><trkpt lat="45.0769526" lon="7.2542481"><ele>1553.5714285714287</ele><time>2026-04-11T11:26:44.596Z</time></trkpt><trkpt lat="45.0769512" lon="7.2543453"><ele>1552.2857142857144</ele><time>2026-04-11T11:26:51.56Z</time></trkpt><trkpt lat="45.076936" lon="7.2544366"><ele>1551.0</ele><time>2026-04-11T11:27:00.496Z</time></trkpt><trkpt lat="45.0769042" lon="7.2545162"><ele>1551.0000000000002</ele><time>2026-04-11T11:27:08.556Z</time></trkpt><trkpt lat="45.0768991" lon="7.2546065"><ele>1551.0</ele><time>2026-04-11T11:27:14.617Z</time></trkpt><trkpt lat="45.0768653" lon="7.2546854"><ele>1551.0</ele><time>2026-04-11T11:27:23.542Z</time></trkpt><trkpt lat="45.0768421" lon="7.254776"><ele>1551.0</ele><time>2026-04-11T11:27:29.436Z</time></trkpt><trkpt lat="45.0768329" lon="7.2548737"><ele>1551.0</ele><time>2026-04-11T11:27:36.56Z</time></trkpt><trkpt lat="45.0768267" lon="7.2549715"><ele>1551.0000000000002</ele><time>2026-04-11T11:27:44.579Z</time></trkpt><trkpt lat="45.0767827" lon="7.2550419"><ele>1551.0</ele><time>2026-04-11T11:27:52.549Z</time></trkpt><trkpt lat="45.0767476" lon="7.2551206"><ele>1550.7142857142858</ele><time>2026-04-11T11:28:04.099Z</time></trkpt><trkpt lat="45.0767292" lon="7.2552144"><ele>1550.4285714285716</ele><time>2026-04-11T11:28:10.537Z</time></trkpt><trkpt lat="45.0767192" lon="7.2553054"><ele>1550.1428571428573</ele><time>2026-04-11T11:28:17.519Z</time></trkpt><trkpt lat="45.07669" lon="7.2553857"><ele>1549.857142857143</ele><time>2026-04-11T11:28:26.551Z</time></trkpt><trkpt lat="45.0766804" lon="7.2554889"><ele>1549.5714285714284</ele><time>2026-04-11T11:28:34.52Z</time></trkpt><trkpt lat="45.0766765" lon="7.2555829"><ele>1549.2857142857144</ele><time>2026-04-11T11:28:40.576Z</time></trkpt><trkpt lat="45.0767245" lon="7.2556859"><ele>1549.0</ele><time>2026-04-11T11:28:45.495Z</time></trkpt><trkpt lat="45.0767715" lon="7.2557502"><ele>1547.5714285714287</ele><time>2026-04-11T11:28:50.563Z</time></trkpt><trkpt lat="45.0768004" lon="7.2558312"><ele>1546.142857142857</ele><time>2026-04-11T11:28:57.577Z</time></trkpt><trkpt lat="45.0768423" lon="7.2559133"><ele>1544.7142857142858</ele><time>2026-04-11T11:29:04.59Z</time></trkpt><trkpt lat="45.0768723" lon="7.2559931"><ele>1543.2857142857142</ele><time>2026-04-11T11:29:13.621Z</time></trkpt><trkpt lat="45.0768893" lon="7.2560852"><ele>1541.8571428571427</ele><time>2026-04-11T11:29:21.59Z</time></trkpt><trkpt lat="45.0768969" lon="7.2561743"><ele>1540.4285714285713</ele><time>2026-04-11T11:29:29.559Z</time></trkpt><trkpt lat="45.0769507" lon="7.2562307"><ele>1539.0</ele><time>2026-04-11T11:29:37.528Z</time></trkpt><trkpt lat="45.0769753" lon="7.2563167"><ele>1539.0</ele><time>2026-04-11T11:29:44.541Z</time></trkpt><trkpt lat="45.0770161" lon="7.2564012"><ele>1539.0</ele><time>2026-04-11T11:29:51.613Z</time></trkpt><trkpt lat="45.0770633" lon="7.2564647"><ele>1539.0</ele><time>2026-04-11T11:29:57.554Z</time></trkpt><trkpt lat="45.0771105" lon="7.2565295"><ele>1539.0</ele><time>2026-04-11T11:30:08.555Z</time></trkpt><trkpt lat="45.0771574" lon="7.256595"><ele>1539.0</ele><time>2026-04-11T11:30:14.612Z</time></trkpt><trkpt lat="45.0771905" lon="7.2566861"><ele>1539.0</ele><time>2026-04-11T11:30:21.518Z</time></trkpt><trkpt lat="45.0772107" lon="7.2567841"><ele>1539.0</ele><time>2026-04-11T11:30:29.594Z</time></trkpt><trkpt lat="45.0772042" lon="7.2568794"><ele>1534.5714285714284</ele><time>2026-04-11T11:30:38.519Z</time></trkpt><trkpt lat="45.077219" lon="7.2569704"><ele>1530.142857142857</ele><time>2026-04-11T11:30:44.576Z</time></trkpt><trkpt lat="45.0772297" lon="7.2570673"><ele>1525.7142857142858</ele><time>2026-04-11T11:30:51.587Z</time></trkpt><trkpt lat="45.0772497" lon="7.2571564"><ele>1521.2857142857142</ele><time>2026-04-11T11:30:56.582Z</time></trkpt><trkpt lat="45.0772726" lon="7.2572424"><ele>1516.857142857143</ele><time>2026-04-11T11:31:04.573Z</time></trkpt><trkpt lat="45.077231" lon="7.2573159"><ele>1512.4285714285713</ele><time>2026-04-11T11:31:21.573Z</time></trkpt><trkpt lat="45.0772299" lon="7.2574174"><ele>1508.0</ele><time>2026-04-11T11:31:33.558Z</time></trkpt><trkpt lat="45.0772459" lon="7.2575143"><ele>1508.7142857142856</ele><time>2026-04-11T11:31:39.515Z</time></trkpt><trkpt lat="45.0772624" lon="7.2576041"><ele>1509.4285714285713</ele><time>2026-04-11T11:31:49.603Z</time></trkpt><trkpt lat="45.0772675" lon="7.2577001"><ele>1510.142857142857</ele><time>2026-04-11T11:31:58.528Z</time></trkpt><trkpt lat="45.0773173" lon="7.2577681"><ele>1510.8571428571427</ele><time>2026-04-11T11:32:04.584Z</time></trkpt><trkpt lat="45.0773498" lon="7.2578523"><ele>1511.5714285714287</ele><time>2026-04-11T11:32:10.535Z</time></trkpt><trkpt lat="45.0774042" lon="7.2579352"><ele>1512.2857142857142</ele><time>2026-04-11T11:32:25.516Z</time></trkpt><trkpt lat="45.0774396" lon="7.2580228"><ele>1513.0</ele><time>2026-04-11T11:32:30.514Z</time></trkpt><trkpt lat="45.0774525" lon="7.2581133"><ele>1509.857142857143</ele><time>2026-04-11T11:32:37.523Z</time></trkpt><trkpt lat="45.077469" lon="7.2582132"><ele>1506.7142857142858</ele><time>2026-04-11T11:32:45.599Z</time></trkpt><trkpt lat="45.0775203" lon="7.258279"><ele>1503.5714285714284</ele><time>2026-04-11T11:32:53.567Z</time></trkpt><trkpt lat="45.0775496" lon="7.258362"><ele>1500.4285714285716</ele><time>2026-04-11T11:33:00.581Z</time></trkpt><trkpt lat="45.0775833" lon="7.2584541"><ele>1497.2857142857142</ele><time>2026-04-11T11:33:08.494Z</time></trkpt><trkpt lat="45.0776051" lon="7.258547"><ele>1494.142857142857</ele><time>2026-04-11T11:33:14.5Z</time></trkpt><trkpt lat="45.0776018" lon="7.2586361"><ele>1491.0</ele><time>2026-04-11T11:33:22.575Z</time></trkpt><trkpt lat="45.0776175" lon="7.2587234"><ele>1491.0</ele><time>2026-04-11T11:33:28.526Z</time></trkpt><trkpt lat="45.0776012" lon="7.2588184"><ele>1491.0</ele><time>2026-04-11T11:33:36.601Z</time></trkpt><trkpt lat="45.0776165" lon="7.2589092"><ele>1491.0</ele><time>2026-04-11T11:33:42.551Z</time></trkpt><trkpt lat="45.0776321" lon="7.2589966"><ele>1491.0</ele><time>2026-04-11T11:33:50.536Z</time></trkpt><trkpt lat="45.0776524" lon="7.2590831"><ele>1491.0</ele><time>2026-04-11T11:33:58.489Z</time></trkpt><trkpt lat="45.0776777" lon="7.2591831"><ele>1491.0</ele><time>2026-04-11T11:34:04.546Z</time></trkpt><trkpt lat="45.0776963" lon="7.2592747"><ele>1491.0</ele><time>2026-04-11T11:34:09.54Z</time></trkpt><trkpt lat="45.0777325" lon="7.2593672"><ele>1488.857142857143</ele><time>2026-04-11T11:34:15.597Z</time></trkpt><trkpt lat="45.0777502" lon="7.259467"><ele>1486.7142857142858</ele><time>2026-04-11T11:34:20.59Z</time></trkpt><trkpt lat="45.0777422" lon="7.2595618"><ele>1484.5714285714284</ele><time>2026-04-11T11:34:30.578Z</time></trkpt><trkpt lat="45.0777399" lon="7.2596584"><ele>1482.4285714285716</ele><time>2026-04-11T11:34:37.59Z</time></trkpt><trkpt lat="45.0777405" lon="7.2597479"><ele>1480.2857142857142</ele><time>2026-04-11T11:34:41.522Z</time></trkpt><trkpt lat="45.0777529" lon="7.2598361"><ele>1478.142857142857</ele><time>2026-04-11T11:34:46.516Z</time></trkpt><trkpt lat="45.077767" lon="7.2599293"><ele>1476.0</ele><time>2026-04-11T11:34:52.613Z</time></trkpt><trkpt lat="45.0777622" lon="7.2600321"><ele>1474.7142857142858</ele><time>2026-04-11T11:34:58.522Z</time></trkpt><trkpt lat="45.0777596" lon="7.2601267"><ele>1473.4285714285713</ele><time>2026-04-11T11:35:04.58Z</time></trkpt><trkpt lat="45.0777589" lon="7.26022"><ele>1472.1428571428573</ele><time>2026-04-11T11:35:10.531Z</time></trkpt><trkpt lat="45.077726" lon="7.2603122"><ele>1470.857142857143</ele><time>2026-04-11T11:35:17.543Z</time></trkpt><trkpt lat="45.0777189" lon="7.260413"><ele>1469.5714285714287</ele><time>2026-04-11T11:35:22.496Z</time></trkpt><trkpt lat="45.0777224" lon="7.260503"><ele>1468.2857142857144</ele><time>2026-04-11T11:35:27.531Z</time></trkpt><trkpt lat="45.0777265" lon="7.2606018"><ele>1467.0</ele><time>2026-04-11T11:35:33.587Z</time></trkpt><trkpt lat="45.0777157" lon="7.2607016"><ele>1466.6666666666667</ele><time>2026-04-11T11:35:39.538Z</time></trkpt><trkpt lat="45.077716" lon="7.2607935"><ele>1466.3333333333333</ele><time>2026-04-11T11:35:46.55Z</time></trkpt><trkpt lat="45.0776912" lon="7.2609823"><ele>1466.0</ele><time>2026-04-11T11:36:15.559Z</time></trkpt><trkpt lat="45.0776671" lon="7.2610688"><ele>1465.6666666666665</ele><time>2026-04-11T11:36:22.571Z</time></trkpt><trkpt lat="45.0776369" lon="7.2611522"><ele>1465.3333333333333</ele><time>2026-04-11T11:36:30.541Z</time></trkpt><trkpt lat="45.0776126" lon="7.2612354"><ele>1465.0</ele><time>2026-04-11T11:36:37.454Z</time></trkpt><trkpt lat="45.0775893" lon="7.2613188"><ele>1465.0</ele><time>2026-04-11T11:36:43.611Z</time></trkpt><trkpt lat="45.0775651" lon="7.2614114"><ele>1465.0</ele><time>2026-04-11T11:36:49.561Z</time></trkpt><trkpt lat="45.0775258" lon="7.2614963"><ele>1465.0</ele><time>2026-04-11T11:36:56.573Z</time></trkpt><trkpt lat="45.0775001" lon="7.2615954"><ele>1465.0</ele><time>2026-04-11T11:37:02.523Z</time></trkpt><trkpt lat="45.0774768" lon="7.261691"><ele>1465.0</ele><time>2026-04-11T11:37:09.616Z</time></trkpt><trkpt lat="45.0774737" lon="7.2617882"><ele>1465.0</ele><time>2026-04-11T11:37:15.594Z</time></trkpt><trkpt lat="45.0774692" lon="7.2618908"><ele>1465.0</ele><time>2026-04-11T11:37:20.536Z</time></trkpt><trkpt lat="45.0774757" lon="7.2619892"><ele>1464.7142857142858</ele><time>2026-04-11T11:37:26.573Z</time></trkpt><trkpt lat="45.0774659" lon="7.262085"><ele>1464.4285714285713</ele><time>2026-04-11T11:37:33.55Z</time></trkpt><trkpt lat="45.0774416" lon="7.2621698"><ele>1464.142857142857</ele><time>2026-04-11T11:37:39.515Z</time></trkpt><trkpt lat="45.0773987" lon="7.2622356"><ele>1463.857142857143</ele><time>2026-04-11T11:37:45.515Z</time></trkpt><trkpt lat="45.0773768" lon="7.262342"><ele>1463.5714285714284</ele><time>2026-04-11T11:37:51.515Z</time></trkpt><trkpt lat="45.077369" lon="7.2624317"><ele>1463.2857142857142</ele><time>2026-04-11T11:37:56.608Z</time></trkpt><trkpt lat="45.0773601" lon="7.2625227"><ele>1463.0</ele><time>2026-04-11T11:38:02.559Z</time></trkpt><trkpt lat="45.0773352" lon="7.2626104"><ele>1462.0</ele><time>2026-04-11T11:38:08.509Z</time></trkpt><trkpt lat="45.0773102" lon="7.2626938"><ele>1461.0</ele><time>2026-04-11T11:38:14.565Z</time></trkpt><trkpt lat="45.0772696" lon="7.262785"><ele>1460.0</ele><time>2026-04-11T11:38:21.512Z</time></trkpt><trkpt lat="45.0772346" lon="7.2628721"><ele>1459.0</ele><time>2026-04-11T11:38:30.47Z</time></trkpt><trkpt lat="45.0772329" lon="7.2629638"><ele>1458.0</ele><time>2026-04-11T11:38:33.575Z</time></trkpt><trkpt lat="45.0772142" lon="7.2630622"><ele>1457.0</ele><time>2026-04-11T11:38:40.236Z</time></trkpt><trkpt lat="45.0771812" lon="7.2631384"><ele>1456.0</ele><time>2026-04-11T11:38:44.626Z</time></trkpt><trkpt lat="45.0771465" lon="7.2632171"><ele>1456.0</ele><time>2026-04-11T11:38:49.62Z</time></trkpt><trkpt lat="45.077116" lon="7.2633042"><ele>1456.0</ele><time>2026-04-11T11:38:55.63Z</time></trkpt><trkpt lat="45.077062" lon="7.2633688"><ele>1456.0</ele><time>2026-04-11T11:39:00.375Z</time></trkpt><trkpt lat="45.0770145" lon="7.2634499"><ele>1456.0</ele><time>2026-04-11T11:39:06.514Z</time></trkpt><trkpt lat="45.0769763" lon="7.2635234"><ele>1456.0</ele><time>2026-04-11T11:39:12.571Z</time></trkpt><trkpt lat="45.0769578" lon="7.2636114"><ele>1456.0</ele><time>2026-04-11T11:39:17.564Z</time></trkpt><trkpt lat="45.0769124" lon="7.2636837"><ele>1456.0</ele><time>2026-04-11T11:39:24.577Z</time></trkpt><trkpt lat="45.0768793" lon="7.2637735"><ele>1456.0</ele><time>2026-04-11T11:39:30.472Z</time></trkpt><trkpt lat="45.0768432" lon="7.2638622"><ele>1456.0</ele><time>2026-04-11T11:39:36.152Z</time></trkpt><trkpt lat="45.0768058" lon="7.2639363"><ele>1456.0</ele><time>2026-04-11T11:39:40.515Z</time></trkpt><trkpt lat="45.076766" lon="7.2640071"><ele>1456.0</ele><time>2026-04-11T11:39:45.513Z</time></trkpt><trkpt lat="45.0767254" lon="7.2640905"><ele>1456.0</ele><time>2026-04-11T11:39:52.591Z</time></trkpt><trkpt lat="45.0766899" lon="7.2641643"><ele>1456.0</ele><time>2026-04-11T11:39:58.578Z</time></trkpt><trkpt lat="45.0766867" lon="7.2642615"><ele>1456.0</ele><time>2026-04-11T11:40:04.613Z</time></trkpt><trkpt lat="45.0766807" lon="7.2643652"><ele>1456.0</ele><time>2026-04-11T11:40:10.509Z</time></trkpt><trkpt lat="45.0766774" lon="7.2644688"><ele>1456.0</ele><time>2026-04-11T11:40:15.514Z</time></trkpt><trkpt lat="45.0766545" lon="7.2645613"><ele>1456.0</ele><time>2026-04-11T11:40:20.589Z</time></trkpt><trkpt lat="45.0766316" lon="7.2646533"><ele>1456.0</ele><time>2026-04-11T11:40:27.586Z</time></trkpt><trkpt lat="45.0766266" lon="7.2647528"><ele>1456.0</ele><time>2026-04-11T11:40:33.535Z</time></trkpt><trkpt lat="45.0766192" lon="7.2648489"><ele>1456.0</ele><time>2026-04-11T11:40:38.474Z</time></trkpt><trkpt lat="45.0765962" lon="7.2649399"><ele>1456.0</ele><time>2026-04-11T11:40:44.587Z</time></trkpt><trkpt lat="45.0765791" lon="7.2650371"><ele>1450.7142857142858</ele><time>2026-04-11T11:40:50.536Z</time></trkpt><trkpt lat="45.0765737" lon="7.2651267"><ele>1445.4285714285716</ele><time>2026-04-11T11:40:55.638Z</time></trkpt><trkpt lat="45.0765709" lon="7.2652179"><ele>1440.142857142857</ele><time>2026-04-11T11:41:01.588Z</time></trkpt><trkpt lat="45.0765477" lon="7.2653088"><ele>1434.857142857143</ele><time>2026-04-11T11:41:07.538Z</time></trkpt><trkpt lat="45.076529" lon="7.265406"><ele>1429.5714285714287</ele><time>2026-04-11T11:41:14.55Z</time></trkpt><trkpt lat="45.0764938" lon="7.2654878"><ele>1424.2857142857142</ele><time>2026-04-11T11:41:20.532Z</time></trkpt><trkpt lat="45.076463" lon="7.2655713"><ele>1419.0</ele><time>2026-04-11T11:41:26.549Z</time></trkpt><trkpt lat="45.0764524" lon="7.265673"><ele>1418.5714285714284</ele><time>2026-04-11T11:41:32.614Z</time></trkpt><trkpt lat="45.0764142" lon="7.2657518"><ele>1418.1428571428573</ele><time>2026-04-11T11:41:37.608Z</time></trkpt><trkpt lat="45.0763845" lon="7.2658468"><ele>1417.7142857142858</ele><time>2026-04-11T11:41:43.559Z</time></trkpt><trkpt lat="45.0763953" lon="7.2659418"><ele>1417.2857142857142</ele><time>2026-04-11T11:41:50.571Z</time></trkpt><trkpt lat="45.0763899" lon="7.2660402"><ele>1416.8571428571427</ele><time>2026-04-11T11:41:56.522Z</time></trkpt><trkpt lat="45.0763758" lon="7.2661304"><ele>1416.4285714285716</ele><time>2026-04-11T11:42:03.534Z</time></trkpt><trkpt lat="45.0763585" lon="7.2662281"><ele>1416.0</ele><time>2026-04-11T11:42:09.591Z</time></trkpt><trkpt lat="45.0763347" lon="7.266322"><ele>1416.0</ele><time>2026-04-11T11:42:14.585Z</time></trkpt><trkpt lat="45.076305" lon="7.2664082"><ele>1416.0</ele><time>2026-04-11T11:42:20.535Z</time></trkpt><trkpt lat="45.0762992" lon="7.2664974"><ele>1416.0</ele><time>2026-04-11T11:42:26.434Z</time></trkpt><trkpt lat="45.0763527" lon="7.2666253"><ele>1416.0</ele><time>2026-04-11T11:42:43.594Z</time></trkpt><trkpt lat="45.0763439" lon="7.266724"><ele>1416.0</ele><time>2026-04-11T11:42:49.542Z</time></trkpt><trkpt lat="45.0763249" lon="7.2668211"><ele>1416.0</ele><time>2026-04-11T11:42:56.514Z</time></trkpt><trkpt lat="45.0762936" lon="7.2669194"><ele>1415.5714285714287</ele><time>2026-04-11T11:43:02.612Z</time></trkpt><trkpt lat="45.0762549" lon="7.2670091"><ele>1415.142857142857</ele><time>2026-04-11T11:43:09.519Z</time></trkpt><trkpt lat="45.0762369" lon="7.2670978"><ele>1414.7142857142858</ele><time>2026-04-11T11:43:15.591Z</time></trkpt><trkpt lat="45.0762265" lon="7.2671887"><ele>1414.2857142857142</ele><time>2026-04-11T11:43:20.569Z</time></trkpt><trkpt lat="45.0762476" lon="7.2672773"><ele>1413.857142857143</ele><time>2026-04-11T11:43:25.563Z</time></trkpt><trkpt lat="45.0762807" lon="7.2673738"><ele>1413.4285714285713</ele><time>2026-04-11T11:43:31.62Z</time></trkpt><trkpt lat="45.0762986" lon="7.2674722"><ele>1413.0</ele><time>2026-04-11T11:43:38.526Z</time></trkpt><trkpt lat="45.0762474" lon="7.2675355"><ele>1414.5</ele><time>2026-04-11T11:43:48.593Z</time></trkpt><trkpt lat="45.0761981" lon="7.2675946"><ele>1416.0</ele><time>2026-04-11T11:43:57.545Z</time></trkpt><trkpt lat="45.0762291" lon="7.2676781"><ele>1417.5</ele><time>2026-04-11T11:44:05.519Z</time></trkpt><trkpt lat="45.0762813" lon="7.2677459"><ele>1419.0</ele><time>2026-04-11T11:44:12.527Z</time></trkpt><trkpt lat="45.0763652" lon="7.267791"><ele>1420.5</ele><time>2026-04-11T11:45:25.586Z</time></trkpt><trkpt lat="45.076345" lon="7.2679217"><ele>1422.0</ele><time>2026-04-11T12:15:21.923Z</time></trkpt><trkpt lat="45.0762683" lon="7.2679483"><ele>1422.0</ele><time>2026-04-11T12:15:25.924Z</time></trkpt><trkpt lat="45.0763367" lon="7.26783"><ele>1422.0</ele><time>2026-04-11T12:16:19.324Z</time></trkpt><trkpt lat="45.0762717" lon="7.26784"><ele>1422.0</ele><time>2026-04-11T12:16:30.515Z</time></trkpt><trkpt lat="45.07635" lon="7.267885"><ele>1422.0</ele><time>2026-04-11T12:16:46.515Z</time></trkpt><trkpt lat="45.076315" lon="7.267805"><ele>1422.0</ele><time>2026-04-11T12:17:44.515Z</time></trkpt><trkpt lat="45.07638" lon="7.267855"><ele>1422.0</ele><time>2026-04-11T12:25:09.517Z</time></trkpt><trkpt lat="45.0763" lon="7.2678167"><ele>1422.0</ele><time>2026-04-11T12:26:36.517Z</time></trkpt><trkpt lat="45.076365" lon="7.2677867"><ele>1422.0</ele><time>2026-04-11T12:27:24.516Z</time></trkpt><trkpt lat="45.0763367" lon="7.2677017"><ele>1422.0</ele><time>2026-04-11T12:27:42.517Z</time></trkpt><trkpt lat="45.0762617" lon="7.2677517"><ele>1422.0</ele><time>2026-04-11T12:28:25.516Z</time></trkpt><trkpt lat="45.076345" lon="7.26781"><ele>1422.0</ele><time>2026-04-11T12:29:31.517Z</time></trkpt><trkpt lat="45.07627" lon="7.26774"><ele>1422.0</ele><time>2026-04-11T12:30:51.518Z</time></trkpt><trkpt lat="45.0763217" lon="7.267855"><ele>1422.0</ele><time>2026-04-11T12:32:20.513Z</time></trkpt><trkpt lat="45.0763733" lon="7.26775"><ele>1422.0</ele><time>2026-04-11T12:32:44.514Z</time></trkpt><trkpt lat="45.0763167" lon="7.2678183"><ele>1422.0</ele><time>2026-04-11T12:34:43.015Z</time></trkpt><trkpt lat="45.0762867" lon="7.267695"><ele>1422.0</ele><time>2026-04-11T13:04:29.515Z</time></trkpt><trkpt lat="45.0761967" lon="7.267635"><ele>1422.0</ele><time>2026-04-11T13:05:35.515Z</time></trkpt><trkpt lat="45.0762367" lon="7.26756"><ele>1422.0</ele><time>2026-04-11T13:06:11.515Z</time></trkpt><trkpt lat="45.0762933" lon="7.2675"><ele>1422.0</ele><time>2026-04-11T13:06:20.515Z</time></trkpt><trkpt lat="45.076345" lon="7.2674467"><ele>1422.0</ele><time>2026-04-11T13:06:28.515Z</time></trkpt><trkpt lat="45.0763137" lon="7.2673228"><ele>1422.0</ele><time>2026-04-11T13:06:47.501Z</time></trkpt><trkpt lat="45.0763558" lon="7.2673908"><ele>1422.0</ele><time>2026-04-11T13:08:02.543Z</time></trkpt><trkpt lat="45.0763023" lon="7.2673182"><ele>1422.0</ele><time>2026-04-11T13:08:12.428Z</time></trkpt><trkpt lat="45.0762354" lon="7.2673536"><ele>1422.0</ele><time>2026-04-11T13:08:40.595Z</time></trkpt><trkpt lat="45.0761769" lon="7.2673116"><ele>1422.0</ele><time>2026-04-11T13:08:50.586Z</time></trkpt><trkpt lat="45.0762403" lon="7.2673084"><ele>1422.0</ele><time>2026-04-11T13:10:10.515Z</time></trkpt><trkpt lat="45.0763077" lon="7.2673436"><ele>1422.0</ele><time>2026-04-11T13:10:15.616Z</time></trkpt><trkpt lat="45.0763734" lon="7.2673767"><ele>1422.0</ele><time>2026-04-11T13:10:21.568Z</time></trkpt><trkpt lat="45.0764328" lon="7.267428"><ele>1422.0</ele><time>2026-04-11T13:10:28.439Z</time></trkpt><trkpt lat="45.0763676" lon="7.2674457"><ele>1422.0</ele><time>2026-04-11T13:11:56.589Z</time></trkpt><trkpt lat="45.0763118" lon="7.2674007"><ele>1422.0</ele><time>2026-04-11T13:12:05.62Z</time></trkpt><trkpt lat="45.0762761" lon="7.2673215"><ele>1422.0</ele><time>2026-04-11T13:12:10.522Z</time></trkpt><trkpt lat="45.076283" lon="7.2672243"><ele>1420.7142857142858</ele><time>2026-04-11T13:12:16.57Z</time></trkpt><trkpt lat="45.0762634" lon="7.267124"><ele>1419.4285714285713</ele><time>2026-04-11T13:12:37.515Z</time></trkpt><trkpt lat="45.0762545" lon="7.2670321"><ele>1418.142857142857</ele><time>2026-04-11T13:12:42.611Z</time></trkpt><trkpt lat="45.076221" lon="7.2669458"><ele>1416.857142857143</ele><time>2026-04-11T13:12:49.56Z</time></trkpt><trkpt lat="45.0762445" lon="7.2668599"><ele>1415.5714285714287</ele><time>2026-04-11T13:12:56.535Z</time></trkpt><trkpt lat="45.0761881" lon="7.2668137"><ele>1414.2857142857142</ele><time>2026-04-11T13:13:53.515Z</time></trkpt><trkpt lat="45.0761763" lon="7.266717"><ele>1413.0</ele><time>2026-04-11T13:14:00.52Z</time></trkpt><trkpt lat="45.0761585" lon="7.266631"><ele>1413.0</ele><time>2026-04-11T13:14:07.535Z</time></trkpt><trkpt lat="45.07612" lon="7.2665553"><ele>1413.0</ele><time>2026-04-11T13:14:14.542Z</time></trkpt><trkpt lat="45.0760915" lon="7.2664676"><ele>1413.0</ele><time>2026-04-11T13:14:22.522Z</time></trkpt><trkpt lat="45.0760439" lon="7.2663959"><ele>1413.0</ele><time>2026-04-11T13:14:32.619Z</time></trkpt><trkpt lat="45.0760264" lon="7.2663082"><ele>1413.0</ele><time>2026-04-11T13:14:40.591Z</time></trkpt><trkpt lat="45.0760222" lon="7.2662192"><ele>1413.0</ele><time>2026-04-11T13:14:55.577Z</time></trkpt><trkpt lat="45.0760295" lon="7.2661047"><ele>1413.0</ele><time>2026-04-11T13:15:59.567Z</time></trkpt><trkpt lat="45.0760375" lon="7.2660137"><ele>1413.4285714285713</ele><time>2026-04-11T13:16:34.481Z</time></trkpt><trkpt lat="45.076054" lon="7.2659159"><ele>1413.857142857143</ele><time>2026-04-11T13:16:40.596Z</time></trkpt><trkpt lat="45.0760728" lon="7.2658188"><ele>1414.2857142857142</ele><time>2026-04-11T13:16:50.587Z</time></trkpt><trkpt lat="45.0760674" lon="7.2657241"><ele>1414.7142857142858</ele><time>2026-04-11T13:16:57.516Z</time></trkpt><trkpt lat="45.0760466" lon="7.2656302"><ele>1415.142857142857</ele><time>2026-04-11T13:17:05.573Z</time></trkpt><trkpt lat="45.0760165" lon="7.2655419"><ele>1415.5714285714287</ele><time>2026-04-11T13:17:13.545Z</time></trkpt><trkpt lat="45.0760245" lon="7.265449"><ele>1416.0</ele><time>2026-04-11T13:17:21.517Z</time></trkpt><trkpt lat="45.0760322" lon="7.2653476"><ele>1416.4285714285716</ele><time>2026-04-11T13:17:32.571Z</time></trkpt><trkpt lat="45.0760137" lon="7.26519"><ele>1416.8571428571427</ele><time>2026-04-11T13:19:49.514Z</time></trkpt><trkpt lat="45.0760303" lon="7.2651039"><ele>1417.2857142857142</ele><time>2026-04-11T13:20:00.564Z</time></trkpt><trkpt lat="45.0760446" lon="7.2650137"><ele>1417.7142857142858</ele><time>2026-04-11T13:20:07.579Z</time></trkpt><trkpt lat="45.0760443" lon="7.264924"><ele>1418.1428571428573</ele><time>2026-04-11T13:20:14.594Z</time></trkpt><trkpt lat="45.0760598" lon="7.2648302"><ele>1418.5714285714284</ele><time>2026-04-11T13:20:21.609Z</time></trkpt><trkpt lat="45.0760352" lon="7.2647423"><ele>1419.0</ele><time>2026-04-11T13:20:28.621Z</time></trkpt><trkpt lat="45.0760096" lon="7.2646515"><ele>1420.5714285714284</ele><time>2026-04-11T13:20:41.592Z</time></trkpt><trkpt lat="45.0759743" lon="7.2645568"><ele>1422.1428571428573</ele><time>2026-04-11T13:20:48.583Z</time></trkpt><trkpt lat="45.0759544" lon="7.2644716"><ele>1423.7142857142858</ele><time>2026-04-11T13:20:56.421Z</time></trkpt><trkpt lat="45.0759167" lon="7.2643967"><ele>1425.2857142857142</ele><time>2026-04-11T13:21:01.599Z</time></trkpt><trkpt lat="45.0758929" lon="7.264313"><ele>1426.8571428571427</ele><time>2026-04-11T13:21:07.527Z</time></trkpt><trkpt lat="45.0758822" lon="7.2642066"><ele>1428.4285714285716</ele><time>2026-04-11T13:21:23.568Z</time></trkpt><trkpt lat="45.0758691" lon="7.2640993"><ele>1430.0</ele><time>2026-04-11T13:21:32.612Z</time></trkpt><trkpt lat="45.0758551" lon="7.2640087"><ele>1430.0</ele><time>2026-04-11T13:21:40.583Z</time></trkpt><trkpt lat="45.0758515" lon="7.2639039"><ele>1430.0</ele><time>2026-04-11T13:21:47.514Z</time></trkpt><trkpt lat="45.0758409" lon="7.2638127"><ele>1430.0</ele><time>2026-04-11T13:21:54.514Z</time></trkpt><trkpt lat="45.0758235" lon="7.2637263"><ele>1430.0</ele><time>2026-04-11T13:22:03.541Z</time></trkpt><trkpt lat="45.0757596" lon="7.2636766"><ele>1430.0</ele><time>2026-04-11T13:22:41.592Z</time></trkpt><trkpt lat="45.0758202" lon="7.2636453"><ele>1430.0</ele><time>2026-04-11T13:24:01.584Z</time></trkpt><trkpt lat="45.0758486" lon="7.2635644"><ele>1430.0</ele><time>2026-04-11T13:24:07.537Z</time></trkpt><trkpt lat="45.0758654" lon="7.2634603"><ele>1430.0</ele><time>2026-04-11T13:24:15.615Z</time></trkpt><trkpt lat="45.0759037" lon="7.2633687"><ele>1430.0</ele><time>2026-04-11T13:24:21.567Z</time></trkpt><trkpt lat="45.075949" lon="7.2632968"><ele>1430.0</ele><time>2026-04-11T13:24:27.518Z</time></trkpt><trkpt lat="45.0759717" lon="7.2632123"><ele>1430.0</ele><time>2026-04-11T13:24:36.554Z</time></trkpt><trkpt lat="45.0760064" lon="7.2631257"><ele>1430.0</ele><time>2026-04-11T13:24:43.568Z</time></trkpt><trkpt lat="45.0760439" lon="7.2630438"><ele>1430.0</ele><time>2026-04-11T13:24:49.519Z</time></trkpt><trkpt lat="45.0760964" lon="7.2629748"><ele>1430.0</ele><time>2026-04-11T13:24:55.58Z</time></trkpt><trkpt lat="45.0761535" lon="7.2629173"><ele>1426.2857142857144</ele><time>2026-04-11T13:25:01.591Z</time></trkpt><trkpt lat="45.0761948" lon="7.2628449"><ele>1422.5714285714284</ele><time>2026-04-11T13:25:07.59Z</time></trkpt><trkpt lat="45.0762414" lon="7.2627762"><ele>1418.857142857143</ele><time>2026-04-11T13:25:13.543Z</time></trkpt><trkpt lat="45.0762709" lon="7.262695"><ele>1415.1428571428573</ele><time>2026-04-11T13:25:18.529Z</time></trkpt><trkpt lat="45.0763304" lon="7.2626402"><ele>1411.4285714285716</ele><time>2026-04-11T13:25:24.513Z</time></trkpt><trkpt lat="45.0763922" lon="7.2625784"><ele>1407.7142857142858</ele><time>2026-04-11T13:25:30.55Z</time></trkpt><trkpt lat="45.0764506" lon="7.262525"><ele>1404.0</ele><time>2026-04-11T13:25:36.512Z</time></trkpt><trkpt lat="45.0765049" lon="7.2624667"><ele>1404.0000000000002</ele><time>2026-04-11T13:25:43.517Z</time></trkpt><trkpt lat="45.0765369" lon="7.2623869"><ele>1404.0</ele><time>2026-04-11T13:25:49.51Z</time></trkpt><trkpt lat="45.0765595" lon="7.2622923"><ele>1404.0</ele><time>2026-04-11T13:25:55.53Z</time></trkpt><trkpt lat="45.0766063" lon="7.2622225"><ele>1404.0</ele><time>2026-04-11T13:26:02.55Z</time></trkpt><trkpt lat="45.0766336" lon="7.262139"><ele>1404.0</ele><time>2026-04-11T13:26:09.561Z</time></trkpt><trkpt lat="45.0766497" lon="7.2620514"><ele>1404.0000000000002</ele><time>2026-04-11T13:26:16.577Z</time></trkpt><trkpt lat="45.0766865" lon="7.2619699"><ele>1404.0</ele><time>2026-04-11T13:26:23.592Z</time></trkpt><trkpt lat="45.0767231" lon="7.2618923"><ele>1404.5714285714287</ele><time>2026-04-11T13:26:28.588Z</time></trkpt><trkpt lat="45.0767345" lon="7.2617903"><ele>1405.142857142857</ele><time>2026-04-11T13:26:34.541Z</time></trkpt><trkpt lat="45.0767289" lon="7.2617"><ele>1405.7142857142858</ele><time>2026-04-11T13:26:41.556Z</time></trkpt><trkpt lat="45.0767041" lon="7.261603"><ele>1406.2857142857142</ele><time>2026-04-11T13:26:47.615Z</time></trkpt><trkpt lat="45.0766702" lon="7.2615143"><ele>1406.857142857143</ele><time>2026-04-11T13:26:52.61Z</time></trkpt><trkpt lat="45.0766432" lon="7.2614317"><ele>1407.4285714285716</ele><time>2026-04-11T13:26:57.606Z</time></trkpt><trkpt lat="45.076617" lon="7.2613344"><ele>1408.0</ele><time>2026-04-11T13:27:04.632Z</time></trkpt><trkpt lat="45.076593" lon="7.2612461"><ele>1408.0</ele><time>2026-04-11T13:27:09.616Z</time></trkpt><trkpt lat="45.0765576" lon="7.2611502"><ele>1408.0</ele><time>2026-04-11T13:27:14.513Z</time></trkpt><trkpt lat="45.0765323" lon="7.2610676"><ele>1408.0</ele><time>2026-04-11T13:27:19.512Z</time></trkpt><trkpt lat="45.0765237" lon="7.2609736"><ele>1408.0</ele><time>2026-04-11T13:27:25.56Z</time></trkpt><trkpt lat="45.076494" lon="7.2608941"><ele>1408.0</ele><time>2026-04-11T13:27:30.555Z</time></trkpt><trkpt lat="45.0764572" lon="7.2608055"><ele>1408.0</ele><time>2026-04-11T13:27:36.513Z</time></trkpt><trkpt lat="45.0764462" lon="7.2607048"><ele>1408.0</ele><time>2026-04-11T13:27:43.509Z</time></trkpt><trkpt lat="45.0764372" lon="7.2606032"><ele>1407.857142857143</ele><time>2026-04-11T13:27:49.624Z</time></trkpt><trkpt lat="45.0764167" lon="7.2605189"><ele>1407.7142857142858</ele><time>2026-04-11T13:27:56.49Z</time></trkpt><trkpt lat="45.076394" lon="7.2604333"><ele>1407.5714285714284</ele><time>2026-04-11T13:28:03.513Z</time></trkpt><trkpt lat="45.076303" lon="7.2603908"><ele>1407.4285714285716</ele><time>2026-04-11T13:29:04.513Z</time></trkpt><trkpt lat="45.0763692" lon="7.2603957"><ele>1407.2857142857142</ele><time>2026-04-11T13:32:10.544Z</time></trkpt><trkpt lat="45.076392" lon="7.2603111"><ele>1407.142857142857</ele><time>2026-04-11T13:32:18.515Z</time></trkpt><trkpt lat="45.0763902" lon="7.2602117"><ele>1407.0</ele><time>2026-04-11T13:32:24.573Z</time></trkpt><trkpt lat="45.0763844" lon="7.2601211"><ele>1407.0</ele><time>2026-04-11T13:32:31.588Z</time></trkpt><trkpt lat="45.0763874" lon="7.2600285"><ele>1407.0</ele><time>2026-04-11T13:32:42.515Z</time></trkpt><trkpt lat="45.0764077" lon="7.259943"><ele>1407.0</ele><time>2026-04-11T13:32:49.549Z</time></trkpt><trkpt lat="45.0764386" lon="7.259858"><ele>1407.0</ele><time>2026-04-11T13:32:58.493Z</time></trkpt><trkpt lat="45.076448" lon="7.2597641"><ele>1407.0</ele><time>2026-04-11T13:33:05.597Z</time></trkpt><trkpt lat="45.0764458" lon="7.2596397"><ele>1407.0</ele><time>2026-04-11T13:33:21.54Z</time></trkpt><trkpt lat="45.0764705" lon="7.2595567"><ele>1407.0</ele><time>2026-04-11T13:33:29.513Z</time></trkpt><trkpt lat="45.0764213" lon="7.2594839"><ele>1406.3333333333333</ele><time>2026-04-11T13:33:51.461Z</time></trkpt><trkpt lat="45.0763587" lon="7.2594414"><ele>1405.6666666666667</ele><time>2026-04-11T13:33:56.513Z</time></trkpt><trkpt lat="45.07629" lon="7.2594465"><ele>1405.0</ele><time>2026-04-11T13:34:02.493Z</time></trkpt><trkpt lat="45.0762293" lon="7.2594178"><ele>1404.3333333333335</ele><time>2026-04-11T13:34:10.535Z</time></trkpt><trkpt lat="45.0762832" lon="7.2593549"><ele>1403.6666666666667</ele><time>2026-04-11T13:34:39.549Z</time></trkpt><trkpt lat="45.076234" lon="7.2592455"><ele>1403.0</ele><time>2026-04-11T13:35:19.626Z</time></trkpt><trkpt lat="45.0761497" lon="7.2591091"><ele>1402.9999999999998</ele><time>2026-04-11T13:35:39.597Z</time></trkpt><trkpt lat="45.0761039" lon="7.2590277"><ele>1403.0</ele><time>2026-04-11T13:35:47.568Z</time></trkpt><trkpt lat="45.0760512" lon="7.2589633"><ele>1403.0</ele><time>2026-04-11T13:35:54.583Z</time></trkpt><trkpt lat="45.0760099" lon="7.2588813"><ele>1403.0</ele><time>2026-04-11T13:36:00.597Z</time></trkpt><trkpt lat="45.0759753" lon="7.2588003"><ele>1403.0</ele><time>2026-04-11T13:36:09.567Z</time></trkpt><trkpt lat="45.0759432" lon="7.2587121"><ele>1402.9999999999998</ele><time>2026-04-11T13:36:18.602Z</time></trkpt><trkpt lat="45.0758862" lon="7.2586637"><ele>1403.0</ele><time>2026-04-11T13:36:28.592Z</time></trkpt><trkpt lat="45.0758303" lon="7.2586202"><ele>1403.5714285714284</ele><time>2026-04-11T13:36:34.542Z</time></trkpt><trkpt lat="45.0758021" lon="7.2585297"><ele>1404.142857142857</ele><time>2026-04-11T13:36:41.558Z</time></trkpt><trkpt lat="45.0757825" lon="7.2584387"><ele>1404.7142857142858</ele><time>2026-04-11T13:36:51.548Z</time></trkpt><trkpt lat="45.0757275" lon="7.2583805"><ele>1405.2857142857142</ele><time>2026-04-11T13:37:00.581Z</time></trkpt><trkpt lat="45.075688" lon="7.2583034"><ele>1405.857142857143</ele><time>2026-04-11T13:37:10.571Z</time></trkpt><trkpt lat="45.0756741" lon="7.2582146"><ele>1406.4285714285713</ele><time>2026-04-11T13:37:17.586Z</time></trkpt><trkpt lat="45.0756552" lon="7.2581137"><ele>1407.0</ele><time>2026-04-11T13:37:30.552Z</time></trkpt><trkpt lat="45.0756" lon="7.2580503"><ele>1407.0</ele><time>2026-04-11T13:37:36.514Z</time></trkpt><trkpt lat="45.0755619" lon="7.2579752"><ele>1407.0</ele><time>2026-04-11T13:37:44.496Z</time></trkpt><trkpt lat="45.0755486" lon="7.2578726"><ele>1407.0</ele><time>2026-04-11T13:37:50.616Z</time></trkpt><trkpt lat="45.0755324" lon="7.2577766"><ele>1407.0</ele><time>2026-04-11T13:37:56.59Z</time></trkpt><trkpt lat="45.0754959" lon="7.2576969"><ele>1407.0</ele><time>2026-04-11T13:38:03.604Z</time></trkpt><trkpt lat="45.0754762" lon="7.2576083"><ele>1407.0</ele><time>2026-04-11T13:38:11.575Z</time></trkpt><trkpt lat="45.0754488" lon="7.2575237"><ele>1407.0</ele><time>2026-04-11T13:38:20.454Z</time></trkpt><trkpt lat="45.0753901" lon="7.2574911"><ele>1407.0</ele><time>2026-04-11T13:38:28.442Z</time></trkpt><trkpt lat="45.0753283" lon="7.2574524"><ele>1407.0</ele><time>2026-04-11T13:38:32.617Z</time></trkpt><trkpt lat="45.0752616" lon="7.257405"><ele>1407.0</ele><time>2026-04-11T13:38:39.525Z</time></trkpt><trkpt lat="45.0751971" lon="7.2573883"><ele>1407.0</ele><time>2026-04-11T13:38:44.52Z</time></trkpt><trkpt lat="45.0751314" lon="7.2573965"><ele>1407.0</ele><time>2026-04-11T13:38:49.515Z</time></trkpt><trkpt lat="45.0750629" lon="7.2574101"><ele>1407.0</ele><time>2026-04-11T13:38:55.573Z</time></trkpt><trkpt lat="45.0749912" lon="7.2574452"><ele>1407.0</ele><time>2026-04-11T13:39:01.524Z</time></trkpt><trkpt lat="45.0749287" lon="7.2574777"><ele>1405.142857142857</ele><time>2026-04-11T13:39:06.519Z</time></trkpt><trkpt lat="45.0748694" lon="7.2575251"><ele>1403.2857142857142</ele><time>2026-04-11T13:39:12.577Z</time></trkpt><trkpt lat="45.0748441" lon="7.2576196"><ele>1401.4285714285716</ele><time>2026-04-11T13:39:19.591Z</time></trkpt><trkpt lat="45.0748288" lon="7.2577061"><ele>1399.5714285714284</ele><time>2026-04-11T13:39:31.514Z</time></trkpt><trkpt lat="45.0748792" lon="7.2578099"><ele>1397.7142857142858</ele><time>2026-04-11T13:40:37.597Z</time></trkpt><trkpt lat="45.0748184" lon="7.2578575"><ele>1395.857142857143</ele><time>2026-04-11T13:41:10.499Z</time></trkpt><trkpt lat="45.0747387" lon="7.2578841"><ele>1394.0</ele><time>2026-04-11T13:41:29.565Z</time></trkpt><trkpt lat="45.0746697" lon="7.2579147"><ele>1394.0</ele><time>2026-04-11T13:41:37.535Z</time></trkpt><trkpt lat="45.0746045" lon="7.2579126"><ele>1394.0</ele><time>2026-04-11T13:41:46.568Z</time></trkpt><trkpt lat="45.0745301" lon="7.257893"><ele>1394.0</ele><time>2026-04-11T13:42:17.599Z</time></trkpt><trkpt lat="45.0744397" lon="7.2578643"><ele>1394.0</ele><time>2026-04-11T13:42:31.607Z</time></trkpt><trkpt lat="45.0743758" lon="7.2578498"><ele>1394.0</ele><time>2026-04-11T13:42:37.501Z</time></trkpt><trkpt lat="45.0743099" lon="7.2578765"><ele>1394.0</ele><time>2026-04-11T13:43:11.584Z</time></trkpt><trkpt lat="45.0742254" lon="7.2578098"><ele>1394.0</ele><time>2026-04-11T13:43:14.513Z</time></trkpt><trkpt lat="45.074174" lon="7.257755"><ele>1394.0</ele><time>2026-04-11T13:43:22.53Z</time></trkpt><trkpt lat="45.0740678" lon="7.2577327"><ele>1394.0</ele><time>2026-04-11T13:43:48.567Z</time></trkpt><trkpt lat="45.0740051" lon="7.2577602"><ele>1394.0</ele><time>2026-04-11T13:43:54.518Z</time></trkpt><trkpt lat="45.0738888" lon="7.2578425"><ele>1394.0</ele><time>2026-04-11T13:44:22.573Z</time></trkpt><trkpt lat="45.0738138" lon="7.2578819"><ele>1394.0</ele><time>2026-04-11T13:44:50.496Z</time></trkpt><trkpt lat="45.0736834" lon="7.2579083"><ele>1389.4285714285716</ele><time>2026-04-11T13:45:11.565Z</time></trkpt><trkpt lat="45.0735987" lon="7.2578913"><ele>1384.857142857143</ele><time>2026-04-11T13:45:34.519Z</time></trkpt><trkpt lat="45.073536" lon="7.257878"><ele>1380.2857142857142</ele><time>2026-04-11T13:45:44.476Z</time></trkpt><trkpt lat="45.073471" lon="7.2578567"><ele>1375.7142857142858</ele><time>2026-04-11T13:45:53.54Z</time></trkpt><trkpt lat="45.0734135" lon="7.2579101"><ele>1371.142857142857</ele><time>2026-04-11T13:46:02.574Z</time></trkpt><trkpt lat="45.0733577" lon="7.2579625"><ele>1366.5714285714287</ele><time>2026-04-11T13:46:13.52Z</time></trkpt><trkpt lat="45.073321" lon="7.2580378"><ele>1362.0</ele><time>2026-04-11T13:46:35.479Z</time></trkpt><trkpt lat="45.0733154" lon="7.2581293"><ele>1357.0000000000002</ele><time>2026-04-11T13:46:39.556Z</time></trkpt><trkpt lat="45.0733408" lon="7.2582115"><ele>1352.0</ele><time>2026-04-11T13:46:47.56Z</time></trkpt><trkpt lat="45.0732786" lon="7.2582474"><ele>1347.0</ele><time>2026-04-11T13:47:35.579Z</time></trkpt><trkpt lat="45.0732208" lon="7.2583413"><ele>1342.0</ele><time>2026-04-11T13:48:11.512Z</time></trkpt><trkpt lat="45.0731454" lon="7.2583"><ele>1337.0</ele><time>2026-04-11T13:48:35.514Z</time></trkpt><trkpt lat="45.0731318" lon="7.2584091"><ele>1332.0000000000002</ele><time>2026-04-11T13:48:50.512Z</time></trkpt><trkpt lat="45.073183" lon="7.2584739"><ele>1327.0</ele><time>2026-04-11T13:48:59.527Z</time></trkpt><trkpt lat="45.0731141" lon="7.2584851"><ele>1323.1428571428573</ele><time>2026-04-11T13:49:23.547Z</time></trkpt><trkpt lat="45.0730463" lon="7.2584797"><ele>1319.2857142857142</ele><time>2026-04-11T13:49:31.517Z</time></trkpt><trkpt lat="45.0730418" lon="7.2585732"><ele>1315.4285714285716</ele><time>2026-04-11T13:50:00.528Z</time></trkpt><trkpt lat="45.0730349" lon="7.2586623"><ele>1311.5714285714287</ele><time>2026-04-11T13:50:18.594Z</time></trkpt><trkpt lat="45.0730759" lon="7.2587427"><ele>1307.7142857142858</ele><time>2026-04-11T13:50:40.462Z</time></trkpt><trkpt lat="45.0730151" lon="7.2587695"><ele>1303.857142857143</ele><time>2026-04-11T13:51:14.597Z</time></trkpt><trkpt lat="45.0729369" lon="7.2587487"><ele>1300.0</ele><time>2026-04-11T13:51:27.562Z</time></trkpt><trkpt lat="45.0728803" lon="7.2587883"><ele>1300.0</ele><time>2026-04-11T13:52:07.519Z</time></trkpt><trkpt lat="45.0728213" lon="7.2587544"><ele>1300.0</ele><time>2026-04-11T13:52:14.533Z</time></trkpt><trkpt lat="45.0727834" lon="7.2586786"><ele>1300.0</ele><time>2026-04-11T13:52:21.547Z</time></trkpt><trkpt lat="45.0727331" lon="7.2586228"><ele>1300.0</ele><time>2026-04-11T13:52:36.492Z</time></trkpt><trkpt lat="45.0726589" lon="7.258622"><ele>1300.0</ele><time>2026-04-11T13:53:17.549Z</time></trkpt><trkpt lat="45.0725199" lon="7.2587098"><ele>1300.0</ele><time>2026-04-11T13:53:40.513Z</time></trkpt><trkpt lat="45.0725459" lon="7.2586257"><ele>1300.0</ele><time>2026-04-11T13:54:25.42Z</time></trkpt><trkpt lat="45.0724779" lon="7.2585325"><ele>1300.0</ele><time>2026-04-11T13:55:02.547Z</time></trkpt><trkpt lat="45.0724135" lon="7.2585407"><ele>1300.0</ele><time>2026-04-11T13:55:10.518Z</time></trkpt><trkpt lat="45.072378" lon="7.2586146"><ele>1300.0</ele><time>2026-04-11T13:55:55.579Z</time></trkpt><trkpt lat="45.0723839" lon="7.2587047"><ele>1300.0</ele><time>2026-04-11T13:56:02.593Z</time></trkpt><trkpt lat="45.0724363" lon="7.2588419"><ele>1300.0</ele><time>2026-04-11T13:56:26.541Z</time></trkpt><trkpt lat="45.0723999" lon="7.2587563"><ele>1294.0</ele><time>2026-04-11T13:56:45.531Z</time></trkpt><trkpt lat="45.0723371" lon="7.2587155"><ele>1288.0</ele><time>2026-04-11T13:57:19.542Z</time></trkpt><trkpt lat="45.0723031" lon="7.2586381"><ele>1282.0</ele><time>2026-04-11T13:57:26.556Z</time></trkpt><trkpt lat="45.0722261" lon="7.2586031"><ele>1276.0</ele><time>2026-04-11T13:58:30.539Z</time></trkpt><trkpt lat="45.0721601" lon="7.2586122"><ele>1270.0</ele><time>2026-04-11T13:58:36.514Z</time></trkpt><trkpt lat="45.0720945" lon="7.2585894"><ele>1264.0</ele><time>2026-04-11T13:58:45.525Z</time></trkpt><trkpt lat="45.0720328" lon="7.2585633"><ele>1258.0</ele><time>2026-04-11T13:58:51.583Z</time></trkpt><trkpt lat="45.0719707" lon="7.258525"><ele>1258.0</ele><time>2026-04-11T13:58:58.514Z</time></trkpt><trkpt lat="45.0719131" lon="7.2584695"><ele>1258.0</ele><time>2026-04-11T13:59:10.514Z</time></trkpt><trkpt lat="45.0718467" lon="7.2584418"><ele>1258.0</ele><time>2026-04-11T13:59:16.56Z</time></trkpt><trkpt lat="45.0717802" lon="7.2584161"><ele>1258.0</ele><time>2026-04-11T13:59:22.6Z</time></trkpt><trkpt lat="45.0717155" lon="7.258382"><ele>1258.0</ele><time>2026-04-11T13:59:30.59Z</time></trkpt><trkpt lat="45.0716943" lon="7.2582979"><ele>1258.0</ele><time>2026-04-11T13:59:40.58Z</time></trkpt><trkpt lat="45.071656" lon="7.2582263"><ele>1258.0</ele><time>2026-04-11T13:59:53.547Z</time></trkpt><trkpt lat="45.0716365" lon="7.2581374"><ele>1255.7142857142856</ele><time>2026-04-11T14:00:00.563Z</time></trkpt><trkpt lat="45.0715981" lon="7.2580531"><ele>1253.4285714285716</ele><time>2026-04-11T14:00:10.554Z</time></trkpt><trkpt lat="45.0715426" lon="7.2579925"><ele>1251.142857142857</ele><time>2026-04-11T14:00:17.57Z</time></trkpt><trkpt lat="45.0715094" lon="7.257913"><ele>1248.8571428571427</ele><time>2026-04-11T14:00:26.513Z</time></trkpt><trkpt lat="45.0714631" lon="7.2578438"><ele>1246.5714285714284</ele><time>2026-04-11T14:00:34.576Z</time></trkpt><trkpt lat="45.0714307" lon="7.2577661"><ele>1244.2857142857142</ele><time>2026-04-11T14:00:40.527Z</time></trkpt><trkpt lat="45.0714018" lon="7.2576869"><ele>1242.0</ele><time>2026-04-11T14:00:48.583Z</time></trkpt><trkpt lat="45.0713762" lon="7.2575937"><ele>1241.9999999999998</ele><time>2026-04-11T14:00:55.514Z</time></trkpt><trkpt lat="45.0713342" lon="7.2575164"><ele>1242.0</ele><time>2026-04-11T14:01:02.529Z</time></trkpt><trkpt lat="45.0712741" lon="7.2574741"><ele>1242.0</ele><time>2026-04-11T14:01:08.502Z</time></trkpt><trkpt lat="45.0712117" lon="7.2574445"><ele>1242.0</ele><time>2026-04-11T14:01:14.603Z</time></trkpt><trkpt lat="45.0711532" lon="7.257408"><ele>1242.0</ele><time>2026-04-11T14:01:20.522Z</time></trkpt><trkpt lat="45.0710935" lon="7.2573542"><ele>1241.9999999999998</ele><time>2026-04-11T14:01:27.514Z</time></trkpt><trkpt lat="45.0710415" lon="7.2573032"><ele>1242.0</ele><time>2026-04-11T14:01:34.48Z</time></trkpt><trkpt lat="45.0709888" lon="7.2572513"><ele>1241.8571428571427</ele><time>2026-04-11T14:01:49.514Z</time></trkpt><trkpt lat="45.070964" lon="7.2571592"><ele>1241.7142857142858</ele><time>2026-04-11T14:01:55.501Z</time></trkpt><trkpt lat="45.0709757" lon="7.257071"><ele>1241.5714285714284</ele><time>2026-04-11T14:02:02.482Z</time></trkpt><trkpt lat="45.0709793" lon="7.2569764"><ele>1241.4285714285713</ele><time>2026-04-11T14:02:10.554Z</time></trkpt><trkpt lat="45.0709949" lon="7.2568823"><ele>1241.2857142857142</ele><time>2026-04-11T14:02:19.589Z</time></trkpt><trkpt lat="45.0709983" lon="7.256783"><ele>1241.142857142857</ele><time>2026-04-11T14:02:28.516Z</time></trkpt><trkpt lat="45.0709953" lon="7.2566849"><ele>1241.0</ele><time>2026-04-11T14:02:36.519Z</time></trkpt><trkpt lat="45.0710044" lon="7.2565964"><ele>1241.0</ele><time>2026-04-11T14:02:44.567Z</time></trkpt><trkpt lat="45.0710283" lon="7.2565046"><ele>1241.0</ele><time>2026-04-11T14:02:51.583Z</time></trkpt><trkpt lat="45.0710664" lon="7.2564269"><ele>1241.0</ele><time>2026-04-11T14:02:58.598Z</time></trkpt><trkpt lat="45.0710993" lon="7.2563333"><ele>1241.0</ele><time>2026-04-11T14:03:04.55Z</time></trkpt><trkpt lat="45.0711239" lon="7.2562408"><ele>1241.0</ele><time>2026-04-11T14:03:12.522Z</time></trkpt><trkpt lat="45.0711206" lon="7.2561389"><ele>1241.0</ele><time>2026-04-11T14:03:19.537Z</time></trkpt><trkpt lat="45.0711179" lon="7.2560439"><ele>1241.0</ele><time>2026-04-11T14:03:25.444Z</time></trkpt><trkpt lat="45.0711019" lon="7.2559422"><ele>1241.0</ele><time>2026-04-11T14:03:31.583Z</time></trkpt><trkpt lat="45.0710847" lon="7.2558448"><ele>1241.0</ele><time>2026-04-11T14:03:40.583Z</time></trkpt><trkpt lat="45.0710716" lon="7.2557534"><ele>1241.0</ele><time>2026-04-11T14:03:46.535Z</time></trkpt><trkpt lat="45.0710574" lon="7.2556564"><ele>1241.0</ele><time>2026-04-11T14:03:53.551Z</time></trkpt><trkpt lat="45.0710375" lon="7.2555598"><ele>1241.0</ele><time>2026-04-11T14:04:02.584Z</time></trkpt><trkpt lat="45.0709846" lon="7.2554938"><ele>1241.0</ele><time>2026-04-11T14:04:08.538Z</time></trkpt><trkpt lat="45.0709381" lon="7.2554251"><ele>1241.0</ele><time>2026-04-11T14:04:15.564Z</time></trkpt><trkpt lat="45.0708876" lon="7.2553616"><ele>1242.857142857143</ele><time>2026-04-11T14:04:23.524Z</time></trkpt><trkpt lat="45.0708298" lon="7.2553137"><ele>1244.7142857142856</ele><time>2026-04-11T14:04:32.56Z</time></trkpt><trkpt lat="45.0707695" lon="7.2552723"><ele>1246.5714285714284</ele><time>2026-04-11T14:04:38.523Z</time></trkpt><trkpt lat="45.0707129" lon="7.2552324"><ele>1248.4285714285716</ele><time>2026-04-11T14:04:42.551Z</time></trkpt><trkpt lat="45.0706388" lon="7.2552156"><ele>1250.2857142857142</ele><time>2026-04-11T14:04:48.513Z</time></trkpt><trkpt lat="45.0705786" lon="7.2551752"><ele>1252.142857142857</ele><time>2026-04-11T14:04:54.422Z</time></trkpt><trkpt lat="45.0705526" lon="7.2550938"><ele>1254.0</ele><time>2026-04-11T14:05:02.534Z</time></trkpt><trkpt lat="45.0705119" lon="7.2550166"><ele>1248.4285714285716</ele><time>2026-04-11T14:05:10.514Z</time></trkpt><trkpt lat="45.0704833" lon="7.2549256"><ele>1242.857142857143</ele><time>2026-04-11T14:05:18.583Z</time></trkpt><trkpt lat="45.0704627" lon="7.2548378"><ele>1237.2857142857142</ele><time>2026-04-11T14:05:25.459Z</time></trkpt><trkpt lat="45.0704328" lon="7.254749"><ele>1231.7142857142858</ele><time>2026-04-11T14:05:32.514Z</time></trkpt><trkpt lat="45.0703899" lon="7.2546697"><ele>1226.142857142857</ele><time>2026-04-11T14:05:40.586Z</time></trkpt><trkpt lat="45.07035" lon="7.2545864"><ele>1220.5714285714287</ele><time>2026-04-11T14:05:47.52Z</time></trkpt><trkpt lat="45.0703143" lon="7.2545092"><ele>1215.0</ele><time>2026-04-11T14:05:54.514Z</time></trkpt><trkpt lat="45.0702811" lon="7.2544271"><ele>1215.0000000000002</ele><time>2026-04-11T14:06:02.542Z</time></trkpt><trkpt lat="45.0702344" lon="7.2543622"><ele>1215.0</ele><time>2026-04-11T14:06:09.514Z</time></trkpt><trkpt lat="45.070213" lon="7.2542735"><ele>1215.0</ele><time>2026-04-11T14:06:16.514Z</time></trkpt><trkpt lat="45.0701916" lon="7.2541856"><ele>1215.0</ele><time>2026-04-11T14:06:22.571Z</time></trkpt><trkpt lat="45.0701775" lon="7.2540982"><ele>1215.0</ele><time>2026-04-11T14:06:31.606Z</time></trkpt><trkpt lat="45.0701489" lon="7.2540105"><ele>1215.0000000000002</ele><time>2026-04-11T14:06:39.578Z</time></trkpt><trkpt lat="45.0701363" lon="7.2539155"><ele>1215.0</ele><time>2026-04-11T14:06:47.55Z</time></trkpt><trkpt lat="45.0700977" lon="7.2538414"><ele>1213.4285714285716</ele><time>2026-04-11T14:06:54.564Z</time></trkpt><trkpt lat="45.0700407" lon="7.2537968"><ele>1211.857142857143</ele><time>2026-04-11T14:07:02.537Z</time></trkpt><trkpt lat="45.0699778" lon="7.253817"><ele>1210.2857142857142</ele><time>2026-04-11T14:07:09.553Z</time></trkpt><trkpt lat="45.0699438" lon="7.253913"><ele>1208.7142857142858</ele><time>2026-04-11T14:07:17.525Z</time></trkpt><trkpt lat="45.0698812" lon="7.2540259"><ele>1207.142857142857</ele><time>2026-04-11T14:07:52.482Z</time></trkpt><trkpt lat="45.0698416" lon="7.2541039"><ele>1205.5714285714287</ele><time>2026-04-11T14:08:00.575Z</time></trkpt><trkpt lat="45.0698285" lon="7.2541935"><ele>1204.0</ele><time>2026-04-11T14:08:09.61Z</time></trkpt><trkpt lat="45.0698266" lon="7.2542941"><ele>1200.7142857142858</ele><time>2026-04-11T14:08:17.582Z</time></trkpt><trkpt lat="45.0698113" lon="7.2543813"><ele>1197.4285714285716</ele><time>2026-04-11T14:08:25.554Z</time></trkpt><trkpt lat="45.0698201" lon="7.254473"><ele>1194.142857142857</ele><time>2026-04-11T14:08:33.525Z</time></trkpt><trkpt lat="45.0698338" lon="7.2545691"><ele>1190.857142857143</ele><time>2026-04-11T14:08:41.603Z</time></trkpt><trkpt lat="45.0698469" lon="7.2546635"><ele>1187.5714285714287</ele><time>2026-04-11T14:08:49.576Z</time></trkpt><trkpt lat="45.0698458" lon="7.2547532"><ele>1184.2857142857142</ele><time>2026-04-11T14:08:56.591Z</time></trkpt><trkpt lat="45.0698478" lon="7.2548498"><ele>1181.0</ele><time>2026-04-11T14:09:03.467Z</time></trkpt><trkpt lat="45.0698691" lon="7.2549421"><ele>1178.7142857142858</ele><time>2026-04-11T14:09:11.444Z</time></trkpt><trkpt lat="45.0698651" lon="7.2550341"><ele>1176.4285714285716</ele><time>2026-04-11T14:09:19.549Z</time></trkpt><trkpt lat="45.0698762" lon="7.2551319"><ele>1174.142857142857</ele><time>2026-04-11T14:09:28.584Z</time></trkpt><trkpt lat="45.0698993" lon="7.2552238"><ele>1171.857142857143</ele><time>2026-04-11T14:09:36.556Z</time></trkpt><trkpt lat="45.0699055" lon="7.2553233"><ele>1169.5714285714284</ele><time>2026-04-11T14:09:45.486Z</time></trkpt><trkpt lat="45.0699223" lon="7.2554219"><ele>1167.2857142857142</ele><time>2026-04-11T14:09:51.543Z</time></trkpt><trkpt lat="45.0699578" lon="7.2555038"><ele>1165.0</ele><time>2026-04-11T14:09:58.557Z</time></trkpt><trkpt lat="45.0699947" lon="7.2555783"><ele>1169.142857142857</ele><time>2026-04-11T14:10:07.591Z</time></trkpt><trkpt lat="45.070053" lon="7.2556357"><ele>1173.2857142857142</ele><time>2026-04-11T14:10:13.544Z</time></trkpt><trkpt lat="45.0700958" lon="7.2557121"><ele>1177.4285714285716</ele><time>2026-04-11T14:10:19.484Z</time></trkpt><trkpt lat="45.0701154" lon="7.2557975"><ele>1181.5714285714284</ele><time>2026-04-11T14:10:26.585Z</time></trkpt><trkpt lat="45.0701284" lon="7.255888"><ele>1185.7142857142858</ele><time>2026-04-11T14:10:32.503Z</time></trkpt><trkpt lat="45.0701282" lon="7.2559972"><ele>1189.857142857143</ele><time>2026-04-11T14:10:47.586Z</time></trkpt><trkpt lat="45.0700692" lon="7.2560329"><ele>1194.0</ele><time>2026-04-11T14:10:55.527Z</time></trkpt><trkpt lat="45.070065" lon="7.2558427"><ele>1194.0000000000002</ele><time>2026-04-11T14:11:14.552Z</time></trkpt><trkpt lat="45.0700418" lon="7.2557491"><ele>1194.0</ele><time>2026-04-11T14:11:22.524Z</time></trkpt><trkpt lat="45.0699842" lon="7.2557038"><ele>1194.0</ele><time>2026-04-11T14:11:29.538Z</time></trkpt><trkpt lat="45.0699284" lon="7.2556566"><ele>1194.0</ele><time>2026-04-11T14:11:35.604Z</time></trkpt><trkpt lat="45.069884" lon="7.2555905"><ele>1194.0</ele><time>2026-04-11T14:11:42.612Z</time></trkpt><trkpt lat="45.0698524" lon="7.2555114"><ele>1194.0000000000002</ele><time>2026-04-11T14:11:48.563Z</time></trkpt><trkpt lat="45.0698236" lon="7.2554222"><ele>1194.0</ele><time>2026-04-11T14:11:57.566Z</time></trkpt><trkpt lat="45.069781" lon="7.2553325"><ele>1189.857142857143</ele><time>2026-04-11T14:12:04.513Z</time></trkpt><trkpt lat="45.0697435" lon="7.2552584"><ele>1185.7142857142858</ele><time>2026-04-11T14:12:09.608Z</time></trkpt><trkpt lat="45.0697035" lon="7.2551866"><ele>1181.5714285714284</ele><time>2026-04-11T14:12:15.406Z</time></trkpt><trkpt lat="45.0696491" lon="7.2551348"><ele>1177.4285714285716</ele><time>2026-04-11T14:12:20.556Z</time></trkpt><trkpt lat="45.0695894" lon="7.2550819"><ele>1173.2857142857142</ele><time>2026-04-11T14:12:26.614Z</time></trkpt><trkpt lat="45.0695455" lon="7.2549978"><ele>1169.142857142857</ele><time>2026-04-11T14:12:34.586Z</time></trkpt><trkpt lat="45.069532" lon="7.2549104"><ele>1165.0</ele><time>2026-04-11T14:12:43.512Z</time></trkpt><trkpt lat="45.0695183" lon="7.2548217"><ele>1167.2857142857142</ele><time>2026-04-11T14:12:52.547Z</time></trkpt><trkpt lat="45.0695114" lon="7.2547324"><ele>1169.5714285714284</ele><time>2026-04-11T14:12:57.542Z</time></trkpt><trkpt lat="45.0694887" lon="7.2546424"><ele>1171.857142857143</ele><time>2026-04-11T14:13:01.628Z</time></trkpt><trkpt lat="45.0694582" lon="7.2545558"><ele>1174.142857142857</ele><time>2026-04-11T14:13:06.577Z</time></trkpt><trkpt lat="45.0694268" lon="7.2544707"><ele>1176.4285714285716</ele><time>2026-04-11T14:13:12.486Z</time></trkpt><trkpt lat="45.069388" lon="7.2543849"><ele>1178.7142857142858</ele><time>2026-04-11T14:13:19.542Z</time></trkpt><trkpt lat="45.0693473" lon="7.2543167"><ele>1181.0</ele><time>2026-04-11T14:13:24.538Z</time></trkpt><trkpt lat="45.0693051" lon="7.2542394"><ele>1181.0</ele><time>2026-04-11T14:13:32.616Z</time></trkpt><trkpt lat="45.0692639" lon="7.254159"><ele>1181.0</ele><time>2026-04-11T14:13:39.523Z</time></trkpt><trkpt lat="45.0692104" lon="7.2540808"><ele>1181.0</ele><time>2026-04-11T14:13:45.582Z</time></trkpt><trkpt lat="45.069151" lon="7.2540347"><ele>1181.0</ele><time>2026-04-11T14:13:50.577Z</time></trkpt><trkpt lat="45.0690939" lon="7.2539845"><ele>1181.0</ele><time>2026-04-11T14:13:55.582Z</time></trkpt><trkpt lat="45.0690327" lon="7.2539429"><ele>1181.0</ele><time>2026-04-11T14:14:00.568Z</time></trkpt><trkpt lat="45.06897" lon="7.2539051"><ele>1181.0</ele><time>2026-04-11T14:14:05.563Z</time></trkpt><trkpt lat="45.068905" lon="7.2538732"><ele>1150.0</ele><time>2026-04-11T14:14:11.515Z</time></trkpt><trkpt lat="45.0688355" lon="7.2538532"><ele>1150.0</ele><time>2026-04-11T14:14:19.592Z</time></trkpt><trkpt lat="45.068765" lon="7.2538282"><ele>1150.0</ele><time>2026-04-11T14:14:26.584Z</time></trkpt><trkpt lat="45.0687005" lon="7.253799"><ele>1150.0</ele><time>2026-04-11T14:14:32.558Z</time></trkpt><trkpt lat="45.0686434" lon="7.2537558"><ele>1150.0</ele><time>2026-04-11T14:14:41.592Z</time></trkpt></trkseg></trk></gpx>